<?xml version="1.0" encoding="UTF-8" standalone="no" ?>
<gpx xmlns="http://www.topografix.com/GPX/1/1" xmlns:xsi="http://www.w3.org/2001/XMLSchema-instance" xsi:schemaLocation="http://www.topografix.com/GPX/1/1 http://www.topografix.com/GPX/1/1/gpx.xsd" version="1.1" creator="VisuGPX - https://www.visugpx.com">
  <metadata>
    <name>Radome de Caussols de Bar/Loup</name>
    <desc><![CDATA[Superbe itinéraire sur les hauteurs du pays grassois.]]></desc>
  </metadata>
  <trk>
    <name><![CDATA[ACTIVE LOG 004]]></name>
    <trkseg>
      <trkpt lat="43.69999" lon="6.98606">
        <ele>250.560791</ele>
        <time>2012-03-03T09:06:05Z</time>
      </trkpt>
      <trkpt lat="43.70001" lon="6.98601">
        <ele>255.8480225</ele>
        <time>2012-03-03T09:06:23Z</time>
      </trkpt>
      <trkpt lat="43.70001" lon="6.98602">
        <ele>261.1352539</ele>
        <time>2012-03-03T09:06:25Z</time>
      </trkpt>
      <trkpt lat="43.70001" lon="6.98602">
        <ele>265.4613037</ele>
        <time>2012-03-03T09:06:27Z</time>
      </trkpt>
      <trkpt lat="43.70001" lon="6.98601">
        <ele>269.7871094</ele>
        <time>2012-03-03T09:06:29Z</time>
      </trkpt>
      <trkpt lat="43.70001" lon="6.98601">
        <ele>273.1518555</ele>
        <time>2012-03-03T09:06:31Z</time>
      </trkpt>
      <trkpt lat="43.70001" lon="6.98601">
        <ele>276.5163574</ele>
        <time>2012-03-03T09:06:33Z</time>
      </trkpt>
      <trkpt lat="43.70001" lon="6.986">
        <ele>280.3616943</ele>
        <time>2012-03-03T09:06:35Z</time>
      </trkpt>
      <trkpt lat="43.70002" lon="6.986">
        <ele>283.7261963</ele>
        <time>2012-03-03T09:06:37Z</time>
      </trkpt>
      <trkpt lat="43.70002" lon="6.98599">
        <ele>288.0522461</ele>
        <time>2012-03-03T09:06:40Z</time>
      </trkpt>
      <trkpt lat="43.70002" lon="6.98599">
        <ele>291.8974609</ele>
        <time>2012-03-03T09:06:43Z</time>
      </trkpt>
      <trkpt lat="43.70002" lon="6.98599">
        <ele>295.7426758</ele>
        <time>2012-03-03T09:06:46Z</time>
      </trkpt>
      <trkpt lat="43.70002" lon="6.98599">
        <ele>300.0687256</ele>
        <time>2012-03-03T09:06:50Z</time>
      </trkpt>
      <trkpt lat="43.70002" lon="6.98599">
        <ele>303.4332275</ele>
        <time>2012-03-03T09:06:54Z</time>
      </trkpt>
      <trkpt lat="43.70002" lon="6.98599">
        <ele>306.3172607</ele>
        <time>2012-03-03T09:06:58Z</time>
      </trkpt>
      <trkpt lat="43.70002" lon="6.98599">
        <ele>309.6818848</ele>
        <time>2012-03-03T09:07:03Z</time>
      </trkpt>
      <trkpt lat="43.70002" lon="6.98599">
        <ele>313.0465088</ele>
        <time>2012-03-03T09:07:08Z</time>
      </trkpt>
      <trkpt lat="43.70002" lon="6.98599">
        <ele>315.9304199</ele>
        <time>2012-03-03T09:07:15Z</time>
      </trkpt>
      <trkpt lat="43.70002" lon="6.98599">
        <ele>319.2950439</ele>
        <time>2012-03-03T09:07:23Z</time>
      </trkpt>
      <trkpt lat="43.70002" lon="6.98599">
        <ele>322.1789551</ele>
        <time>2012-03-03T09:07:33Z</time>
      </trkpt>
      <trkpt lat="43.70002" lon="6.98599">
        <ele>325.5435791</ele>
        <time>2012-03-03T09:07:56Z</time>
      </trkpt>
      <trkpt lat="43.70002" lon="6.98599">
        <ele>328.4276123</ele>
        <time>2012-03-03T09:08:55Z</time>
      </trkpt>
      <trkpt lat="43.70001" lon="6.98599">
        <ele>328.4276123</ele>
        <time>2012-03-03T09:10:58Z</time>
      </trkpt>
      <trkpt lat="43.6998" lon="6.98601">
        <ele>327.4661865</ele>
        <time>2012-03-03T09:11:09Z</time>
      </trkpt>
      <trkpt lat="43.69976" lon="6.98598">
        <ele>326.9855957</ele>
        <time>2012-03-03T09:11:19Z</time>
      </trkpt>
      <trkpt lat="43.69972" lon="6.98587">
        <ele>327.9467773</ele>
        <time>2012-03-03T09:11:23Z</time>
      </trkpt>
      <trkpt lat="43.69964" lon="6.98566">
        <ele>330.8309326</ele>
        <time>2012-03-03T09:11:32Z</time>
      </trkpt>
      <trkpt lat="43.69961" lon="6.98558">
        <ele>331.3115234</ele>
        <time>2012-03-03T09:11:35Z</time>
      </trkpt>
      <trkpt lat="43.6995" lon="6.98542">
        <ele>332.75354</ele>
        <time>2012-03-03T09:11:43Z</time>
      </trkpt>
      <trkpt lat="43.69923" lon="6.98498">
        <ele>334.6761475</ele>
        <time>2012-03-03T09:12:03Z</time>
      </trkpt>
      <trkpt lat="43.69911" lon="6.98479">
        <ele>336.1181641</ele>
        <time>2012-03-03T09:13:04Z</time>
      </trkpt>
      <trkpt lat="43.69884" lon="6.98415">
        <ele>338.0407715</ele>
        <time>2012-03-03T09:13:23Z</time>
      </trkpt>
      <trkpt lat="43.69902" lon="6.98373">
        <ele>340.9246826</ele>
        <time>2012-03-03T09:13:37Z</time>
      </trkpt>
      <trkpt lat="43.69907" lon="6.98333">
        <ele>343.8085938</ele>
        <time>2012-03-03T09:13:51Z</time>
      </trkpt>
      <trkpt lat="43.69906" lon="6.98314">
        <ele>346.2120361</ele>
        <time>2012-03-03T09:14:05Z</time>
      </trkpt>
      <trkpt lat="43.69907" lon="6.98312">
        <ele>346.2120361</ele>
        <time>2012-03-03T09:14:06Z</time>
      </trkpt>
      <trkpt lat="43.69906" lon="6.98305">
        <ele>347.1732178</ele>
        <time>2012-03-03T09:14:09Z</time>
      </trkpt>
      <trkpt lat="43.69909" lon="6.9828">
        <ele>350.057251</ele>
        <time>2012-03-03T09:14:21Z</time>
      </trkpt>
      <trkpt lat="43.69915" lon="6.98259">
        <ele>353.421875</ele>
        <time>2012-03-03T09:14:31Z</time>
      </trkpt>
      <trkpt lat="43.69921" lon="6.98249">
        <ele>355.3444824</ele>
        <time>2012-03-03T09:14:38Z</time>
      </trkpt>
      <trkpt lat="43.69928" lon="6.98223">
        <ele>358.2283936</ele>
        <time>2012-03-03T09:14:52Z</time>
      </trkpt>
      <trkpt lat="43.6993" lon="6.98219">
        <ele>358.7089844</ele>
        <time>2012-03-03T09:14:55Z</time>
      </trkpt>
      <trkpt lat="43.69948" lon="6.98208">
        <ele>363.0350342</ele>
        <time>2012-03-03T09:15:10Z</time>
      </trkpt>
      <trkpt lat="43.69949" lon="6.98208">
        <ele>363.0350342</ele>
        <time>2012-03-03T09:15:11Z</time>
      </trkpt>
      <trkpt lat="43.69951" lon="6.98207">
        <ele>361.5931396</ele>
        <time>2012-03-03T09:15:13Z</time>
      </trkpt>
      <trkpt lat="43.69956" lon="6.98206">
        <ele>363.0350342</ele>
        <time>2012-03-03T09:15:17Z</time>
      </trkpt>
      <trkpt lat="43.69961" lon="6.98203">
        <ele>364.4769287</ele>
        <time>2012-03-03T09:15:22Z</time>
      </trkpt>
      <trkpt lat="43.69965" lon="6.98189">
        <ele>367.8415527</ele>
        <time>2012-03-03T09:15:33Z</time>
      </trkpt>
      <trkpt lat="43.69973" lon="6.98179">
        <ele>370.244873</ele>
        <time>2012-03-03T09:15:44Z</time>
      </trkpt>
      <trkpt lat="43.69974" lon="6.98174">
        <ele>370.7255859</ele>
        <time>2012-03-03T09:15:46Z</time>
      </trkpt>
      <trkpt lat="43.69977" lon="6.98174">
        <ele>371.2062988</ele>
        <time>2012-03-03T09:15:48Z</time>
      </trkpt>
      <trkpt lat="43.69978" lon="6.98167">
        <ele>372.6481934</ele>
        <time>2012-03-03T09:15:55Z</time>
      </trkpt>
      <trkpt lat="43.69986" lon="6.98149">
        <ele>376.0128174</ele>
        <time>2012-03-03T09:16:11Z</time>
      </trkpt>
      <trkpt lat="43.69997" lon="6.9813">
        <ele>377.454834</ele>
        <time>2012-03-03T09:16:23Z</time>
      </trkpt>
      <trkpt lat="43.70005" lon="6.98123">
        <ele>378.4161377</ele>
        <time>2012-03-03T09:16:29Z</time>
      </trkpt>
      <trkpt lat="43.7001" lon="6.98119">
        <ele>378.8968506</ele>
        <time>2012-03-03T09:16:34Z</time>
      </trkpt>
      <trkpt lat="43.70022" lon="6.98092">
        <ele>380.3387451</ele>
        <time>2012-03-03T09:16:47Z</time>
      </trkpt>
      <trkpt lat="43.70022" lon="6.98086">
        <ele>381.3000488</ele>
        <time>2012-03-03T09:16:50Z</time>
      </trkpt>
      <trkpt lat="43.70024" lon="6.98042">
        <ele>384.184082</ele>
        <time>2012-03-03T09:17:08Z</time>
      </trkpt>
      <trkpt lat="43.70021" lon="6.98011">
        <ele>385.6259766</ele>
        <time>2012-03-03T09:17:22Z</time>
      </trkpt>
      <trkpt lat="43.70019" lon="6.97989">
        <ele>388.9906006</ele>
        <time>2012-03-03T09:17:34Z</time>
      </trkpt>
      <trkpt lat="43.7002" lon="6.97987">
        <ele>389.4711914</ele>
        <time>2012-03-03T09:17:36Z</time>
      </trkpt>
      <trkpt lat="43.70021" lon="6.97952">
        <ele>392.3553467</ele>
        <time>2012-03-03T09:17:54Z</time>
      </trkpt>
      <trkpt lat="43.70021" lon="6.97929">
        <ele>395.7198486</ele>
        <time>2012-03-03T09:18:08Z</time>
      </trkpt>
      <trkpt lat="43.70021" lon="6.97904">
        <ele>398.6037598</ele>
        <time>2012-03-03T09:18:24Z</time>
      </trkpt>
      <trkpt lat="43.70021" lon="6.97876">
        <ele>401.487793</ele>
        <time>2012-03-03T09:18:40Z</time>
      </trkpt>
      <trkpt lat="43.70023" lon="6.97853">
        <ele>404.3717041</ele>
        <time>2012-03-03T09:18:54Z</time>
      </trkpt>
      <trkpt lat="43.70024" lon="6.97849">
        <ele>404.8522949</ele>
        <time>2012-03-03T09:18:56Z</time>
      </trkpt>
      <trkpt lat="43.70025" lon="6.97823">
        <ele>408.217041</ele>
        <time>2012-03-03T09:19:11Z</time>
      </trkpt>
      <trkpt lat="43.70024" lon="6.97801">
        <ele>411.581665</ele>
        <time>2012-03-03T09:19:24Z</time>
      </trkpt>
      <trkpt lat="43.70022" lon="6.97787">
        <ele>413.0235596</ele>
        <time>2012-03-03T09:19:33Z</time>
      </trkpt>
      <trkpt lat="43.70028" lon="6.97779">
        <ele>414.946167</ele>
        <time>2012-03-03T09:19:41Z</time>
      </trkpt>
      <trkpt lat="43.70032" lon="6.97778">
        <ele>414.946167</ele>
        <time>2012-03-03T09:19:44Z</time>
      </trkpt>
      <trkpt lat="43.70036" lon="6.97781">
        <ele>416.3881836</ele>
        <time>2012-03-03T09:19:47Z</time>
      </trkpt>
      <trkpt lat="43.70042" lon="6.97756">
        <ele>421.675415</ele>
        <time>2012-03-03T09:21:22Z</time>
      </trkpt>
      <trkpt lat="43.70042" lon="6.97754">
        <ele>421.675415</ele>
        <time>2012-03-03T09:21:23Z</time>
      </trkpt>
      <trkpt lat="43.70038" lon="6.97728">
        <ele>425.520752</ele>
        <time>2012-03-03T09:21:36Z</time>
      </trkpt>
      <trkpt lat="43.70032" lon="6.97687">
        <ele>426.4820557</ele>
        <time>2012-03-03T09:21:53Z</time>
      </trkpt>
      <trkpt lat="43.70031" lon="6.97681">
        <ele>426.9627686</ele>
        <time>2012-03-03T09:21:56Z</time>
      </trkpt>
      <trkpt lat="43.70029" lon="6.97662">
        <ele>430.8079834</ele>
        <time>2012-03-03T09:22:11Z</time>
      </trkpt>
      <trkpt lat="43.70029" lon="6.97662">
        <ele>431.2885742</ele>
        <time>2012-03-03T09:22:27Z</time>
      </trkpt>
      <trkpt lat="43.70029" lon="6.97662">
        <ele>434.6533203</ele>
        <time>2012-03-03T09:22:41Z</time>
      </trkpt>
      <trkpt lat="43.70029" lon="6.97662">
        <ele>438.0178223</ele>
        <time>2012-03-03T09:22:58Z</time>
      </trkpt>
      <trkpt lat="43.70029" lon="6.97662">
        <ele>441.3824463</ele>
        <time>2012-03-03T09:23:19Z</time>
      </trkpt>
      <trkpt lat="43.70029" lon="6.97662">
        <ele>444.2664795</ele>
        <time>2012-03-03T09:23:41Z</time>
      </trkpt>
      <trkpt lat="43.70029" lon="6.97662">
        <ele>448.1118164</ele>
        <time>2012-03-03T09:24:00Z</time>
      </trkpt>
      <trkpt lat="43.70029" lon="6.97662">
        <ele>448.1118164</ele>
        <time>2012-03-03T09:24:03Z</time>
      </trkpt>
      <trkpt lat="43.70029" lon="6.97662">
        <ele>450.0344238</ele>
        <time>2012-03-03T09:24:22Z</time>
      </trkpt>
      <trkpt lat="43.70029" lon="6.97662">
        <ele>449.5537109</ele>
        <time>2012-03-03T09:26:03Z</time>
      </trkpt>
      <trkpt lat="43.70029" lon="6.97662">
        <ele>449.5537109</ele>
        <time>2012-03-03T09:26:21Z</time>
      </trkpt>
      <trkpt lat="43.70056" lon="6.97533">
        <ele>453.3989258</ele>
        <time>2012-03-03T09:26:38Z</time>
      </trkpt>
      <trkpt lat="43.7006" lon="6.9752">
        <ele>454.8408203</ele>
        <time>2012-03-03T09:26:47Z</time>
      </trkpt>
      <trkpt lat="43.7006" lon="6.9752">
        <ele>456.7635498</ele>
        <time>2012-03-03T09:27:03Z</time>
      </trkpt>
      <trkpt lat="43.70062" lon="6.97492">
        <ele>457.7249756</ele>
        <time>2012-03-03T09:27:10Z</time>
      </trkpt>
      <trkpt lat="43.70062" lon="6.9749">
        <ele>457.7249756</ele>
        <time>2012-03-03T09:27:13Z</time>
      </trkpt>
      <trkpt lat="43.70065" lon="6.97482">
        <ele>459.1668701</ele>
        <time>2012-03-03T09:27:16Z</time>
      </trkpt>
      <trkpt lat="43.70066" lon="6.97481">
        <ele>461.5701904</ele>
        <time>2012-03-03T09:27:29Z</time>
      </trkpt>
      <trkpt lat="43.70066" lon="6.97481">
        <ele>464.4541016</ele>
        <time>2012-03-03T09:27:46Z</time>
      </trkpt>
      <trkpt lat="43.70066" lon="6.97481">
        <ele>466.376709</ele>
        <time>2012-03-03T09:27:59Z</time>
      </trkpt>
      <trkpt lat="43.70066" lon="6.97481">
        <ele>466.376709</ele>
        <time>2012-03-03T09:28:02Z</time>
      </trkpt>
      <trkpt lat="43.70093" lon="6.97475">
        <ele>469.2607422</ele>
        <time>2012-03-03T09:28:15Z</time>
      </trkpt>
      <trkpt lat="43.70102" lon="6.97491">
        <ele>472.1446533</ele>
        <time>2012-03-03T09:28:28Z</time>
      </trkpt>
      <trkpt lat="43.70102" lon="6.97491">
        <ele>472.6253662</ele>
        <time>2012-03-03T09:28:33Z</time>
      </trkpt>
      <trkpt lat="43.70102" lon="6.97491">
        <ele>475.5092773</ele>
        <time>2012-03-03T09:28:51Z</time>
      </trkpt>
      <trkpt lat="43.70102" lon="6.97491">
        <ele>477.9124756</ele>
        <time>2012-03-03T09:29:06Z</time>
      </trkpt>
      <trkpt lat="43.70102" lon="6.97491">
        <ele>479.835083</ele>
        <time>2012-03-03T09:29:21Z</time>
      </trkpt>
      <trkpt lat="43.70102" lon="6.97491">
        <ele>483.1998291</ele>
        <time>2012-03-03T09:29:38Z</time>
      </trkpt>
      <trkpt lat="43.70102" lon="6.97491">
        <ele>486.0837402</ele>
        <time>2012-03-03T09:30:00Z</time>
      </trkpt>
      <trkpt lat="43.70102" lon="6.97491">
        <ele>488.9677734</ele>
        <time>2012-03-03T09:30:19Z</time>
      </trkpt>
      <trkpt lat="43.70102" lon="6.97491">
        <ele>492.3323975</ele>
        <time>2012-03-03T09:30:38Z</time>
      </trkpt>
      <trkpt lat="43.70154" lon="6.97386">
        <ele>495.2161865</ele>
        <time>2012-03-03T09:30:57Z</time>
      </trkpt>
      <trkpt lat="43.70154" lon="6.97386">
        <ele>498.1003418</ele>
        <time>2012-03-03T09:31:20Z</time>
      </trkpt>
      <trkpt lat="43.70154" lon="6.97386">
        <ele>498.1003418</ele>
        <time>2012-03-03T09:31:26Z</time>
      </trkpt>
      <trkpt lat="43.70165" lon="6.97348">
        <ele>499.5422363</ele>
        <time>2012-03-03T09:31:33Z</time>
      </trkpt>
      <trkpt lat="43.70165" lon="6.97348">
        <ele>503.3874512</ele>
        <time>2012-03-03T09:31:45Z</time>
      </trkpt>
      <trkpt lat="43.70165" lon="6.97348">
        <ele>504.8294678</ele>
        <time>2012-03-03T09:31:52Z</time>
      </trkpt>
      <trkpt lat="43.70165" lon="6.97348">
        <ele>508.6746826</ele>
        <time>2012-03-03T09:32:06Z</time>
      </trkpt>
      <trkpt lat="43.70165" lon="6.97348">
        <ele>508.6746826</ele>
        <time>2012-03-03T09:32:08Z</time>
      </trkpt>
      <trkpt lat="43.70194" lon="6.97306">
        <ele>512.0394287</ele>
        <time>2012-03-03T09:32:18Z</time>
      </trkpt>
      <trkpt lat="43.702" lon="6.97291">
        <ele>512.0394287</ele>
        <time>2012-03-03T09:32:21Z</time>
      </trkpt>
      <trkpt lat="43.70201" lon="6.97286">
        <ele>513.4814453</ele>
        <time>2012-03-03T09:32:25Z</time>
      </trkpt>
      <trkpt lat="43.70201" lon="6.97286">
        <ele>514.9233398</ele>
        <time>2012-03-03T09:32:32Z</time>
      </trkpt>
      <trkpt lat="43.70201" lon="6.97286">
        <ele>515.4040527</ele>
        <time>2012-03-03T09:32:35Z</time>
      </trkpt>
      <trkpt lat="43.70211" lon="6.97255">
        <ele>518.7685547</ele>
        <time>2012-03-03T09:32:50Z</time>
      </trkpt>
      <trkpt lat="43.70211" lon="6.97255">
        <ele>519.7298584</ele>
        <time>2012-03-03T09:32:53Z</time>
      </trkpt>
      <trkpt lat="43.70213" lon="6.97234">
        <ele>520.2105713</ele>
        <time>2012-03-03T09:32:59Z</time>
      </trkpt>
      <trkpt lat="43.70213" lon="6.97192">
        <ele>522.6138916</ele>
        <time>2012-03-03T09:33:23Z</time>
      </trkpt>
      <trkpt lat="43.70213" lon="6.97181">
        <ele>522.1331787</ele>
        <time>2012-03-03T09:33:29Z</time>
      </trkpt>
      <trkpt lat="43.7022" lon="6.97176">
        <ele>524.536499</ele>
        <time>2012-03-03T09:33:41Z</time>
      </trkpt>
      <trkpt lat="43.70221" lon="6.97185">
        <ele>527.901001</ele>
        <time>2012-03-03T09:33:53Z</time>
      </trkpt>
      <trkpt lat="43.70221" lon="6.97185">
        <ele>531.2657471</ele>
        <time>2012-03-03T09:34:07Z</time>
      </trkpt>
      <trkpt lat="43.70228" lon="6.97233">
        <ele>533.6689453</ele>
        <time>2012-03-03T09:34:24Z</time>
      </trkpt>
      <trkpt lat="43.70227" lon="6.97262">
        <ele>536.5531006</ele>
        <time>2012-03-03T09:34:44Z</time>
      </trkpt>
      <trkpt lat="43.70227" lon="6.97262">
        <ele>537.9949951</ele>
        <time>2012-03-03T09:34:54Z</time>
      </trkpt>
      <trkpt lat="43.70227" lon="6.97262">
        <ele>538.475708</ele>
        <time>2012-03-03T09:34:57Z</time>
      </trkpt>
      <trkpt lat="43.70233" lon="6.97281">
        <ele>537.0336914</ele>
        <time>2012-03-03T09:34:59Z</time>
      </trkpt>
      <trkpt lat="43.70235" lon="6.97269">
        <ele>540.8789063</ele>
        <time>2012-03-03T09:35:11Z</time>
      </trkpt>
      <trkpt lat="43.7024" lon="6.97234">
        <ele>543.7628174</ele>
        <time>2012-03-03T09:35:37Z</time>
      </trkpt>
      <trkpt lat="43.7024" lon="6.97234">
        <ele>545.6855469</ele>
        <time>2012-03-03T09:35:49Z</time>
      </trkpt>
      <trkpt lat="43.7024" lon="6.97234">
        <ele>546.1662598</ele>
        <time>2012-03-03T09:35:52Z</time>
      </trkpt>
      <trkpt lat="43.7024" lon="6.97234">
        <ele>546.6468506</ele>
        <time>2012-03-03T09:35:55Z</time>
      </trkpt>
      <trkpt lat="43.70248" lon="6.97188">
        <ele>550.0114746</ele>
        <time>2012-03-03T09:36:05Z</time>
      </trkpt>
      <trkpt lat="43.70249" lon="6.97174">
        <ele>551.934082</ele>
        <time>2012-03-03T09:36:11Z</time>
      </trkpt>
      <trkpt lat="43.70249" lon="6.97166">
        <ele>552.8952637</ele>
        <time>2012-03-03T09:36:15Z</time>
      </trkpt>
      <trkpt lat="43.70254" lon="6.97167">
        <ele>554.3374023</ele>
        <time>2012-03-03T09:36:29Z</time>
      </trkpt>
      <trkpt lat="43.70257" lon="6.97179">
        <ele>557.7021484</ele>
        <time>2012-03-03T09:36:46Z</time>
      </trkpt>
      <trkpt lat="43.70263" lon="6.97209">
        <ele>561.0666504</ele>
        <time>2012-03-03T09:36:58Z</time>
      </trkpt>
      <trkpt lat="43.70263" lon="6.97212">
        <ele>562.5085449</ele>
        <time>2012-03-03T09:37:11Z</time>
      </trkpt>
      <trkpt lat="43.70265" lon="6.97249">
        <ele>564.9118652</ele>
        <time>2012-03-03T09:37:26Z</time>
      </trkpt>
      <trkpt lat="43.70265" lon="6.97249">
        <ele>565.3925781</ele>
        <time>2012-03-03T09:37:30Z</time>
      </trkpt>
      <trkpt lat="43.70264" lon="6.97229">
        <ele>566.3537598</ele>
        <time>2012-03-03T09:37:43Z</time>
      </trkpt>
      <trkpt lat="43.70263" lon="6.97224">
        <ele>566.3537598</ele>
        <time>2012-03-03T09:37:46Z</time>
      </trkpt>
      <trkpt lat="43.70263" lon="6.97213">
        <ele>567.3151855</ele>
        <time>2012-03-03T09:37:57Z</time>
      </trkpt>
      <trkpt lat="43.70263" lon="6.97215">
        <ele>567.3151855</ele>
        <time>2012-03-03T09:38:01Z</time>
      </trkpt>
      <trkpt lat="43.70267" lon="6.97261">
        <ele>566.3537598</ele>
        <time>2012-03-03T09:38:18Z</time>
      </trkpt>
      <trkpt lat="43.70267" lon="6.97261">
        <ele>569.237793</ele>
        <time>2012-03-03T09:38:28Z</time>
      </trkpt>
      <trkpt lat="43.7027" lon="6.9731">
        <ele>572.6025391</ele>
        <time>2012-03-03T09:38:42Z</time>
      </trkpt>
      <trkpt lat="43.70269" lon="6.97326">
        <ele>574.0444336</ele>
        <time>2012-03-03T09:38:52Z</time>
      </trkpt>
      <trkpt lat="43.70267" lon="6.9737">
        <ele>577.4091797</ele>
        <time>2012-03-03T09:39:13Z</time>
      </trkpt>
      <trkpt lat="43.70267" lon="6.97374">
        <ele>577.4091797</ele>
        <time>2012-03-03T09:39:16Z</time>
      </trkpt>
      <trkpt lat="43.70269" lon="6.97384">
        <ele>578.3703613</ele>
        <time>2012-03-03T09:39:21Z</time>
      </trkpt>
      <trkpt lat="43.70271" lon="6.97393">
        <ele>579.8122559</ele>
        <time>2012-03-03T09:39:27Z</time>
      </trkpt>
      <trkpt lat="43.70272" lon="6.97397">
        <ele>580.2929688</ele>
        <time>2012-03-03T09:39:29Z</time>
      </trkpt>
      <trkpt lat="43.70275" lon="6.97401">
        <ele>580.7736816</ele>
        <time>2012-03-03T09:39:33Z</time>
      </trkpt>
      <trkpt lat="43.70275" lon="6.97401">
        <ele>582.2155762</ele>
        <time>2012-03-03T09:39:37Z</time>
      </trkpt>
      <trkpt lat="43.70293" lon="6.97413">
        <ele>583.6574707</ele>
        <time>2012-03-03T09:39:47Z</time>
      </trkpt>
      <trkpt lat="43.70326" lon="6.97429">
        <ele>584.1381836</ele>
        <time>2012-03-03T09:40:08Z</time>
      </trkpt>
      <trkpt lat="43.70326" lon="6.97438">
        <ele>585.0996094</ele>
        <time>2012-03-03T09:40:12Z</time>
      </trkpt>
      <trkpt lat="43.70335" lon="6.9743">
        <ele>584.6188965</ele>
        <time>2012-03-03T09:40:25Z</time>
      </trkpt>
      <trkpt lat="43.70343" lon="6.9743">
        <ele>587.9833984</ele>
        <time>2012-03-03T09:40:43Z</time>
      </trkpt>
      <trkpt lat="43.70352" lon="6.9742">
        <ele>588.9450684</ele>
        <time>2012-03-03T09:40:59Z</time>
      </trkpt>
      <trkpt lat="43.70362" lon="6.9741">
        <ele>590.8674316</ele>
        <time>2012-03-03T09:41:17Z</time>
      </trkpt>
      <trkpt lat="43.70371" lon="6.97405">
        <ele>592.3095703</ele>
        <time>2012-03-03T09:41:32Z</time>
      </trkpt>
      <trkpt lat="43.70376" lon="6.97397">
        <ele>595.1933594</ele>
        <time>2012-03-03T09:41:49Z</time>
      </trkpt>
      <trkpt lat="43.70379" lon="6.97395">
        <ele>596.1547852</ele>
        <time>2012-03-03T09:41:59Z</time>
      </trkpt>
      <trkpt lat="43.70387" lon="6.97397">
        <ele>596.1547852</ele>
        <time>2012-03-03T09:42:08Z</time>
      </trkpt>
      <trkpt lat="43.70394" lon="6.97397">
        <ele>597.1159668</ele>
        <time>2012-03-03T09:42:25Z</time>
      </trkpt>
      <trkpt lat="43.70401" lon="6.97399">
        <ele>597.1159668</ele>
        <time>2012-03-03T09:42:35Z</time>
      </trkpt>
      <trkpt lat="43.70408" lon="6.97404">
        <ele>597.1159668</ele>
        <time>2012-03-03T09:42:39Z</time>
      </trkpt>
      <trkpt lat="43.70416" lon="6.97406">
        <ele>598.5578613</ele>
        <time>2012-03-03T09:42:52Z</time>
      </trkpt>
      <trkpt lat="43.70416" lon="6.97406">
        <ele>598.5578613</ele>
        <time>2012-03-03T09:43:13Z</time>
      </trkpt>
      <trkpt lat="43.70415" lon="6.9741">
        <ele>600</ele>
        <time>2012-03-03T09:43:42Z</time>
      </trkpt>
      <trkpt lat="43.70424" lon="6.97408">
        <ele>601.9226074</ele>
        <time>2012-03-03T09:43:57Z</time>
      </trkpt>
      <trkpt lat="43.70435" lon="6.97408">
        <ele>604.3261719</ele>
        <time>2012-03-03T09:44:11Z</time>
      </trkpt>
      <trkpt lat="43.70439" lon="6.97407">
        <ele>604.3261719</ele>
        <time>2012-03-03T09:44:19Z</time>
      </trkpt>
      <trkpt lat="43.70446" lon="6.97412">
        <ele>605.7680664</ele>
        <time>2012-03-03T09:44:39Z</time>
      </trkpt>
      <trkpt lat="43.70447" lon="6.97414">
        <ele>605.7680664</ele>
        <time>2012-03-03T09:44:41Z</time>
      </trkpt>
      <trkpt lat="43.70447" lon="6.97419">
        <ele>605.7680664</ele>
        <time>2012-03-03T09:44:45Z</time>
      </trkpt>
      <trkpt lat="43.70449" lon="6.97429">
        <ele>608.1713867</ele>
        <time>2012-03-03T09:44:57Z</time>
      </trkpt>
      <trkpt lat="43.70455" lon="6.97436">
        <ele>609.6132813</ele>
        <time>2012-03-03T09:45:10Z</time>
      </trkpt>
      <trkpt lat="43.70453" lon="6.97439">
        <ele>610.09375</ele>
        <time>2012-03-03T09:45:13Z</time>
      </trkpt>
      <trkpt lat="43.7045" lon="6.9745">
        <ele>612.0166016</ele>
        <time>2012-03-03T09:45:29Z</time>
      </trkpt>
      <trkpt lat="43.70461" lon="6.97458">
        <ele>613.9389648</ele>
        <time>2012-03-03T09:45:46Z</time>
      </trkpt>
      <trkpt lat="43.70466" lon="6.97461">
        <ele>614.9003906</ele>
        <time>2012-03-03T09:45:52Z</time>
      </trkpt>
      <trkpt lat="43.70468" lon="6.97461">
        <ele>614.4196777</ele>
        <time>2012-03-03T09:45:59Z</time>
      </trkpt>
      <trkpt lat="43.70471" lon="6.97459">
        <ele>614.9003906</ele>
        <time>2012-03-03T09:46:02Z</time>
      </trkpt>
      <trkpt lat="43.7048" lon="6.97455">
        <ele>615.3811035</ele>
        <time>2012-03-03T09:46:08Z</time>
      </trkpt>
      <trkpt lat="43.7049" lon="6.97461">
        <ele>618.2648926</ele>
        <time>2012-03-03T09:46:21Z</time>
      </trkpt>
      <trkpt lat="43.70494" lon="6.97462">
        <ele>619.2263184</ele>
        <time>2012-03-03T09:46:26Z</time>
      </trkpt>
      <trkpt lat="43.7051" lon="6.97461">
        <ele>620.668457</ele>
        <time>2012-03-03T09:46:44Z</time>
      </trkpt>
      <trkpt lat="43.70528" lon="6.97463">
        <ele>624.032959</ele>
        <time>2012-03-03T09:47:03Z</time>
      </trkpt>
      <trkpt lat="43.70537" lon="6.97469">
        <ele>625.4748535</ele>
        <time>2012-03-03T09:47:20Z</time>
      </trkpt>
      <trkpt lat="43.70548" lon="6.9747">
        <ele>628.8395996</ele>
        <time>2012-03-03T09:47:37Z</time>
      </trkpt>
      <trkpt lat="43.70552" lon="6.97469">
        <ele>628.3588867</ele>
        <time>2012-03-03T09:47:41Z</time>
      </trkpt>
      <trkpt lat="43.70571" lon="6.97469">
        <ele>629.8007813</ele>
        <time>2012-03-03T09:47:54Z</time>
      </trkpt>
      <trkpt lat="43.70575" lon="6.97481">
        <ele>632.6848145</ele>
        <time>2012-03-03T09:48:07Z</time>
      </trkpt>
      <trkpt lat="43.7058" lon="6.97495">
        <ele>635.5686035</ele>
        <time>2012-03-03T09:48:30Z</time>
      </trkpt>
      <trkpt lat="43.70583" lon="6.97507">
        <ele>638.4528809</ele>
        <time>2012-03-03T09:48:49Z</time>
      </trkpt>
      <trkpt lat="43.70585" lon="6.97507">
        <ele>640.3754883</ele>
        <time>2012-03-03T09:49:07Z</time>
      </trkpt>
      <trkpt lat="43.70588" lon="6.9751">
        <ele>638.9335938</ele>
        <time>2012-03-03T09:49:42Z</time>
      </trkpt>
      <trkpt lat="43.70588" lon="6.9751">
        <ele>639.8947754</ele>
        <time>2012-03-03T09:51:50Z</time>
      </trkpt>
      <trkpt lat="43.70583" lon="6.97506">
        <ele>639.8947754</ele>
        <time>2012-03-03T09:51:55Z</time>
      </trkpt>
      <trkpt lat="43.70582" lon="6.97504">
        <ele>637.972168</ele>
        <time>2012-03-03T09:51:57Z</time>
      </trkpt>
      <trkpt lat="43.70581" lon="6.97505">
        <ele>636.5302734</ele>
        <time>2012-03-03T09:52:33Z</time>
      </trkpt>
      <trkpt lat="43.70581" lon="6.97505">
        <ele>637.0107422</ele>
        <time>2012-03-03T09:54:09Z</time>
      </trkpt>
      <trkpt lat="43.70587" lon="6.9751">
        <ele>638.4528809</ele>
        <time>2012-03-03T09:54:25Z</time>
      </trkpt>
      <trkpt lat="43.70593" lon="6.97515">
        <ele>640.855957</ele>
        <time>2012-03-03T09:56:07Z</time>
      </trkpt>
      <trkpt lat="43.70591" lon="6.97523">
        <ele>641.3366699</ele>
        <time>2012-03-03T09:56:12Z</time>
      </trkpt>
      <trkpt lat="43.70588" lon="6.97527">
        <ele>642.2980957</ele>
        <time>2012-03-03T09:56:16Z</time>
      </trkpt>
      <trkpt lat="43.70588" lon="6.97535">
        <ele>642.7788086</ele>
        <time>2012-03-03T09:56:22Z</time>
      </trkpt>
      <trkpt lat="43.70597" lon="6.97549">
        <ele>646.1433105</ele>
        <time>2012-03-03T09:56:38Z</time>
      </trkpt>
      <trkpt lat="43.70605" lon="6.97558">
        <ele>647.1044922</ele>
        <time>2012-03-03T09:56:50Z</time>
      </trkpt>
      <trkpt lat="43.70625" lon="6.9756">
        <ele>647.5852051</ele>
        <time>2012-03-03T09:57:03Z</time>
      </trkpt>
      <trkpt lat="43.70631" lon="6.97559">
        <ele>648.065918</ele>
        <time>2012-03-03T09:57:06Z</time>
      </trkpt>
      <trkpt lat="43.70673" lon="6.97532">
        <ele>649.5078125</ele>
        <time>2012-03-03T09:57:21Z</time>
      </trkpt>
      <trkpt lat="43.70703" lon="6.97514">
        <ele>652.3918457</ele>
        <time>2012-03-03T09:57:37Z</time>
      </trkpt>
      <trkpt lat="43.70706" lon="6.97514">
        <ele>651.9111328</ele>
        <time>2012-03-03T09:59:09Z</time>
      </trkpt>
      <trkpt lat="43.70722" lon="6.97501">
        <ele>653.3532715</ele>
        <time>2012-03-03T09:59:24Z</time>
      </trkpt>
      <trkpt lat="43.70724" lon="6.975">
        <ele>653.3532715</ele>
        <time>2012-03-03T09:59:25Z</time>
      </trkpt>
      <trkpt lat="43.7073" lon="6.97497">
        <ele>654.3146973</ele>
        <time>2012-03-03T09:59:28Z</time>
      </trkpt>
      <trkpt lat="43.70751" lon="6.97463">
        <ele>657.6791992</ele>
        <time>2012-03-03T09:59:44Z</time>
      </trkpt>
      <trkpt lat="43.70768" lon="6.97435">
        <ele>660.5629883</ele>
        <time>2012-03-03T09:59:58Z</time>
      </trkpt>
      <trkpt lat="43.70769" lon="6.97433">
        <ele>660.5629883</ele>
        <time>2012-03-03T09:59:59Z</time>
      </trkpt>
      <trkpt lat="43.70771" lon="6.97416">
        <ele>660.0822754</ele>
        <time>2012-03-03T10:00:04Z</time>
      </trkpt>
      <trkpt lat="43.70767" lon="6.97352">
        <ele>658.6403809</ele>
        <time>2012-03-03T10:00:18Z</time>
      </trkpt>
      <trkpt lat="43.70775" lon="6.97346">
        <ele>659.6018066</ele>
        <time>2012-03-03T10:00:23Z</time>
      </trkpt>
      <trkpt lat="43.70778" lon="6.97354">
        <ele>660.5629883</ele>
        <time>2012-03-03T10:00:27Z</time>
      </trkpt>
      <trkpt lat="43.70782" lon="6.97366">
        <ele>661.0437012</ele>
        <time>2012-03-03T10:00:32Z</time>
      </trkpt>
      <trkpt lat="43.70789" lon="6.97367">
        <ele>661.5244141</ele>
        <time>2012-03-03T10:00:36Z</time>
      </trkpt>
      <trkpt lat="43.70799" lon="6.97329">
        <ele>664.888916</ele>
        <time>2012-03-03T10:00:54Z</time>
      </trkpt>
      <trkpt lat="43.70807" lon="6.97294">
        <ele>668.2536621</ele>
        <time>2012-03-03T10:01:10Z</time>
      </trkpt>
      <trkpt lat="43.70818" lon="6.9727">
        <ele>671.1376953</ele>
        <time>2012-03-03T10:01:26Z</time>
      </trkpt>
      <trkpt lat="43.70838" lon="6.97241">
        <ele>674.9829102</ele>
        <time>2012-03-03T10:01:47Z</time>
      </trkpt>
      <trkpt lat="43.70855" lon="6.97221">
        <ele>677.8666992</ele>
        <time>2012-03-03T10:02:03Z</time>
      </trkpt>
      <trkpt lat="43.70882" lon="6.97196">
        <ele>681.2314453</ele>
        <time>2012-03-03T10:02:26Z</time>
      </trkpt>
      <trkpt lat="43.70896" lon="6.97157">
        <ele>683.6345215</ele>
        <time>2012-03-03T10:02:47Z</time>
      </trkpt>
      <trkpt lat="43.70904" lon="6.97126">
        <ele>686.9992676</ele>
        <time>2012-03-03T10:03:03Z</time>
      </trkpt>
      <trkpt lat="43.70906" lon="6.97121">
        <ele>687.4799805</ele>
        <time>2012-03-03T10:03:06Z</time>
      </trkpt>
      <trkpt lat="43.70915" lon="6.97108">
        <ele>687.9606934</ele>
        <time>2012-03-03T10:03:16Z</time>
      </trkpt>
      <trkpt lat="43.70918" lon="6.97102">
        <ele>688.9221191</ele>
        <time>2012-03-03T10:03:20Z</time>
      </trkpt>
      <trkpt lat="43.70923" lon="6.97084">
        <ele>689.8833008</ele>
        <time>2012-03-03T10:03:29Z</time>
      </trkpt>
      <trkpt lat="43.70931" lon="6.97069">
        <ele>690.3640137</ele>
        <time>2012-03-03T10:03:37Z</time>
      </trkpt>
      <trkpt lat="43.7095" lon="6.97021">
        <ele>692.767334</ele>
        <time>2012-03-03T10:04:02Z</time>
      </trkpt>
      <trkpt lat="43.70956" lon="6.96998">
        <ele>695.1704102</ele>
        <time>2012-03-03T10:04:13Z</time>
      </trkpt>
      <trkpt lat="43.70958" lon="6.96953">
        <ele>697.5737305</ele>
        <time>2012-03-03T10:04:34Z</time>
      </trkpt>
      <trkpt lat="43.70967" lon="6.96907">
        <ele>699.015625</ele>
        <time>2012-03-03T10:04:54Z</time>
      </trkpt>
      <trkpt lat="43.70982" lon="6.96901">
        <ele>699.4963379</ele>
        <time>2012-03-03T10:05:01Z</time>
      </trkpt>
      <trkpt lat="43.71004" lon="6.96942">
        <ele>702.3803711</ele>
        <time>2012-03-03T10:05:20Z</time>
      </trkpt>
      <trkpt lat="43.71015" lon="6.96966">
        <ele>703.3417969</ele>
        <time>2012-03-03T10:05:31Z</time>
      </trkpt>
      <trkpt lat="43.71048" lon="6.96984">
        <ele>704.7836914</ele>
        <time>2012-03-03T10:05:51Z</time>
      </trkpt>
      <trkpt lat="43.71084" lon="6.97003">
        <ele>708.1484375</ele>
        <time>2012-03-03T10:06:13Z</time>
      </trkpt>
      <trkpt lat="43.71115" lon="6.97011">
        <ele>710.0708008</ele>
        <time>2012-03-03T10:06:32Z</time>
      </trkpt>
      <trkpt lat="43.71157" lon="6.97022">
        <ele>712.954834</ele>
        <time>2012-03-03T10:06:56Z</time>
      </trkpt>
      <trkpt lat="43.71189" lon="6.97035">
        <ele>715.3581543</ele>
        <time>2012-03-03T10:07:15Z</time>
      </trkpt>
      <trkpt lat="43.71224" lon="6.97047">
        <ele>718.7229004</ele>
        <time>2012-03-03T10:07:37Z</time>
      </trkpt>
      <trkpt lat="43.71257" lon="6.97043">
        <ele>720.6455078</ele>
        <time>2012-03-03T10:07:56Z</time>
      </trkpt>
      <trkpt lat="43.71293" lon="6.97055">
        <ele>723.0488281</ele>
        <time>2012-03-03T10:08:19Z</time>
      </trkpt>
      <trkpt lat="43.71326" lon="6.97078">
        <ele>724.9714355</ele>
        <time>2012-03-03T10:08:37Z</time>
      </trkpt>
      <trkpt lat="43.71353" lon="6.97102">
        <ele>726.4133301</ele>
        <time>2012-03-03T10:08:52Z</time>
      </trkpt>
      <trkpt lat="43.71398" lon="6.97146">
        <ele>729.2971191</ele>
        <time>2012-03-03T10:09:17Z</time>
      </trkpt>
      <trkpt lat="43.71436" lon="6.97189">
        <ele>732.1813965</ele>
        <time>2012-03-03T10:09:40Z</time>
      </trkpt>
      <trkpt lat="43.71453" lon="6.97201">
        <ele>733.623291</ele>
        <time>2012-03-03T10:09:49Z</time>
      </trkpt>
      <trkpt lat="43.71458" lon="6.97207">
        <ele>734.1040039</ele>
        <time>2012-03-03T10:09:52Z</time>
      </trkpt>
      <trkpt lat="43.71459" lon="6.97189">
        <ele>735.5458984</ele>
        <time>2012-03-03T10:10:03Z</time>
      </trkpt>
      <trkpt lat="43.71444" lon="6.97171">
        <ele>737.4685059</ele>
        <time>2012-03-03T10:10:14Z</time>
      </trkpt>
      <trkpt lat="43.71418" lon="6.97121">
        <ele>740.3525391</ele>
        <time>2012-03-03T10:10:37Z</time>
      </trkpt>
      <trkpt lat="43.71392" lon="6.97081">
        <ele>743.717041</ele>
        <time>2012-03-03T10:10:56Z</time>
      </trkpt>
      <trkpt lat="43.71357" lon="6.97024">
        <ele>745.6396484</ele>
        <time>2012-03-03T10:11:21Z</time>
      </trkpt>
      <trkpt lat="43.71333" lon="6.96985">
        <ele>748.5236816</ele>
        <time>2012-03-03T10:11:38Z</time>
      </trkpt>
      <trkpt lat="43.71308" lon="6.96932">
        <ele>751.8884277</ele>
        <time>2012-03-03T10:12:01Z</time>
      </trkpt>
      <trkpt lat="43.71305" lon="6.96917">
        <ele>752.8496094</ele>
        <time>2012-03-03T10:12:06Z</time>
      </trkpt>
      <trkpt lat="43.71301" lon="6.9691">
        <ele>752.8496094</ele>
        <time>2012-03-03T10:12:09Z</time>
      </trkpt>
      <trkpt lat="43.7129" lon="6.96848">
        <ele>756.2141113</ele>
        <time>2012-03-03T10:12:31Z</time>
      </trkpt>
      <trkpt lat="43.71271" lon="6.96792">
        <ele>758.1369629</ele>
        <time>2012-03-03T10:12:51Z</time>
      </trkpt>
      <trkpt lat="43.71253" lon="6.96742">
        <ele>760.5400391</ele>
        <time>2012-03-03T10:13:09Z</time>
      </trkpt>
      <trkpt lat="43.71229" lon="6.96689">
        <ele>763.4240723</ele>
        <time>2012-03-03T10:13:30Z</time>
      </trkpt>
      <trkpt lat="43.7123" lon="6.96636">
        <ele>765.3469238</ele>
        <time>2012-03-03T10:13:48Z</time>
      </trkpt>
      <trkpt lat="43.71223" lon="6.96562">
        <ele>768.2307129</ele>
        <time>2012-03-03T10:14:11Z</time>
      </trkpt>
      <trkpt lat="43.71221" lon="6.96516">
        <ele>771.1147461</ele>
        <time>2012-03-03T10:14:27Z</time>
      </trkpt>
      <trkpt lat="43.71218" lon="6.96455">
        <ele>772.5566406</ele>
        <time>2012-03-03T10:14:47Z</time>
      </trkpt>
      <trkpt lat="43.71188" lon="6.96403">
        <ele>773.0373535</ele>
        <time>2012-03-03T10:15:05Z</time>
      </trkpt>
      <trkpt lat="43.71165" lon="6.96332">
        <ele>776.8825684</ele>
        <time>2012-03-03T10:15:29Z</time>
      </trkpt>
      <trkpt lat="43.71164" lon="6.96293">
        <ele>779.7663574</ele>
        <time>2012-03-03T10:15:43Z</time>
      </trkpt>
      <trkpt lat="43.71166" lon="6.9627">
        <ele>780.7280273</ele>
        <time>2012-03-03T10:15:52Z</time>
      </trkpt>
      <trkpt lat="43.71176" lon="6.96266">
        <ele>780.7280273</ele>
        <time>2012-03-03T10:15:57Z</time>
      </trkpt>
      <trkpt lat="43.71211" lon="6.9629">
        <ele>782.6506348</ele>
        <time>2012-03-03T10:16:16Z</time>
      </trkpt>
      <trkpt lat="43.71257" lon="6.9628">
        <ele>784.0925293</ele>
        <time>2012-03-03T10:16:34Z</time>
      </trkpt>
      <trkpt lat="43.71305" lon="6.96286">
        <ele>784.0925293</ele>
        <time>2012-03-03T10:16:49Z</time>
      </trkpt>
      <trkpt lat="43.71348" lon="6.96312">
        <ele>784.5732422</ele>
        <time>2012-03-03T10:17:04Z</time>
      </trkpt>
      <trkpt lat="43.7139" lon="6.96369">
        <ele>783.6118164</ele>
        <time>2012-03-03T10:17:21Z</time>
      </trkpt>
      <trkpt lat="43.71427" lon="6.96438">
        <ele>783.1311035</ele>
        <time>2012-03-03T10:17:36Z</time>
      </trkpt>
      <trkpt lat="43.7143" lon="6.9646">
        <ele>783.1311035</ele>
        <time>2012-03-03T10:17:40Z</time>
      </trkpt>
      <trkpt lat="43.71426" lon="6.9651">
        <ele>783.6118164</ele>
        <time>2012-03-03T10:17:49Z</time>
      </trkpt>
      <trkpt lat="43.71439" lon="6.96572">
        <ele>782.1699219</ele>
        <time>2012-03-03T10:18:01Z</time>
      </trkpt>
      <trkpt lat="43.71445" lon="6.9665">
        <ele>781.689209</ele>
        <time>2012-03-03T10:18:16Z</time>
      </trkpt>
      <trkpt lat="43.71452" lon="6.96671">
        <ele>781.689209</ele>
        <time>2012-03-03T10:18:20Z</time>
      </trkpt>
      <trkpt lat="43.71468" lon="6.96706">
        <ele>781.2087402</ele>
        <time>2012-03-03T10:18:27Z</time>
      </trkpt>
      <trkpt lat="43.7149" lon="6.96745">
        <ele>780.7280273</ele>
        <time>2012-03-03T10:18:36Z</time>
      </trkpt>
      <trkpt lat="43.71505" lon="6.96753">
        <ele>780.2473145</ele>
        <time>2012-03-03T10:18:40Z</time>
      </trkpt>
      <trkpt lat="43.7154" lon="6.96746">
        <ele>779.7663574</ele>
        <time>2012-03-03T10:18:49Z</time>
      </trkpt>
      <trkpt lat="43.71553" lon="6.96739">
        <ele>778.8051758</ele>
        <time>2012-03-03T10:18:52Z</time>
      </trkpt>
      <trkpt lat="43.71573" lon="6.96708">
        <ele>775.9211426</ele>
        <time>2012-03-03T10:18:57Z</time>
      </trkpt>
      <trkpt lat="43.7158" lon="6.96691">
        <ele>774.479248</ele>
        <time>2012-03-03T10:18:59Z</time>
      </trkpt>
      <trkpt lat="43.71591" lon="6.96664">
        <ele>772.0759277</ele>
        <time>2012-03-03T10:19:02Z</time>
      </trkpt>
      <trkpt lat="43.71615" lon="6.96616">
        <ele>769.6728516</ele>
        <time>2012-03-03T10:19:08Z</time>
      </trkpt>
      <trkpt lat="43.71632" lon="6.96581">
        <ele>768.7114258</ele>
        <time>2012-03-03T10:19:13Z</time>
      </trkpt>
      <trkpt lat="43.71647" lon="6.96557">
        <ele>768.7114258</ele>
        <time>2012-03-03T10:19:17Z</time>
      </trkpt>
      <trkpt lat="43.7166" lon="6.96545">
        <ele>768.7114258</ele>
        <time>2012-03-03T10:19:20Z</time>
      </trkpt>
      <trkpt lat="43.71692" lon="6.96516">
        <ele>772.0759277</ele>
        <time>2012-03-03T10:19:30Z</time>
      </trkpt>
      <trkpt lat="43.71703" lon="6.96492">
        <ele>772.0759277</ele>
        <time>2012-03-03T10:19:37Z</time>
      </trkpt>
      <trkpt lat="43.71716" lon="6.96463">
        <ele>771.1147461</ele>
        <time>2012-03-03T10:19:43Z</time>
      </trkpt>
      <trkpt lat="43.71727" lon="6.96454">
        <ele>771.1147461</ele>
        <time>2012-03-03T10:19:46Z</time>
      </trkpt>
      <trkpt lat="43.7175" lon="6.96434">
        <ele>769.1921387</ele>
        <time>2012-03-03T10:19:52Z</time>
      </trkpt>
      <trkpt lat="43.71774" lon="6.96398">
        <ele>767.2695313</ele>
        <time>2012-03-03T10:19:59Z</time>
      </trkpt>
      <trkpt lat="43.71777" lon="6.96392">
        <ele>766.7888184</ele>
        <time>2012-03-03T10:20:00Z</time>
      </trkpt>
      <trkpt lat="43.7179" lon="6.96349">
        <ele>762.9433594</ele>
        <time>2012-03-03T10:20:05Z</time>
      </trkpt>
      <trkpt lat="43.71792" lon="6.96339">
        <ele>762.9433594</ele>
        <time>2012-03-03T10:20:06Z</time>
      </trkpt>
      <trkpt lat="43.71802" lon="6.96288">
        <ele>760.0593262</ele>
        <time>2012-03-03T10:20:11Z</time>
      </trkpt>
      <trkpt lat="43.71806" lon="6.96269">
        <ele>759.5788574</ele>
        <time>2012-03-03T10:20:13Z</time>
      </trkpt>
      <trkpt lat="43.7182" lon="6.96241">
        <ele>759.0981445</ele>
        <time>2012-03-03T10:20:17Z</time>
      </trkpt>
      <trkpt lat="43.71836" lon="6.96223">
        <ele>760.0593262</ele>
        <time>2012-03-03T10:20:21Z</time>
      </trkpt>
      <trkpt lat="43.71849" lon="6.96201">
        <ele>759.5788574</ele>
        <time>2012-03-03T10:20:25Z</time>
      </trkpt>
      <trkpt lat="43.71872" lon="6.96188">
        <ele>759.0981445</ele>
        <time>2012-03-03T10:20:29Z</time>
      </trkpt>
      <trkpt lat="43.71894" lon="6.96182">
        <ele>758.1369629</ele>
        <time>2012-03-03T10:20:33Z</time>
      </trkpt>
      <trkpt lat="43.71932" lon="6.96173">
        <ele>757.1755371</ele>
        <time>2012-03-03T10:20:40Z</time>
      </trkpt>
      <trkpt lat="43.71945" lon="6.96171">
        <ele>757.1755371</ele>
        <time>2012-03-03T10:20:43Z</time>
      </trkpt>
      <trkpt lat="43.71967" lon="6.96182">
        <ele>758.6174316</ele>
        <time>2012-03-03T10:20:49Z</time>
      </trkpt>
      <trkpt lat="43.71992" lon="6.96196">
        <ele>761.5014648</ele>
        <time>2012-03-03T10:20:58Z</time>
      </trkpt>
      <trkpt lat="43.71999" lon="6.96204">
        <ele>761.9821777</ele>
        <time>2012-03-03T10:21:03Z</time>
      </trkpt>
      <trkpt lat="43.72011" lon="6.96254">
        <ele>760.5400391</ele>
        <time>2012-03-03T10:21:20Z</time>
      </trkpt>
      <trkpt lat="43.72019" lon="6.96277">
        <ele>759.5788574</ele>
        <time>2012-03-03T10:21:24Z</time>
      </trkpt>
      <trkpt lat="43.72027" lon="6.96299">
        <ele>757.1755371</ele>
        <time>2012-03-03T10:21:27Z</time>
      </trkpt>
      <trkpt lat="43.72029" lon="6.96309">
        <ele>756.2141113</ele>
        <time>2012-03-03T10:21:28Z</time>
      </trkpt>
      <trkpt lat="43.72031" lon="6.96347">
        <ele>753.8110352</ele>
        <time>2012-03-03T10:21:32Z</time>
      </trkpt>
      <trkpt lat="43.72035" lon="6.96367">
        <ele>752.3688965</ele>
        <time>2012-03-03T10:21:34Z</time>
      </trkpt>
      <trkpt lat="43.72041" lon="6.96386">
        <ele>750.927002</ele>
        <time>2012-03-03T10:21:36Z</time>
      </trkpt>
      <trkpt lat="43.72053" lon="6.96445">
        <ele>750.927002</ele>
        <time>2012-03-03T10:21:44Z</time>
      </trkpt>
      <trkpt lat="43.72062" lon="6.96535">
        <ele>754.7722168</ele>
        <time>2012-03-03T10:21:58Z</time>
      </trkpt>
      <trkpt lat="43.72076" lon="6.9655">
        <ele>756.2141113</ele>
        <time>2012-03-03T10:22:04Z</time>
      </trkpt>
      <trkpt lat="43.72124" lon="6.9654">
        <ele>757.65625</ele>
        <time>2012-03-03T10:22:21Z</time>
      </trkpt>
      <trkpt lat="43.72163" lon="6.96508">
        <ele>756.2141113</ele>
        <time>2012-03-03T10:22:35Z</time>
      </trkpt>
      <trkpt lat="43.72173" lon="6.96498">
        <ele>755.7336426</ele>
        <time>2012-03-03T10:22:38Z</time>
      </trkpt>
      <trkpt lat="43.72211" lon="6.96506">
        <ele>754.291748</ele>
        <time>2012-03-03T10:22:49Z</time>
      </trkpt>
      <trkpt lat="43.72214" lon="6.96518">
        <ele>754.7722168</ele>
        <time>2012-03-03T10:22:52Z</time>
      </trkpt>
      <trkpt lat="43.72235" lon="6.96595">
        <ele>757.1755371</ele>
        <time>2012-03-03T10:23:13Z</time>
      </trkpt>
      <trkpt lat="43.72236" lon="6.96605">
        <ele>758.1369629</ele>
        <time>2012-03-03T10:23:16Z</time>
      </trkpt>
      <trkpt lat="43.72237" lon="6.96609">
        <ele>759.0981445</ele>
        <time>2012-03-03T10:23:25Z</time>
      </trkpt>
      <trkpt lat="43.72237" lon="6.9661">
        <ele>759.5788574</ele>
        <time>2012-03-03T10:23:28Z</time>
      </trkpt>
      <trkpt lat="43.72237" lon="6.9661">
        <ele>759.5788574</ele>
        <time>2012-03-03T10:24:20Z</time>
      </trkpt>
      <trkpt lat="43.72237" lon="6.9661">
        <ele>759.0981445</ele>
        <time>2012-03-03T10:24:21Z</time>
      </trkpt>
      <trkpt lat="43.72224" lon="6.96654">
        <ele>763.4240723</ele>
        <time>2012-03-03T10:24:31Z</time>
      </trkpt>
      <trkpt lat="43.72238" lon="6.9673">
        <ele>764.385498</ele>
        <time>2012-03-03T10:24:53Z</time>
      </trkpt>
      <trkpt lat="43.72244" lon="6.96755">
        <ele>769.6728516</ele>
        <time>2012-03-03T10:25:34Z</time>
      </trkpt>
      <trkpt lat="43.72253" lon="6.9673">
        <ele>771.5952148</ele>
        <time>2012-03-03T10:25:50Z</time>
      </trkpt>
      <trkpt lat="43.72256" lon="6.96722">
        <ele>772.0759277</ele>
        <time>2012-03-03T10:26:01Z</time>
      </trkpt>
      <trkpt lat="43.72299" lon="6.9671">
        <ele>773.9985352</ele>
        <time>2012-03-03T10:26:21Z</time>
      </trkpt>
      <trkpt lat="43.72314" lon="6.96707">
        <ele>773.0373535</ele>
        <time>2012-03-03T10:26:27Z</time>
      </trkpt>
      <trkpt lat="43.72347" lon="6.9671">
        <ele>774.479248</ele>
        <time>2012-03-03T10:26:44Z</time>
      </trkpt>
      <trkpt lat="43.72352" lon="6.96709">
        <ele>775.4404297</ele>
        <time>2012-03-03T10:26:47Z</time>
      </trkpt>
      <trkpt lat="43.72359" lon="6.96703">
        <ele>774.9599609</ele>
        <time>2012-03-03T10:26:51Z</time>
      </trkpt>
      <trkpt lat="43.72363" lon="6.96685">
        <ele>774.479248</ele>
        <time>2012-03-03T10:26:56Z</time>
      </trkpt>
      <trkpt lat="43.72372" lon="6.96667">
        <ele>775.4404297</ele>
        <time>2012-03-03T10:27:02Z</time>
      </trkpt>
      <trkpt lat="43.72377" lon="6.96625">
        <ele>779.2856445</ele>
        <time>2012-03-03T10:27:15Z</time>
      </trkpt>
      <trkpt lat="43.72377" lon="6.96625">
        <ele>779.2856445</ele>
        <time>2012-03-03T10:27:16Z</time>
      </trkpt>
      <trkpt lat="43.72377" lon="6.96625">
        <ele>781.689209</ele>
        <time>2012-03-03T10:27:33Z</time>
      </trkpt>
      <trkpt lat="43.72377" lon="6.96625">
        <ele>784.5732422</ele>
        <time>2012-03-03T10:27:52Z</time>
      </trkpt>
      <trkpt lat="43.72377" lon="6.96625">
        <ele>785.0539551</ele>
        <time>2012-03-03T10:27:56Z</time>
      </trkpt>
      <trkpt lat="43.72414" lon="6.96608">
        <ele>785.5344238</ele>
        <time>2012-03-03T10:28:02Z</time>
      </trkpt>
      <trkpt lat="43.72415" lon="6.96608">
        <ele>786.4958496</ele>
        <time>2012-03-03T10:28:07Z</time>
      </trkpt>
      <trkpt lat="43.72419" lon="6.96611">
        <ele>787.4570313</ele>
        <time>2012-03-03T10:28:11Z</time>
      </trkpt>
      <trkpt lat="43.72427" lon="6.96598">
        <ele>787.9377441</ele>
        <time>2012-03-03T10:28:17Z</time>
      </trkpt>
      <trkpt lat="43.7243" lon="6.96589">
        <ele>788.8991699</ele>
        <time>2012-03-03T10:28:23Z</time>
      </trkpt>
      <trkpt lat="43.7243" lon="6.96583">
        <ele>788.418457</ele>
        <time>2012-03-03T10:28:27Z</time>
      </trkpt>
      <trkpt lat="43.72423" lon="6.96575">
        <ele>788.8991699</ele>
        <time>2012-03-03T10:28:44Z</time>
      </trkpt>
      <trkpt lat="43.7242" lon="6.96576">
        <ele>788.8991699</ele>
        <time>2012-03-03T10:28:58Z</time>
      </trkpt>
      <trkpt lat="43.7242" lon="6.96576">
        <ele>789.8603516</ele>
        <time>2012-03-03T10:29:50Z</time>
      </trkpt>
      <trkpt lat="43.72417" lon="6.96575">
        <ele>789.8603516</ele>
        <time>2012-03-03T10:29:54Z</time>
      </trkpt>
      <trkpt lat="43.72412" lon="6.9658">
        <ele>789.8603516</ele>
        <time>2012-03-03T10:30:12Z</time>
      </trkpt>
      <trkpt lat="43.72413" lon="6.9658">
        <ele>789.3796387</ele>
        <time>2012-03-03T10:30:15Z</time>
      </trkpt>
      <trkpt lat="43.72412" lon="6.9658">
        <ele>789.8603516</ele>
        <time>2012-03-03T10:30:38Z</time>
      </trkpt>
      <trkpt lat="43.72413" lon="6.96587">
        <ele>788.8991699</ele>
        <time>2012-03-03T10:30:50Z</time>
      </trkpt>
      <trkpt lat="43.72418" lon="6.96588">
        <ele>789.3796387</ele>
        <time>2012-03-03T10:31:01Z</time>
      </trkpt>
      <trkpt lat="43.72419" lon="6.96585">
        <ele>789.8603516</ele>
        <time>2012-03-03T10:31:24Z</time>
      </trkpt>
      <trkpt lat="43.72417" lon="6.96589">
        <ele>789.8603516</ele>
        <time>2012-03-03T10:32:10Z</time>
      </trkpt>
      <trkpt lat="43.72412" lon="6.96593">
        <ele>789.3796387</ele>
        <time>2012-03-03T10:32:14Z</time>
      </trkpt>
      <trkpt lat="43.72414" lon="6.96603">
        <ele>787.9377441</ele>
        <time>2012-03-03T10:32:26Z</time>
      </trkpt>
      <trkpt lat="43.72426" lon="6.96616">
        <ele>788.8991699</ele>
        <time>2012-03-03T10:32:41Z</time>
      </trkpt>
      <trkpt lat="43.72427" lon="6.96618">
        <ele>789.8603516</ele>
        <time>2012-03-03T10:32:42Z</time>
      </trkpt>
      <trkpt lat="43.72432" lon="6.96651">
        <ele>793.7055664</ele>
        <time>2012-03-03T10:32:55Z</time>
      </trkpt>
      <trkpt lat="43.72437" lon="6.96671">
        <ele>795.1474609</ele>
        <time>2012-03-03T10:33:04Z</time>
      </trkpt>
      <trkpt lat="43.7244" lon="6.96675">
        <ele>796.1091309</ele>
        <time>2012-03-03T10:33:07Z</time>
      </trkpt>
      <trkpt lat="43.72444" lon="6.9668">
        <ele>796.5898438</ele>
        <time>2012-03-03T10:33:11Z</time>
      </trkpt>
      <trkpt lat="43.72465" lon="6.96701">
        <ele>799.9543457</ele>
        <time>2012-03-03T10:33:27Z</time>
      </trkpt>
      <trkpt lat="43.72473" lon="6.96709">
        <ele>802.3574219</ele>
        <time>2012-03-03T10:33:41Z</time>
      </trkpt>
      <trkpt lat="43.72481" lon="6.96712">
        <ele>805.722168</ele>
        <time>2012-03-03T10:33:54Z</time>
      </trkpt>
      <trkpt lat="43.72482" lon="6.96728">
        <ele>806.6833496</ele>
        <time>2012-03-03T10:34:06Z</time>
      </trkpt>
      <trkpt lat="43.72486" lon="6.96751">
        <ele>808.1254883</ele>
        <time>2012-03-03T10:34:23Z</time>
      </trkpt>
      <trkpt lat="43.7249" lon="6.96757">
        <ele>809.0866699</ele>
        <time>2012-03-03T10:34:29Z</time>
      </trkpt>
      <trkpt lat="43.72495" lon="6.96762">
        <ele>810.0478516</ele>
        <time>2012-03-03T10:34:35Z</time>
      </trkpt>
      <trkpt lat="43.72498" lon="6.96755">
        <ele>811.9707031</ele>
        <time>2012-03-03T10:34:47Z</time>
      </trkpt>
      <trkpt lat="43.72502" lon="6.96745">
        <ele>813.4128418</ele>
        <time>2012-03-03T10:35:01Z</time>
      </trkpt>
      <trkpt lat="43.72505" lon="6.96747">
        <ele>813.8933105</ele>
        <time>2012-03-03T10:35:05Z</time>
      </trkpt>
      <trkpt lat="43.72511" lon="6.96754">
        <ele>814.8547363</ele>
        <time>2012-03-03T10:35:13Z</time>
      </trkpt>
      <trkpt lat="43.72513" lon="6.96754">
        <ele>815.3354492</ele>
        <time>2012-03-03T10:35:15Z</time>
      </trkpt>
      <trkpt lat="43.72529" lon="6.96768">
        <ele>818.2192383</ele>
        <time>2012-03-03T10:35:35Z</time>
      </trkpt>
      <trkpt lat="43.72544" lon="6.9678">
        <ele>821.1032715</ele>
        <time>2012-03-03T10:35:52Z</time>
      </trkpt>
      <trkpt lat="43.72565" lon="6.96792">
        <ele>824.4677734</ele>
        <time>2012-03-03T10:36:15Z</time>
      </trkpt>
      <trkpt lat="43.72584" lon="6.96816">
        <ele>827.3518066</ele>
        <time>2012-03-03T10:36:40Z</time>
      </trkpt>
      <trkpt lat="43.72605" lon="6.96835">
        <ele>830.7165527</ele>
        <time>2012-03-03T10:36:56Z</time>
      </trkpt>
      <trkpt lat="43.72629" lon="6.96856">
        <ele>834.0810547</ele>
        <time>2012-03-03T10:37:13Z</time>
      </trkpt>
      <trkpt lat="43.72632" lon="6.96857">
        <ele>835.5229492</ele>
        <time>2012-03-03T10:37:15Z</time>
      </trkpt>
      <trkpt lat="43.72637" lon="6.96855">
        <ele>836.0036621</ele>
        <time>2012-03-03T10:37:19Z</time>
      </trkpt>
      <trkpt lat="43.72639" lon="6.96854">
        <ele>836.9648438</ele>
        <time>2012-03-03T10:37:21Z</time>
      </trkpt>
      <trkpt lat="43.72641" lon="6.9685">
        <ele>837.4455566</ele>
        <time>2012-03-03T10:37:24Z</time>
      </trkpt>
      <trkpt lat="43.72661" lon="6.96842">
        <ele>839.848877</ele>
        <time>2012-03-03T10:37:41Z</time>
      </trkpt>
      <trkpt lat="43.72665" lon="6.96839">
        <ele>839.848877</ele>
        <time>2012-03-03T10:37:53Z</time>
      </trkpt>
      <trkpt lat="43.72665" lon="6.96835">
        <ele>839.848877</ele>
        <time>2012-03-03T10:38:21Z</time>
      </trkpt>
      <trkpt lat="43.72668" lon="6.96835">
        <ele>842.2521973</ele>
        <time>2012-03-03T10:43:03Z</time>
      </trkpt>
      <trkpt lat="43.72672" lon="6.96832">
        <ele>842.2521973</ele>
        <time>2012-03-03T10:43:07Z</time>
      </trkpt>
      <trkpt lat="43.72679" lon="6.96832">
        <ele>843.2133789</ele>
        <time>2012-03-03T10:43:13Z</time>
      </trkpt>
      <trkpt lat="43.72686" lon="6.96825">
        <ele>843.6940918</ele>
        <time>2012-03-03T10:43:21Z</time>
      </trkpt>
      <trkpt lat="43.7269" lon="6.9682">
        <ele>844.1750488</ele>
        <time>2012-03-03T10:43:25Z</time>
      </trkpt>
      <trkpt lat="43.72712" lon="6.96761">
        <ele>846.5783691</ele>
        <time>2012-03-03T10:43:50Z</time>
      </trkpt>
      <trkpt lat="43.72722" lon="6.96706">
        <ele>849.9428711</ele>
        <time>2012-03-03T10:44:07Z</time>
      </trkpt>
      <trkpt lat="43.72728" lon="6.96666">
        <ele>851.8654785</ele>
        <time>2012-03-03T10:44:20Z</time>
      </trkpt>
      <trkpt lat="43.72736" lon="6.96591">
        <ele>854.7492676</ele>
        <time>2012-03-03T10:44:44Z</time>
      </trkpt>
      <trkpt lat="43.72735" lon="6.96519">
        <ele>858.5944824</ele>
        <time>2012-03-03T10:45:07Z</time>
      </trkpt>
      <trkpt lat="43.72735" lon="6.96515">
        <ele>858.5944824</ele>
        <time>2012-03-03T10:45:08Z</time>
      </trkpt>
      <trkpt lat="43.72735" lon="6.96465">
        <ele>860.9980469</ele>
        <time>2012-03-03T10:45:25Z</time>
      </trkpt>
      <trkpt lat="43.72734" lon="6.96443">
        <ele>862.4399414</ele>
        <time>2012-03-03T10:45:32Z</time>
      </trkpt>
      <trkpt lat="43.72733" lon="6.9637">
        <ele>865.8046875</ele>
        <time>2012-03-03T10:45:56Z</time>
      </trkpt>
      <trkpt lat="43.72731" lon="6.96312">
        <ele>868.6884766</ele>
        <time>2012-03-03T10:46:15Z</time>
      </trkpt>
      <trkpt lat="43.72731" lon="6.96242">
        <ele>872.5336914</ele>
        <time>2012-03-03T10:46:38Z</time>
      </trkpt>
      <trkpt lat="43.72749" lon="6.96191">
        <ele>874.9370117</ele>
        <time>2012-03-03T10:46:57Z</time>
      </trkpt>
      <trkpt lat="43.72758" lon="6.96173">
        <ele>875.8981934</ele>
        <time>2012-03-03T10:47:04Z</time>
      </trkpt>
      <trkpt lat="43.72784" lon="6.96128">
        <ele>878.7824707</ele>
        <time>2012-03-03T10:47:24Z</time>
      </trkpt>
      <trkpt lat="43.72823" lon="6.96095">
        <ele>882.1469727</ele>
        <time>2012-03-03T10:47:45Z</time>
      </trkpt>
      <trkpt lat="43.72839" lon="6.96084">
        <ele>883.5888672</ele>
        <time>2012-03-03T10:47:53Z</time>
      </trkpt>
      <trkpt lat="43.72887" lon="6.96054">
        <ele>886.4729004</ele>
        <time>2012-03-03T10:48:17Z</time>
      </trkpt>
      <trkpt lat="43.72927" lon="6.9603">
        <ele>889.8374023</ele>
        <time>2012-03-03T10:48:38Z</time>
      </trkpt>
      <trkpt lat="43.72968" lon="6.96006">
        <ele>892.2409668</ele>
        <time>2012-03-03T10:48:58Z</time>
      </trkpt>
      <trkpt lat="43.73007" lon="6.95983">
        <ele>895.6054688</ele>
        <time>2012-03-03T10:49:17Z</time>
      </trkpt>
      <trkpt lat="43.73053" lon="6.95972">
        <ele>899.4506836</ele>
        <time>2012-03-03T10:49:38Z</time>
      </trkpt>
      <trkpt lat="43.73092" lon="6.95953">
        <ele>902.3344727</ele>
        <time>2012-03-03T10:49:57Z</time>
      </trkpt>
      <trkpt lat="43.73138" lon="6.95921">
        <ele>905.6992188</ele>
        <time>2012-03-03T10:50:20Z</time>
      </trkpt>
      <trkpt lat="43.73184" lon="6.9589">
        <ele>909.0639648</ele>
        <time>2012-03-03T10:50:43Z</time>
      </trkpt>
      <trkpt lat="43.73221" lon="6.95851">
        <ele>911.947998</ele>
        <time>2012-03-03T10:51:04Z</time>
      </trkpt>
      <trkpt lat="43.73262" lon="6.95809">
        <ele>915.3125</ele>
        <time>2012-03-03T10:51:27Z</time>
      </trkpt>
      <trkpt lat="43.73299" lon="6.95801">
        <ele>918.1962891</ele>
        <time>2012-03-03T10:51:44Z</time>
      </trkpt>
      <trkpt lat="43.7334" lon="6.95808">
        <ele>919.1577148</ele>
        <time>2012-03-03T10:52:04Z</time>
      </trkpt>
      <trkpt lat="43.73365" lon="6.95812">
        <ele>922.5222168</ele>
        <time>2012-03-03T10:52:16Z</time>
      </trkpt>
      <trkpt lat="43.73395" lon="6.95787">
        <ele>926.3676758</ele>
        <time>2012-03-03T10:52:32Z</time>
      </trkpt>
      <trkpt lat="43.73387" lon="6.95735">
        <ele>928.7709961</ele>
        <time>2012-03-03T10:52:50Z</time>
      </trkpt>
      <trkpt lat="43.73388" lon="6.95672">
        <ele>931.1743164</ele>
        <time>2012-03-03T10:53:11Z</time>
      </trkpt>
      <trkpt lat="43.73412" lon="6.95622">
        <ele>934.5388184</ele>
        <time>2012-03-03T10:53:32Z</time>
      </trkpt>
      <trkpt lat="43.73442" lon="6.95588">
        <ele>937.9033203</ele>
        <time>2012-03-03T10:53:51Z</time>
      </trkpt>
      <trkpt lat="43.73459" lon="6.95531">
        <ele>940.3068848</ele>
        <time>2012-03-03T10:54:12Z</time>
      </trkpt>
      <trkpt lat="43.7346" lon="6.95493">
        <ele>942.2294922</ele>
        <time>2012-03-03T10:54:25Z</time>
      </trkpt>
      <trkpt lat="43.73462" lon="6.95441">
        <ele>945.1132813</ele>
        <time>2012-03-03T10:54:44Z</time>
      </trkpt>
      <trkpt lat="43.73462" lon="6.95424">
        <ele>945.5939941</ele>
        <time>2012-03-03T10:54:50Z</time>
      </trkpt>
      <trkpt lat="43.73465" lon="6.95366">
        <ele>948.9584961</ele>
        <time>2012-03-03T10:55:11Z</time>
      </trkpt>
      <trkpt lat="43.73482" lon="6.9531">
        <ele>951.8425293</ele>
        <time>2012-03-03T10:55:32Z</time>
      </trkpt>
      <trkpt lat="43.73508" lon="6.9527">
        <ele>955.2070313</ele>
        <time>2012-03-03T10:55:51Z</time>
      </trkpt>
      <trkpt lat="43.73538" lon="6.95223">
        <ele>958.5717773</ele>
        <time>2012-03-03T10:56:12Z</time>
      </trkpt>
      <trkpt lat="43.7356" lon="6.95193">
        <ele>961.4558105</ele>
        <time>2012-03-03T10:56:26Z</time>
      </trkpt>
      <trkpt lat="43.7359" lon="6.95165">
        <ele>963.378418</ele>
        <time>2012-03-03T10:56:43Z</time>
      </trkpt>
      <trkpt lat="43.73615" lon="6.95127">
        <ele>967.2236328</ele>
        <time>2012-03-03T10:57:03Z</time>
      </trkpt>
      <trkpt lat="43.73598" lon="6.95106">
        <ele>968.6655273</ele>
        <time>2012-03-03T10:57:15Z</time>
      </trkpt>
      <trkpt lat="43.73533" lon="6.95106">
        <ele>972.5109863</ele>
        <time>2012-03-03T10:57:40Z</time>
      </trkpt>
      <trkpt lat="43.73488" lon="6.95105">
        <ele>975.8754883</ele>
        <time>2012-03-03T10:57:58Z</time>
      </trkpt>
      <trkpt lat="43.73449" lon="6.95104">
        <ele>979.2399902</ele>
        <time>2012-03-03T10:58:15Z</time>
      </trkpt>
      <trkpt lat="43.73416" lon="6.95085">
        <ele>982.1240234</ele>
        <time>2012-03-03T10:58:29Z</time>
      </trkpt>
      <trkpt lat="43.73384" lon="6.95105">
        <ele>985.0080566</ele>
        <time>2012-03-03T10:58:45Z</time>
      </trkpt>
      <trkpt lat="43.73356" lon="6.95148">
        <ele>987.8918457</ele>
        <time>2012-03-03T10:59:03Z</time>
      </trkpt>
      <trkpt lat="43.73313" lon="6.95181">
        <ele>991.2565918</ele>
        <time>2012-03-03T10:59:21Z</time>
      </trkpt>
      <trkpt lat="43.73275" lon="6.95184">
        <ele>994.140625</ele>
        <time>2012-03-03T10:59:38Z</time>
      </trkpt>
      <trkpt lat="43.73232" lon="6.95176">
        <ele>997.9858398</ele>
        <time>2012-03-03T10:59:57Z</time>
      </trkpt>
      <trkpt lat="43.73188" lon="6.95177">
        <ele>1000.8696289</ele>
        <time>2012-03-03T11:00:17Z</time>
      </trkpt>
      <trkpt lat="43.73172" lon="6.95227">
        <ele>1003.2729492</ele>
        <time>2012-03-03T11:00:35Z</time>
      </trkpt>
      <trkpt lat="43.73166" lon="6.9528">
        <ele>1007.5991211</ele>
        <time>2012-03-03T11:00:52Z</time>
      </trkpt>
      <trkpt lat="43.73165" lon="6.95282">
        <ele>1007.5991211</ele>
        <time>2012-03-03T11:00:53Z</time>
      </trkpt>
      <trkpt lat="43.73138" lon="6.95331">
        <ele>1009.0410156</ele>
        <time>2012-03-03T11:01:12Z</time>
      </trkpt>
      <trkpt lat="43.73118" lon="6.95337">
        <ele>1010.0021973</ele>
        <time>2012-03-03T11:01:20Z</time>
      </trkpt>
      <trkpt lat="43.73117" lon="6.9532">
        <ele>1011.9250488</ele>
        <time>2012-03-03T11:01:25Z</time>
      </trkpt>
      <trkpt lat="43.73136" lon="6.95253">
        <ele>1015.2895508</ele>
        <time>2012-03-03T11:01:45Z</time>
      </trkpt>
      <trkpt lat="43.73132" lon="6.95191">
        <ele>1017.2121582</ele>
        <time>2012-03-03T11:02:04Z</time>
      </trkpt>
      <trkpt lat="43.73128" lon="6.95168">
        <ele>1019.6154785</ele>
        <time>2012-03-03T11:02:11Z</time>
      </trkpt>
      <trkpt lat="43.73123" lon="6.95111">
        <ele>1022.9802246</ele>
        <time>2012-03-03T11:02:29Z</time>
      </trkpt>
      <trkpt lat="43.73128" lon="6.95099">
        <ele>1023.4609375</ele>
        <time>2012-03-03T11:02:33Z</time>
      </trkpt>
      <trkpt lat="43.73157" lon="6.95082">
        <ele>1026.8254395</ele>
        <time>2012-03-03T11:02:48Z</time>
      </trkpt>
      <trkpt lat="43.73202" lon="6.95079">
        <ele>1030.1899414</ele>
        <time>2012-03-03T11:03:08Z</time>
      </trkpt>
      <trkpt lat="43.73256" lon="6.9505">
        <ele>1033.0737305</ele>
        <time>2012-03-03T11:03:32Z</time>
      </trkpt>
      <trkpt lat="43.73299" lon="6.95009">
        <ele>1036.4387207</ele>
        <time>2012-03-03T11:03:52Z</time>
      </trkpt>
      <trkpt lat="43.73331" lon="6.94971">
        <ele>1039.8032227</ele>
        <time>2012-03-03T11:04:09Z</time>
      </trkpt>
      <trkpt lat="43.73375" lon="6.94934">
        <ele>1043.1677246</ele>
        <time>2012-03-03T11:04:30Z</time>
      </trkpt>
      <trkpt lat="43.73416" lon="6.94927">
        <ele>1046.0517578</ele>
        <time>2012-03-03T11:04:46Z</time>
      </trkpt>
      <trkpt lat="43.73456" lon="6.94927">
        <ele>1048.9355469</ele>
        <time>2012-03-03T11:05:02Z</time>
      </trkpt>
      <trkpt lat="43.73504" lon="6.94919">
        <ele>1052.300293</ele>
        <time>2012-03-03T11:05:23Z</time>
      </trkpt>
      <trkpt lat="43.7356" lon="6.94896">
        <ele>1055.1843262</ele>
        <time>2012-03-03T11:05:47Z</time>
      </trkpt>
      <trkpt lat="43.73598" lon="6.94877">
        <ele>1058.5488281</ele>
        <time>2012-03-03T11:06:04Z</time>
      </trkpt>
      <trkpt lat="43.73632" lon="6.9484">
        <ele>1062.394043</ele>
        <time>2012-03-03T11:06:21Z</time>
      </trkpt>
      <trkpt lat="43.73666" lon="6.94781">
        <ele>1065.2780762</ele>
        <time>2012-03-03T11:06:42Z</time>
      </trkpt>
      <trkpt lat="43.73696" lon="6.94733">
        <ele>1068.6428223</ele>
        <time>2012-03-03T11:07:00Z</time>
      </trkpt>
      <trkpt lat="43.73717" lon="6.94696">
        <ele>1071.5266113</ele>
        <time>2012-03-03T11:07:13Z</time>
      </trkpt>
      <trkpt lat="43.73744" lon="6.94644">
        <ele>1073.4494629</ele>
        <time>2012-03-03T11:07:32Z</time>
      </trkpt>
      <trkpt lat="43.73739" lon="6.94585">
        <ele>1077.2946777</ele>
        <time>2012-03-03T11:07:51Z</time>
      </trkpt>
      <trkpt lat="43.73724" lon="6.94531">
        <ele>1079.6977539</ele>
        <time>2012-03-03T11:08:10Z</time>
      </trkpt>
      <trkpt lat="43.73713" lon="6.94522">
        <ele>1082.5817871</ele>
        <time>2012-03-03T11:08:17Z</time>
      </trkpt>
      <trkpt lat="43.737" lon="6.94534">
        <ele>1083.0622559</ele>
        <time>2012-03-03T11:08:25Z</time>
      </trkpt>
      <trkpt lat="43.73698" lon="6.94549">
        <ele>1084.9853516</ele>
        <time>2012-03-03T11:08:31Z</time>
      </trkpt>
      <trkpt lat="43.737" lon="6.94579">
        <ele>1087.3884277</ele>
        <time>2012-03-03T11:08:42Z</time>
      </trkpt>
      <trkpt lat="43.73698" lon="6.94586">
        <ele>1087.8691406</ele>
        <time>2012-03-03T11:08:45Z</time>
      </trkpt>
      <trkpt lat="43.73699" lon="6.94591">
        <ele>1088.8305664</ele>
        <time>2012-03-03T11:08:47Z</time>
      </trkpt>
      <trkpt lat="43.73695" lon="6.94602">
        <ele>1089.3110352</ele>
        <time>2012-03-03T11:08:52Z</time>
      </trkpt>
      <trkpt lat="43.73694" lon="6.94611">
        <ele>1089.3110352</ele>
        <time>2012-03-03T11:08:56Z</time>
      </trkpt>
      <trkpt lat="43.73692" lon="6.94619">
        <ele>1090.2724609</ele>
        <time>2012-03-03T11:08:59Z</time>
      </trkpt>
      <trkpt lat="43.73687" lon="6.94635">
        <ele>1090.7529297</ele>
        <time>2012-03-03T11:09:05Z</time>
      </trkpt>
      <trkpt lat="43.73686" lon="6.94638">
        <ele>1091.2336426</ele>
        <time>2012-03-03T11:09:07Z</time>
      </trkpt>
      <trkpt lat="43.7368" lon="6.9465">
        <ele>1093.15625</ele>
        <time>2012-03-03T11:09:15Z</time>
      </trkpt>
      <trkpt lat="43.73677" lon="6.94654">
        <ele>1093.15625</ele>
        <time>2012-03-03T11:09:18Z</time>
      </trkpt>
      <trkpt lat="43.7366" lon="6.94662">
        <ele>1094.5981445</ele>
        <time>2012-03-03T11:09:28Z</time>
      </trkpt>
      <trkpt lat="43.73625" lon="6.94671">
        <ele>1097.0014648</ele>
        <time>2012-03-03T11:09:43Z</time>
      </trkpt>
      <trkpt lat="43.73594" lon="6.94672">
        <ele>1100.3664551</ele>
        <time>2012-03-03T11:09:58Z</time>
      </trkpt>
      <trkpt lat="43.7359" lon="6.94671">
        <ele>1100.8469238</ele>
        <time>2012-03-03T11:10:00Z</time>
      </trkpt>
      <trkpt lat="43.73567" lon="6.94647">
        <ele>1103.730957</ele>
        <time>2012-03-03T11:10:15Z</time>
      </trkpt>
      <trkpt lat="43.73566" lon="6.94644">
        <ele>1103.730957</ele>
        <time>2012-03-03T11:10:16Z</time>
      </trkpt>
      <trkpt lat="43.73574" lon="6.94587">
        <ele>1104.2116699</ele>
        <time>2012-03-03T11:10:37Z</time>
      </trkpt>
      <trkpt lat="43.73574" lon="6.94581">
        <ele>1105.1728516</ele>
        <time>2012-03-03T11:10:39Z</time>
      </trkpt>
      <trkpt lat="43.73572" lon="6.9456">
        <ele>1104.6921387</ele>
        <time>2012-03-03T11:10:45Z</time>
      </trkpt>
      <trkpt lat="43.73538" lon="6.94514">
        <ele>1105.1728516</ele>
        <time>2012-03-03T11:11:03Z</time>
      </trkpt>
      <trkpt lat="43.73503" lon="6.94471">
        <ele>1106.1340332</ele>
        <time>2012-03-03T11:11:19Z</time>
      </trkpt>
      <trkpt lat="43.73471" lon="6.94427">
        <ele>1106.6147461</ele>
        <time>2012-03-03T11:11:34Z</time>
      </trkpt>
      <trkpt lat="43.7348" lon="6.94391">
        <ele>1107.5761719</ele>
        <time>2012-03-03T11:11:43Z</time>
      </trkpt>
      <trkpt lat="43.73476" lon="6.94376">
        <ele>1108.0568848</ele>
        <time>2012-03-03T11:11:47Z</time>
      </trkpt>
      <trkpt lat="43.7345" lon="6.94328">
        <ele>1110.9406738</ele>
        <time>2012-03-03T11:12:03Z</time>
      </trkpt>
      <trkpt lat="43.73431" lon="6.94262">
        <ele>1114.3051758</ele>
        <time>2012-03-03T11:12:24Z</time>
      </trkpt>
      <trkpt lat="43.73433" lon="6.94205">
        <ele>1115.2666016</ele>
        <time>2012-03-03T11:12:40Z</time>
      </trkpt>
      <trkpt lat="43.73407" lon="6.94191">
        <ele>1117.6699219</ele>
        <time>2012-03-03T11:12:54Z</time>
      </trkpt>
      <trkpt lat="43.73358" lon="6.94217">
        <ele>1121.034668</ele>
        <time>2012-03-03T11:13:15Z</time>
      </trkpt>
      <trkpt lat="43.73351" lon="6.94219">
        <ele>1120.5539551</ele>
        <time>2012-03-03T11:13:33Z</time>
      </trkpt>
      <trkpt lat="43.73351" lon="6.94219">
        <ele>1121.034668</ele>
        <time>2012-03-03T11:14:05Z</time>
      </trkpt>
      <trkpt lat="43.73312" lon="6.94235">
        <ele>1118.6313477</ele>
        <time>2012-03-03T11:14:20Z</time>
      </trkpt>
      <trkpt lat="43.73296" lon="6.94244">
        <ele>1116.7087402</ele>
        <time>2012-03-03T11:14:26Z</time>
      </trkpt>
      <trkpt lat="43.73286" lon="6.94256">
        <ele>1116.2280273</ele>
        <time>2012-03-03T11:14:35Z</time>
      </trkpt>
      <trkpt lat="43.73285" lon="6.94248">
        <ele>1116.2280273</ele>
        <time>2012-03-03T11:14:40Z</time>
      </trkpt>
      <trkpt lat="43.73276" lon="6.94231">
        <ele>1115.2666016</ele>
        <time>2012-03-03T11:14:45Z</time>
      </trkpt>
      <trkpt lat="43.7328" lon="6.94212">
        <ele>1113.8244629</ele>
        <time>2012-03-03T11:14:47Z</time>
      </trkpt>
      <trkpt lat="43.73274" lon="6.94201">
        <ele>1113.3439941</ele>
        <time>2012-03-03T11:14:49Z</time>
      </trkpt>
      <trkpt lat="43.73224" lon="6.94168">
        <ele>1112.8632813</ele>
        <time>2012-03-03T11:15:04Z</time>
      </trkpt>
      <trkpt lat="43.73188" lon="6.94153">
        <ele>1113.8244629</ele>
        <time>2012-03-03T11:15:18Z</time>
      </trkpt>
      <trkpt lat="43.73157" lon="6.94136">
        <ele>1115.2666016</ele>
        <time>2012-03-03T11:15:23Z</time>
      </trkpt>
      <trkpt lat="43.73157" lon="6.94136">
        <ele>1115.2666016</ele>
        <time>2012-03-03T11:15:27Z</time>
      </trkpt>
      <trkpt lat="43.73156" lon="6.94136">
        <ele>1118.1506348</ele>
        <time>2012-03-03T11:15:43Z</time>
      </trkpt>
      <trkpt lat="43.73124" lon="6.94121">
        <ele>1121.034668</ele>
        <time>2012-03-03T11:16:01Z</time>
      </trkpt>
      <trkpt lat="43.73122" lon="6.9412">
        <ele>1121.034668</ele>
        <time>2012-03-03T11:16:02Z</time>
      </trkpt>
      <trkpt lat="43.73096" lon="6.9411">
        <ele>1124.3991699</ele>
        <time>2012-03-03T11:16:20Z</time>
      </trkpt>
      <trkpt lat="43.7308" lon="6.94104">
        <ele>1127.7636719</ele>
        <time>2012-03-03T11:16:32Z</time>
      </trkpt>
      <trkpt lat="43.73067" lon="6.94099">
        <ele>1129.2055664</ele>
        <time>2012-03-03T11:16:41Z</time>
      </trkpt>
      <trkpt lat="43.73019" lon="6.94074">
        <ele>1131.128418</ele>
        <time>2012-03-03T11:17:10Z</time>
      </trkpt>
      <trkpt lat="43.72984" lon="6.94051">
        <ele>1134.0124512</ele>
        <time>2012-03-03T11:17:30Z</time>
      </trkpt>
      <trkpt lat="43.72951" lon="6.94005">
        <ele>1135.9350586</ele>
        <time>2012-03-03T11:17:54Z</time>
      </trkpt>
      <trkpt lat="43.729" lon="6.93985">
        <ele>1137.3769531</ele>
        <time>2012-03-03T11:18:14Z</time>
      </trkpt>
      <trkpt lat="43.72825" lon="6.93978">
        <ele>1137.3769531</ele>
        <time>2012-03-03T11:18:36Z</time>
      </trkpt>
      <trkpt lat="43.72793" lon="6.9398">
        <ele>1141.222168</ele>
        <time>2012-03-03T11:18:48Z</time>
      </trkpt>
      <trkpt lat="43.72744" lon="6.93975">
        <ele>1144.5866699</ele>
        <time>2012-03-03T11:19:10Z</time>
      </trkpt>
      <trkpt lat="43.72716" lon="6.93968">
        <ele>1147.951416</ele>
        <time>2012-03-03T11:19:26Z</time>
      </trkpt>
      <trkpt lat="43.72695" lon="6.93962">
        <ele>1151.3161621</ele>
        <time>2012-03-03T11:19:40Z</time>
      </trkpt>
      <trkpt lat="43.72694" lon="6.93962">
        <ele>1151.3161621</ele>
        <time>2012-03-03T11:19:41Z</time>
      </trkpt>
      <trkpt lat="43.72669" lon="6.93957">
        <ele>1153.2387695</ele>
        <time>2012-03-03T11:19:58Z</time>
      </trkpt>
      <trkpt lat="43.72649" lon="6.93953">
        <ele>1155.161377</ele>
        <time>2012-03-03T11:20:11Z</time>
      </trkpt>
      <trkpt lat="43.72621" lon="6.93947">
        <ele>1158.5258789</ele>
        <time>2012-03-03T11:20:31Z</time>
      </trkpt>
      <trkpt lat="43.72616" lon="6.93946">
        <ele>1158.5258789</ele>
        <time>2012-03-03T11:20:34Z</time>
      </trkpt>
      <trkpt lat="43.72612" lon="6.93945">
        <ele>1159.9677734</ele>
        <time>2012-03-03T11:20:37Z</time>
      </trkpt>
      <trkpt lat="43.72589" lon="6.93941">
        <ele>1163.3325195</ele>
        <time>2012-03-03T11:20:53Z</time>
      </trkpt>
      <trkpt lat="43.72566" lon="6.93937">
        <ele>1166.2165527</ele>
        <time>2012-03-03T11:21:10Z</time>
      </trkpt>
      <trkpt lat="43.72563" lon="6.93936">
        <ele>1167.6584473</ele>
        <time>2012-03-03T11:21:13Z</time>
      </trkpt>
      <trkpt lat="43.72539" lon="6.9393">
        <ele>1170.5424805</ele>
        <time>2012-03-03T11:21:29Z</time>
      </trkpt>
      <trkpt lat="43.72524" lon="6.93927">
        <ele>1172.9458008</ele>
        <time>2012-03-03T11:21:40Z</time>
      </trkpt>
      <trkpt lat="43.72508" lon="6.93922">
        <ele>1176.3103027</ele>
        <time>2012-03-03T11:21:51Z</time>
      </trkpt>
      <trkpt lat="43.72501" lon="6.93919">
        <ele>1175.8295898</ele>
        <time>2012-03-03T11:21:56Z</time>
      </trkpt>
      <trkpt lat="43.72496" lon="6.93915">
        <ele>1176.3103027</ele>
        <time>2012-03-03T11:22:00Z</time>
      </trkpt>
      <trkpt lat="43.72465" lon="6.93882">
        <ele>1178.2329102</ele>
        <time>2012-03-03T11:22:24Z</time>
      </trkpt>
      <trkpt lat="43.72436" lon="6.93847">
        <ele>1180.1557617</ele>
        <time>2012-03-03T11:22:45Z</time>
      </trkpt>
      <trkpt lat="43.72412" lon="6.93824">
        <ele>1183.5202637</ele>
        <time>2012-03-03T11:23:06Z</time>
      </trkpt>
      <trkpt lat="43.72385" lon="6.93805">
        <ele>1187.3654785</ele>
        <time>2012-03-03T11:23:29Z</time>
      </trkpt>
      <trkpt lat="43.72366" lon="6.93793">
        <ele>1190.2495117</ele>
        <time>2012-03-03T11:23:43Z</time>
      </trkpt>
      <trkpt lat="43.72347" lon="6.93783">
        <ele>1193.6140137</ele>
        <time>2012-03-03T11:23:59Z</time>
      </trkpt>
      <trkpt lat="43.7233" lon="6.93778">
        <ele>1196.498291</ele>
        <time>2012-03-03T11:24:13Z</time>
      </trkpt>
      <trkpt lat="43.7231" lon="6.93781">
        <ele>1199.862793</ele>
        <time>2012-03-03T11:24:27Z</time>
      </trkpt>
      <trkpt lat="43.72308" lon="6.93782">
        <ele>1199.862793</ele>
        <time>2012-03-03T11:24:29Z</time>
      </trkpt>
      <trkpt lat="43.72294" lon="6.93789">
        <ele>1200.8239746</ele>
        <time>2012-03-03T11:24:39Z</time>
      </trkpt>
      <trkpt lat="43.72292" lon="6.9379">
        <ele>1202.746582</ele>
        <time>2012-03-03T11:24:41Z</time>
      </trkpt>
      <trkpt lat="43.7229" lon="6.93791">
        <ele>1202.2658691</ele>
        <time>2012-03-03T11:25:04Z</time>
      </trkpt>
      <trkpt lat="43.7229" lon="6.93791">
        <ele>1202.2658691</ele>
        <time>2012-03-03T11:25:29Z</time>
      </trkpt>
      <trkpt lat="43.72287" lon="6.93794">
        <ele>1201.7854004</ele>
        <time>2012-03-03T11:25:31Z</time>
      </trkpt>
      <trkpt lat="43.72282" lon="6.93799">
        <ele>1202.746582</ele>
        <time>2012-03-03T11:25:35Z</time>
      </trkpt>
      <trkpt lat="43.72252" lon="6.93832">
        <ele>1205.6306152</ele>
        <time>2012-03-03T11:25:59Z</time>
      </trkpt>
      <trkpt lat="43.72247" lon="6.93835">
        <ele>1205.6306152</ele>
        <time>2012-03-03T11:26:02Z</time>
      </trkpt>
      <trkpt lat="43.72239" lon="6.93838">
        <ele>1207.0725098</ele>
        <time>2012-03-03T11:26:07Z</time>
      </trkpt>
      <trkpt lat="43.7222" lon="6.93845">
        <ele>1208.0339355</ele>
        <time>2012-03-03T11:26:19Z</time>
      </trkpt>
      <trkpt lat="43.72188" lon="6.93843">
        <ele>1211.8791504</ele>
        <time>2012-03-03T11:26:41Z</time>
      </trkpt>
      <trkpt lat="43.72158" lon="6.93823">
        <ele>1215.7246094</ele>
        <time>2012-03-03T11:27:04Z</time>
      </trkpt>
      <trkpt lat="43.72143" lon="6.93805">
        <ele>1219.0891113</ele>
        <time>2012-03-03T11:27:18Z</time>
      </trkpt>
      <trkpt lat="43.72123" lon="6.93783">
        <ele>1222.4536133</ele>
        <time>2012-03-03T11:27:36Z</time>
      </trkpt>
      <trkpt lat="43.72115" lon="6.93774">
        <ele>1224.3762207</ele>
        <time>2012-03-03T11:27:44Z</time>
      </trkpt>
      <trkpt lat="43.72098" lon="6.93754">
        <ele>1227.2602539</ele>
        <time>2012-03-03T11:28:00Z</time>
      </trkpt>
      <trkpt lat="43.72085" lon="6.93741">
        <ele>1230.625</ele>
        <time>2012-03-03T11:28:13Z</time>
      </trkpt>
      <trkpt lat="43.7208" lon="6.93737">
        <ele>1231.1057129</ele>
        <time>2012-03-03T11:28:18Z</time>
      </trkpt>
      <trkpt lat="43.72077" lon="6.93734">
        <ele>1232.0668945</ele>
        <time>2012-03-03T11:28:21Z</time>
      </trkpt>
      <trkpt lat="43.72074" lon="6.93731">
        <ele>1232.0668945</ele>
        <time>2012-03-03T11:28:24Z</time>
      </trkpt>
      <trkpt lat="43.7207" lon="6.93727">
        <ele>1233.5087891</ele>
        <time>2012-03-03T11:28:28Z</time>
      </trkpt>
      <trkpt lat="43.72051" lon="6.93707">
        <ele>1236.3928223</ele>
        <time>2012-03-03T11:28:48Z</time>
      </trkpt>
      <trkpt lat="43.72039" lon="6.93696">
        <ele>1239.7573242</ele>
        <time>2012-03-03T11:29:00Z</time>
      </trkpt>
      <trkpt lat="43.72039" lon="6.93696">
        <ele>1240.7185059</ele>
        <time>2012-03-03T11:29:06Z</time>
      </trkpt>
      <trkpt lat="43.72016" lon="6.93675">
        <ele>1244.0834961</ele>
        <time>2012-03-03T11:29:23Z</time>
      </trkpt>
      <trkpt lat="43.72002" lon="6.9366">
        <ele>1246.9672852</ele>
        <time>2012-03-03T11:29:41Z</time>
      </trkpt>
      <trkpt lat="43.71994" lon="6.93651">
        <ele>1247.9287109</ele>
        <time>2012-03-03T11:29:49Z</time>
      </trkpt>
      <trkpt lat="43.71994" lon="6.93651">
        <ele>1248.8898926</ele>
        <time>2012-03-03T11:29:52Z</time>
      </trkpt>
      <trkpt lat="43.71969" lon="6.93628">
        <ele>1252.2543945</ele>
        <time>2012-03-03T11:30:12Z</time>
      </trkpt>
      <trkpt lat="43.71965" lon="6.93623">
        <ele>1253.6965332</ele>
        <time>2012-03-03T11:30:20Z</time>
      </trkpt>
      <trkpt lat="43.71958" lon="6.93614">
        <ele>1253.6965332</ele>
        <time>2012-03-03T11:30:24Z</time>
      </trkpt>
      <trkpt lat="43.71958" lon="6.93614">
        <ele>1255.6191406</ele>
        <time>2012-03-03T11:30:27Z</time>
      </trkpt>
      <trkpt lat="43.7195" lon="6.93605">
        <ele>1256.5803223</ele>
        <time>2012-03-03T11:30:33Z</time>
      </trkpt>
      <trkpt lat="43.7195" lon="6.93605">
        <ele>1257.541748</ele>
        <time>2012-03-03T11:30:40Z</time>
      </trkpt>
      <trkpt lat="43.7195" lon="6.93605">
        <ele>1258.9836426</ele>
        <time>2012-03-03T11:30:47Z</time>
      </trkpt>
      <trkpt lat="43.71936" lon="6.93585">
        <ele>1262.3483887</ele>
        <time>2012-03-03T11:31:03Z</time>
      </trkpt>
      <trkpt lat="43.71936" lon="6.93585">
        <ele>1262.3483887</ele>
        <time>2012-03-03T11:31:04Z</time>
      </trkpt>
      <trkpt lat="43.71936" lon="6.93585">
        <ele>1263.3098145</ele>
        <time>2012-03-03T11:31:11Z</time>
      </trkpt>
      <trkpt lat="43.71936" lon="6.93585">
        <ele>1264.751709</ele>
        <time>2012-03-03T11:31:16Z</time>
      </trkpt>
      <trkpt lat="43.71936" lon="6.93585">
        <ele>1267.635498</ele>
        <time>2012-03-03T11:31:31Z</time>
      </trkpt>
      <trkpt lat="43.71888" lon="6.93522">
        <ele>1270.0388184</ele>
        <time>2012-03-03T11:31:49Z</time>
      </trkpt>
      <trkpt lat="43.71869" lon="6.9349">
        <ele>1270.0388184</ele>
        <time>2012-03-03T11:32:07Z</time>
      </trkpt>
      <trkpt lat="43.71838" lon="6.9344">
        <ele>1270.0388184</ele>
        <time>2012-03-03T11:32:30Z</time>
      </trkpt>
      <trkpt lat="43.71808" lon="6.93385">
        <ele>1268.1162109</ele>
        <time>2012-03-03T11:32:50Z</time>
      </trkpt>
      <trkpt lat="43.71783" lon="6.93349">
        <ele>1270.5195313</ele>
        <time>2012-03-03T11:33:09Z</time>
      </trkpt>
      <trkpt lat="43.71767" lon="6.93342">
        <ele>1273.4035645</ele>
        <time>2012-03-03T11:33:21Z</time>
      </trkpt>
      <trkpt lat="43.71745" lon="6.93349">
        <ele>1277.2490234</ele>
        <time>2012-03-03T11:33:36Z</time>
      </trkpt>
      <trkpt lat="43.71739" lon="6.93352">
        <ele>1277.2490234</ele>
        <time>2012-03-03T11:33:40Z</time>
      </trkpt>
      <trkpt lat="43.71715" lon="6.93361">
        <ele>1280.6135254</ele>
        <time>2012-03-03T11:33:59Z</time>
      </trkpt>
      <trkpt lat="43.71701" lon="6.93364">
        <ele>1283.4973145</ele>
        <time>2012-03-03T11:34:10Z</time>
      </trkpt>
      <trkpt lat="43.71689" lon="6.93364">
        <ele>1284.9394531</ele>
        <time>2012-03-03T11:34:20Z</time>
      </trkpt>
      <trkpt lat="43.71673" lon="6.93358">
        <ele>1288.3039551</ele>
        <time>2012-03-03T11:34:33Z</time>
      </trkpt>
      <trkpt lat="43.71668" lon="6.93355">
        <ele>1289.2651367</ele>
        <time>2012-03-03T11:34:37Z</time>
      </trkpt>
      <trkpt lat="43.71654" lon="6.93347">
        <ele>1291.668457</ele>
        <time>2012-03-03T11:34:49Z</time>
      </trkpt>
      <trkpt lat="43.71654" lon="6.93346">
        <ele>1293.5913086</ele>
        <time>2012-03-03T11:35:03Z</time>
      </trkpt>
      <trkpt lat="43.71638" lon="6.93333">
        <ele>1296.4753418</ele>
        <time>2012-03-03T11:35:14Z</time>
      </trkpt>
      <trkpt lat="43.71638" lon="6.93333">
        <ele>1297.4365234</ele>
        <time>2012-03-03T11:35:20Z</time>
      </trkpt>
      <trkpt lat="43.71621" lon="6.93307">
        <ele>1298.3977051</ele>
        <time>2012-03-03T11:35:27Z</time>
      </trkpt>
      <trkpt lat="43.71621" lon="6.93307">
        <ele>1299.3591309</ele>
        <time>2012-03-03T11:35:31Z</time>
      </trkpt>
      <trkpt lat="43.71621" lon="6.93307">
        <ele>1299.3591309</ele>
        <time>2012-03-03T11:35:33Z</time>
      </trkpt>
      <trkpt lat="43.71621" lon="6.93307">
        <ele>1299.3591309</ele>
        <time>2012-03-03T11:35:37Z</time>
      </trkpt>
      <trkpt lat="43.71621" lon="6.93307">
        <ele>1301.2817383</ele>
        <time>2012-03-03T11:35:44Z</time>
      </trkpt>
      <trkpt lat="43.71605" lon="6.9326">
        <ele>1304.6462402</ele>
        <time>2012-03-03T11:36:01Z</time>
      </trkpt>
      <trkpt lat="43.71605" lon="6.9326">
        <ele>1308.0112305</ele>
        <time>2012-03-03T11:36:11Z</time>
      </trkpt>
      <trkpt lat="43.71604" lon="6.93236">
        <ele>1308.0112305</ele>
        <time>2012-03-03T11:36:12Z</time>
      </trkpt>
      <trkpt lat="43.71604" lon="6.93223">
        <ele>1310.8950195</ele>
        <time>2012-03-03T11:36:25Z</time>
      </trkpt>
      <trkpt lat="43.71606" lon="6.9318">
        <ele>1314.7402344</ele>
        <time>2012-03-03T11:36:47Z</time>
      </trkpt>
      <trkpt lat="43.71606" lon="6.93177">
        <ele>1315.7016602</ele>
        <time>2012-03-03T11:36:49Z</time>
      </trkpt>
      <trkpt lat="43.71606" lon="6.93155">
        <ele>1319.0661621</ele>
        <time>2012-03-03T11:37:04Z</time>
      </trkpt>
      <trkpt lat="43.71604" lon="6.93135">
        <ele>1321.9499512</ele>
        <time>2012-03-03T11:37:16Z</time>
      </trkpt>
      <trkpt lat="43.716" lon="6.93115">
        <ele>1326.7568359</ele>
        <time>2012-03-03T11:37:32Z</time>
      </trkpt>
      <trkpt lat="43.716" lon="6.93115">
        <ele>1326.7568359</ele>
        <time>2012-03-03T11:37:33Z</time>
      </trkpt>
      <trkpt lat="43.716" lon="6.93115">
        <ele>1325.7954102</ele>
        <time>2012-03-03T11:37:34Z</time>
      </trkpt>
      <trkpt lat="43.71597" lon="6.93102">
        <ele>1326.276123</ele>
        <time>2012-03-03T11:37:37Z</time>
      </trkpt>
      <trkpt lat="43.71595" lon="6.93094">
        <ele>1327.2375488</ele>
        <time>2012-03-03T11:37:42Z</time>
      </trkpt>
      <trkpt lat="43.7159" lon="6.93077">
        <ele>1331.0827637</ele>
        <time>2012-03-03T11:37:54Z</time>
      </trkpt>
      <trkpt lat="43.71589" lon="6.93072">
        <ele>1330.6020508</ele>
        <time>2012-03-03T11:37:57Z</time>
      </trkpt>
      <trkpt lat="43.71588" lon="6.93066">
        <ele>1332.0439453</ele>
        <time>2012-03-03T11:38:01Z</time>
      </trkpt>
      <trkpt lat="43.71585" lon="6.93058">
        <ele>1331.5632324</ele>
        <time>2012-03-03T11:38:06Z</time>
      </trkpt>
      <trkpt lat="43.71585" lon="6.93044">
        <ele>1333.005127</ele>
        <time>2012-03-03T11:38:12Z</time>
      </trkpt>
      <trkpt lat="43.71586" lon="6.93039">
        <ele>1333.005127</ele>
        <time>2012-03-03T11:38:23Z</time>
      </trkpt>
      <trkpt lat="43.71588" lon="6.93036">
        <ele>1333.4858398</ele>
        <time>2012-03-03T11:38:42Z</time>
      </trkpt>
      <trkpt lat="43.71588" lon="6.93036">
        <ele>1333.9665527</ele>
        <time>2012-03-03T11:41:31Z</time>
      </trkpt>
      <trkpt lat="43.71588" lon="6.93036">
        <ele>1333.005127</ele>
        <time>2012-03-03T11:42:20Z</time>
      </trkpt>
      <trkpt lat="43.71604" lon="6.93026">
        <ele>1333.4858398</ele>
        <time>2012-03-03T11:42:23Z</time>
      </trkpt>
      <trkpt lat="43.7161" lon="6.93037">
        <ele>1333.9665527</ele>
        <time>2012-03-03T11:42:28Z</time>
      </trkpt>
      <trkpt lat="43.7161" lon="6.93038">
        <ele>1334.4472656</ele>
        <time>2012-03-03T11:42:40Z</time>
      </trkpt>
      <trkpt lat="43.71608" lon="6.93033">
        <ele>1338.2924805</ele>
        <time>2012-03-03T11:42:46Z</time>
      </trkpt>
      <trkpt lat="43.71608" lon="6.93033">
        <ele>1334.9279785</ele>
        <time>2012-03-03T11:42:47Z</time>
      </trkpt>
      <trkpt lat="43.71587" lon="6.93062">
        <ele>1331.5632324</ele>
        <time>2012-03-03T11:42:50Z</time>
      </trkpt>
      <trkpt lat="43.71588" lon="6.93067">
        <ele>1331.5632324</ele>
        <time>2012-03-03T11:42:52Z</time>
      </trkpt>
      <trkpt lat="43.7159" lon="6.93076">
        <ele>1330.6020508</ele>
        <time>2012-03-03T11:42:54Z</time>
      </trkpt>
      <trkpt lat="43.71596" lon="6.93097">
        <ele>1329.1599121</ele>
        <time>2012-03-03T11:42:57Z</time>
      </trkpt>
      <trkpt lat="43.71598" lon="6.93105">
        <ele>1327.2375488</ele>
        <time>2012-03-03T11:42:58Z</time>
      </trkpt>
      <trkpt lat="43.71604" lon="6.93134">
        <ele>1322.4306641</ele>
        <time>2012-03-03T11:43:01Z</time>
      </trkpt>
      <trkpt lat="43.71604" lon="6.93145">
        <ele>1322.4306641</ele>
        <time>2012-03-03T11:43:02Z</time>
      </trkpt>
      <trkpt lat="43.71606" lon="6.93167">
        <ele>1320.0273438</ele>
        <time>2012-03-03T11:43:04Z</time>
      </trkpt>
      <trkpt lat="43.71606" lon="6.93191">
        <ele>1317.1435547</ele>
        <time>2012-03-03T11:43:06Z</time>
      </trkpt>
      <trkpt lat="43.71606" lon="6.93201">
        <ele>1314.2595215</ele>
        <time>2012-03-03T11:43:07Z</time>
      </trkpt>
      <trkpt lat="43.71604" lon="6.93211">
        <ele>1314.2595215</ele>
        <time>2012-03-03T11:43:08Z</time>
      </trkpt>
      <trkpt lat="43.71604" lon="6.93231">
        <ele>1309.9335938</ele>
        <time>2012-03-03T11:43:10Z</time>
      </trkpt>
      <trkpt lat="43.71604" lon="6.93242">
        <ele>1309.9335938</ele>
        <time>2012-03-03T11:43:11Z</time>
      </trkpt>
      <trkpt lat="43.71604" lon="6.93254">
        <ele>1306.5688477</ele>
        <time>2012-03-03T11:43:12Z</time>
      </trkpt>
      <trkpt lat="43.71608" lon="6.93274">
        <ele>1303.6850586</ele>
        <time>2012-03-03T11:43:14Z</time>
      </trkpt>
      <trkpt lat="43.71618" lon="6.93302">
        <ele>1299.3591309</ele>
        <time>2012-03-03T11:43:17Z</time>
      </trkpt>
      <trkpt lat="43.71623" lon="6.93311">
        <ele>1299.3591309</ele>
        <time>2012-03-03T11:43:18Z</time>
      </trkpt>
      <trkpt lat="43.71634" lon="6.93327">
        <ele>1297.4365234</ele>
        <time>2012-03-03T11:43:20Z</time>
      </trkpt>
      <trkpt lat="43.71644" lon="6.93339">
        <ele>1295.513916</ele>
        <time>2012-03-03T11:43:22Z</time>
      </trkpt>
      <trkpt lat="43.71656" lon="6.93348">
        <ele>1292.1494141</ele>
        <time>2012-03-03T11:43:24Z</time>
      </trkpt>
      <trkpt lat="43.71662" lon="6.93352">
        <ele>1292.1494141</ele>
        <time>2012-03-03T11:43:25Z</time>
      </trkpt>
      <trkpt lat="43.71674" lon="6.93358">
        <ele>1289.2651367</ele>
        <time>2012-03-03T11:43:27Z</time>
      </trkpt>
      <trkpt lat="43.7168" lon="6.93361">
        <ele>1287.8232422</ele>
        <time>2012-03-03T11:43:28Z</time>
      </trkpt>
      <trkpt lat="43.71698" lon="6.93364">
        <ele>1283.9780273</ele>
        <time>2012-03-03T11:43:31Z</time>
      </trkpt>
      <trkpt lat="43.71703" lon="6.93364">
        <ele>1283.9780273</ele>
        <time>2012-03-03T11:43:32Z</time>
      </trkpt>
      <trkpt lat="43.7171" lon="6.93363">
        <ele>1282.5361328</ele>
        <time>2012-03-03T11:43:34Z</time>
      </trkpt>
      <trkpt lat="43.71716" lon="6.93361">
        <ele>1281.574707</ele>
        <time>2012-03-03T11:43:36Z</time>
      </trkpt>
      <trkpt lat="43.71717" lon="6.9336">
        <ele>1280.6135254</ele>
        <time>2012-03-03T11:43:43Z</time>
      </trkpt>
      <trkpt lat="43.71728" lon="6.93358">
        <ele>1278.2102051</ele>
        <time>2012-03-03T11:43:47Z</time>
      </trkpt>
      <trkpt lat="43.71752" lon="6.93347">
        <ele>1275.8066406</ele>
        <time>2012-03-03T11:43:52Z</time>
      </trkpt>
      <trkpt lat="43.7176" lon="6.93343">
        <ele>1274.3647461</ele>
        <time>2012-03-03T11:43:54Z</time>
      </trkpt>
      <trkpt lat="43.71784" lon="6.93349">
        <ele>1271.9614258</ele>
        <time>2012-03-03T11:44:03Z</time>
      </trkpt>
      <trkpt lat="43.71798" lon="6.93365">
        <ele>1270.0388184</ele>
        <time>2012-03-03T11:44:09Z</time>
      </trkpt>
      <trkpt lat="43.718" lon="6.93369">
        <ele>1270.0388184</ele>
        <time>2012-03-03T11:44:23Z</time>
      </trkpt>
      <trkpt lat="43.71799" lon="6.93371">
        <ele>1270.5195313</ele>
        <time>2012-03-03T11:47:54Z</time>
      </trkpt>
      <trkpt lat="43.71796" lon="6.93393">
        <ele>1268.1162109</ele>
        <time>2012-03-03T11:48:02Z</time>
      </trkpt>
      <trkpt lat="43.71799" lon="6.93414">
        <ele>1266.6743164</ele>
        <time>2012-03-03T11:48:07Z</time>
      </trkpt>
      <trkpt lat="43.71818" lon="6.93404">
        <ele>1266.6743164</ele>
        <time>2012-03-03T11:48:09Z</time>
      </trkpt>
      <trkpt lat="43.71822" lon="6.93412">
        <ele>1263.7902832</ele>
        <time>2012-03-03T11:48:12Z</time>
      </trkpt>
      <trkpt lat="43.71823" lon="6.93414">
        <ele>1263.7902832</ele>
        <time>2012-03-03T11:48:13Z</time>
      </trkpt>
      <trkpt lat="43.71779" lon="6.93464">
        <ele>1263.7902832</ele>
        <time>2012-03-03T11:48:22Z</time>
      </trkpt>
      <trkpt lat="43.71779" lon="6.9347">
        <ele>1264.2709961</ele>
        <time>2012-03-03T11:48:35Z</time>
      </trkpt>
      <trkpt lat="43.7178" lon="6.93474">
        <ele>1264.751709</ele>
        <time>2012-03-03T11:48:40Z</time>
      </trkpt>
      <trkpt lat="43.71782" lon="6.93482">
        <ele>1263.3098145</ele>
        <time>2012-03-03T11:48:47Z</time>
      </trkpt>
      <trkpt lat="43.71783" lon="6.93488">
        <ele>1262.8291016</ele>
        <time>2012-03-03T11:48:53Z</time>
      </trkpt>
      <trkpt lat="43.71786" lon="6.93492">
        <ele>1263.3098145</ele>
        <time>2012-03-03T11:49:00Z</time>
      </trkpt>
      <trkpt lat="43.71785" lon="6.93502">
        <ele>1261.387207</ele>
        <time>2012-03-03T11:49:05Z</time>
      </trkpt>
      <trkpt lat="43.71779" lon="6.93516">
        <ele>1261.387207</ele>
        <time>2012-03-03T11:49:19Z</time>
      </trkpt>
      <trkpt lat="43.71785" lon="6.93513">
        <ele>1261.387207</ele>
        <time>2012-03-03T11:49:37Z</time>
      </trkpt>
      <trkpt lat="43.71787" lon="6.93519">
        <ele>1259.9448242</ele>
        <time>2012-03-03T11:49:40Z</time>
      </trkpt>
      <trkpt lat="43.7179" lon="6.93519">
        <ele>1259.9448242</ele>
        <time>2012-03-03T11:49:43Z</time>
      </trkpt>
      <trkpt lat="43.71796" lon="6.93526">
        <ele>1258.9836426</ele>
        <time>2012-03-03T11:49:53Z</time>
      </trkpt>
      <trkpt lat="43.71796" lon="6.93526">
        <ele>1258.9836426</ele>
        <time>2012-03-03T11:49:56Z</time>
      </trkpt>
      <trkpt lat="43.71803" lon="6.93532">
        <ele>1257.541748</ele>
        <time>2012-03-03T11:50:08Z</time>
      </trkpt>
      <trkpt lat="43.71804" lon="6.93535">
        <ele>1256.5803223</ele>
        <time>2012-03-03T11:50:10Z</time>
      </trkpt>
      <trkpt lat="43.71807" lon="6.93539">
        <ele>1256.5803223</ele>
        <time>2012-03-03T11:50:13Z</time>
      </trkpt>
      <trkpt lat="43.7181" lon="6.93546">
        <ele>1255.6191406</ele>
        <time>2012-03-03T11:50:17Z</time>
      </trkpt>
      <trkpt lat="43.71819" lon="6.93555">
        <ele>1252.7351074</ele>
        <time>2012-03-03T11:50:23Z</time>
      </trkpt>
      <trkpt lat="43.71823" lon="6.93558">
        <ele>1251.7739258</ele>
        <time>2012-03-03T11:50:35Z</time>
      </trkpt>
      <trkpt lat="43.71822" lon="6.93561">
        <ele>1251.2932129</ele>
        <time>2012-03-03T11:50:38Z</time>
      </trkpt>
      <trkpt lat="43.71819" lon="6.93583">
        <ele>1248.8898926</ele>
        <time>2012-03-03T11:50:44Z</time>
      </trkpt>
      <trkpt lat="43.71806" lon="6.93613">
        <ele>1249.8513184</ele>
        <time>2012-03-03T11:50:55Z</time>
      </trkpt>
      <trkpt lat="43.71806" lon="6.93615">
        <ele>1249.8513184</ele>
        <time>2012-03-03T11:50:58Z</time>
      </trkpt>
      <trkpt lat="43.71817" lon="6.93634">
        <ele>1248.8898926</ele>
        <time>2012-03-03T11:51:07Z</time>
      </trkpt>
      <trkpt lat="43.71821" lon="6.93638">
        <ele>1248.8898926</ele>
        <time>2012-03-03T11:51:11Z</time>
      </trkpt>
      <trkpt lat="43.71837" lon="6.9365">
        <ele>1248.4091797</ele>
        <time>2012-03-03T11:51:19Z</time>
      </trkpt>
      <trkpt lat="43.71841" lon="6.93666">
        <ele>1247.9287109</ele>
        <time>2012-03-03T11:51:24Z</time>
      </trkpt>
      <trkpt lat="43.71843" lon="6.93669">
        <ele>1246.4868164</ele>
        <time>2012-03-03T11:51:26Z</time>
      </trkpt>
      <trkpt lat="43.71848" lon="6.93672">
        <ele>1245.0446777</ele>
        <time>2012-03-03T11:51:28Z</time>
      </trkpt>
      <trkpt lat="43.71857" lon="6.93689">
        <ele>1246.4868164</ele>
        <time>2012-03-03T11:51:35Z</time>
      </trkpt>
      <trkpt lat="43.71867" lon="6.93701">
        <ele>1246.9672852</ele>
        <time>2012-03-03T11:51:42Z</time>
      </trkpt>
      <trkpt lat="43.71887" lon="6.93727">
        <ele>1242.6413574</ele>
        <time>2012-03-03T11:51:55Z</time>
      </trkpt>
      <trkpt lat="43.71885" lon="6.93727">
        <ele>1242.1606445</ele>
        <time>2012-03-03T11:52:27Z</time>
      </trkpt>
      <trkpt lat="43.71886" lon="6.93726">
        <ele>1245.0446777</ele>
        <time>2012-03-03T11:53:38Z</time>
      </trkpt>
      <trkpt lat="43.71891" lon="6.93742">
        <ele>1242.1606445</ele>
        <time>2012-03-03T11:53:48Z</time>
      </trkpt>
      <trkpt lat="43.71895" lon="6.9375">
        <ele>1240.2380371</ele>
        <time>2012-03-03T11:53:59Z</time>
      </trkpt>
      <trkpt lat="43.71896" lon="6.9375">
        <ele>1241.6799316</ele>
        <time>2012-03-03T11:55:51Z</time>
      </trkpt>
      <trkpt lat="43.71914" lon="6.9377">
        <ele>1238.7961426</ele>
        <time>2012-03-03T11:55:59Z</time>
      </trkpt>
      <trkpt lat="43.7192" lon="6.93773">
        <ele>1238.7961426</ele>
        <time>2012-03-03T11:56:01Z</time>
      </trkpt>
      <trkpt lat="43.71942" lon="6.9379">
        <ele>1234.9509277</ele>
        <time>2012-03-03T11:56:08Z</time>
      </trkpt>
      <trkpt lat="43.71945" lon="6.93792">
        <ele>1234.9509277</ele>
        <time>2012-03-03T11:56:09Z</time>
      </trkpt>
      <trkpt lat="43.71951" lon="6.938">
        <ele>1234.4702148</ele>
        <time>2012-03-03T11:56:11Z</time>
      </trkpt>
      <trkpt lat="43.71958" lon="6.93805">
        <ele>1233.0280762</ele>
        <time>2012-03-03T11:56:13Z</time>
      </trkpt>
      <trkpt lat="43.71975" lon="6.93818">
        <ele>1230.625</ele>
        <time>2012-03-03T11:56:18Z</time>
      </trkpt>
      <trkpt lat="43.71982" lon="6.93822">
        <ele>1228.7023926</ele>
        <time>2012-03-03T11:56:20Z</time>
      </trkpt>
      <trkpt lat="43.71986" lon="6.93834">
        <ele>1226.779541</ele>
        <time>2012-03-03T11:56:23Z</time>
      </trkpt>
      <trkpt lat="43.71987" lon="6.93838">
        <ele>1225.8181152</ele>
        <time>2012-03-03T11:56:24Z</time>
      </trkpt>
      <trkpt lat="43.71996" lon="6.93846">
        <ele>1224.3762207</ele>
        <time>2012-03-03T11:56:27Z</time>
      </trkpt>
      <trkpt lat="43.72008" lon="6.93855">
        <ele>1221.9729004</ele>
        <time>2012-03-03T11:56:30Z</time>
      </trkpt>
      <trkpt lat="43.72016" lon="6.9386">
        <ele>1221.0117188</ele>
        <time>2012-03-03T11:56:32Z</time>
      </trkpt>
      <trkpt lat="43.72022" lon="6.93867">
        <ele>1219.5698242</ele>
        <time>2012-03-03T11:56:34Z</time>
      </trkpt>
      <trkpt lat="43.72025" lon="6.93871">
        <ele>1218.6083984</ele>
        <time>2012-03-03T11:56:35Z</time>
      </trkpt>
      <trkpt lat="43.72032" lon="6.93883">
        <ele>1216.2050781</ele>
        <time>2012-03-03T11:56:37Z</time>
      </trkpt>
      <trkpt lat="43.72055" lon="6.93904">
        <ele>1212.3598633</ele>
        <time>2012-03-03T11:56:43Z</time>
      </trkpt>
      <trkpt lat="43.7206" lon="6.93908">
        <ele>1212.3598633</ele>
        <time>2012-03-03T11:56:44Z</time>
      </trkpt>
      <trkpt lat="43.72065" lon="6.93911">
        <ele>1210.9177246</ele>
        <time>2012-03-03T11:56:45Z</time>
      </trkpt>
      <trkpt lat="43.72076" lon="6.93917">
        <ele>1209.9562988</ele>
        <time>2012-03-03T11:56:47Z</time>
      </trkpt>
      <trkpt lat="43.7209" lon="6.93932">
        <ele>1208.0339355</ele>
        <time>2012-03-03T11:56:50Z</time>
      </trkpt>
      <trkpt lat="43.72096" lon="6.93938">
        <ele>1206.111084</ele>
        <time>2012-03-03T11:56:52Z</time>
      </trkpt>
      <trkpt lat="43.72109" lon="6.93948">
        <ele>1204.1887207</ele>
        <time>2012-03-03T11:56:55Z</time>
      </trkpt>
      <trkpt lat="43.72132" lon="6.93968">
        <ele>1200.3435059</ele>
        <time>2012-03-03T11:56:59Z</time>
      </trkpt>
      <trkpt lat="43.72137" lon="6.93973">
        <ele>1200.3435059</ele>
        <time>2012-03-03T11:57:00Z</time>
      </trkpt>
      <trkpt lat="43.72143" lon="6.93979">
        <ele>1199.862793</ele>
        <time>2012-03-03T11:57:01Z</time>
      </trkpt>
      <trkpt lat="43.72161" lon="6.94006">
        <ele>1199.3820801</ele>
        <time>2012-03-03T11:57:07Z</time>
      </trkpt>
      <trkpt lat="43.72165" lon="6.94027">
        <ele>1196.9787598</ele>
        <time>2012-03-03T11:57:11Z</time>
      </trkpt>
      <trkpt lat="43.72165" lon="6.94041">
        <ele>1194.5751953</ele>
        <time>2012-03-03T11:57:14Z</time>
      </trkpt>
      <trkpt lat="43.72167" lon="6.94053">
        <ele>1192.652832</ele>
        <time>2012-03-03T11:57:16Z</time>
      </trkpt>
      <trkpt lat="43.72168" lon="6.94068">
        <ele>1191.2106934</ele>
        <time>2012-03-03T11:57:18Z</time>
      </trkpt>
      <trkpt lat="43.72168" lon="6.94077">
        <ele>1190.2495117</ele>
        <time>2012-03-03T11:57:19Z</time>
      </trkpt>
      <trkpt lat="43.7217" lon="6.94092">
        <ele>1189.2880859</ele>
        <time>2012-03-03T11:57:21Z</time>
      </trkpt>
      <trkpt lat="43.72175" lon="6.94107">
        <ele>1188.3269043</ele>
        <time>2012-03-03T11:57:24Z</time>
      </trkpt>
      <trkpt lat="43.72181" lon="6.94126">
        <ele>1186.4042969</ele>
        <time>2012-03-03T11:57:27Z</time>
      </trkpt>
      <trkpt lat="43.72187" lon="6.94138">
        <ele>1184.4816895</ele>
        <time>2012-03-03T11:57:29Z</time>
      </trkpt>
      <trkpt lat="43.72201" lon="6.94151">
        <ele>1183.5202637</ele>
        <time>2012-03-03T11:57:33Z</time>
      </trkpt>
      <trkpt lat="43.72215" lon="6.94183">
        <ele>1180.6364746</ele>
        <time>2012-03-03T11:57:39Z</time>
      </trkpt>
      <trkpt lat="43.72228" lon="6.94206">
        <ele>1179.1940918</ele>
        <time>2012-03-03T11:57:44Z</time>
      </trkpt>
      <trkpt lat="43.72234" lon="6.9421">
        <ele>1178.713623</ele>
        <time>2012-03-03T11:57:46Z</time>
      </trkpt>
      <trkpt lat="43.72239" lon="6.94223">
        <ele>1177.2717285</ele>
        <time>2012-03-03T11:57:49Z</time>
      </trkpt>
      <trkpt lat="43.72244" lon="6.94233">
        <ele>1175.8295898</ele>
        <time>2012-03-03T11:57:51Z</time>
      </trkpt>
      <trkpt lat="43.7225" lon="6.94246">
        <ele>1173.9069824</ele>
        <time>2012-03-03T11:57:54Z</time>
      </trkpt>
      <trkpt lat="43.72251" lon="6.94258">
        <ele>1173.4265137</ele>
        <time>2012-03-03T11:57:56Z</time>
      </trkpt>
      <trkpt lat="43.72257" lon="6.94269">
        <ele>1171.984375</ele>
        <time>2012-03-03T11:57:58Z</time>
      </trkpt>
      <trkpt lat="43.72281" lon="6.94297">
        <ele>1173.9069824</ele>
        <time>2012-03-03T11:58:07Z</time>
      </trkpt>
      <trkpt lat="43.72283" lon="6.94299">
        <ele>1174.3876953</ele>
        <time>2012-03-03T11:58:08Z</time>
      </trkpt>
      <trkpt lat="43.72289" lon="6.94303">
        <ele>1175.348877</ele>
        <time>2012-03-03T11:58:12Z</time>
      </trkpt>
      <trkpt lat="43.72296" lon="6.94321">
        <ele>1174.3876953</ele>
        <time>2012-03-03T11:58:19Z</time>
      </trkpt>
      <trkpt lat="43.72297" lon="6.94332">
        <ele>1173.9069824</ele>
        <time>2012-03-03T11:58:21Z</time>
      </trkpt>
      <trkpt lat="43.72301" lon="6.94343">
        <ele>1172.9458008</ele>
        <time>2012-03-03T11:58:23Z</time>
      </trkpt>
      <trkpt lat="43.72314" lon="6.94366">
        <ele>1171.984375</ele>
        <time>2012-03-03T11:58:30Z</time>
      </trkpt>
      <trkpt lat="43.72322" lon="6.94409">
        <ele>1170.0617676</ele>
        <time>2012-03-03T11:58:42Z</time>
      </trkpt>
      <trkpt lat="43.72332" lon="6.94421">
        <ele>1167.6584473</ele>
        <time>2012-03-03T11:58:49Z</time>
      </trkpt>
      <trkpt lat="43.72334" lon="6.94461">
        <ele>1165.2553711</ele>
        <time>2012-03-03T11:58:57Z</time>
      </trkpt>
      <trkpt lat="43.72349" lon="6.94472">
        <ele>1162.3710938</ele>
        <time>2012-03-03T11:59:03Z</time>
      </trkpt>
      <trkpt lat="43.72356" lon="6.94479">
        <ele>1161.4099121</ele>
        <time>2012-03-03T11:59:05Z</time>
      </trkpt>
      <trkpt lat="43.72365" lon="6.94487">
        <ele>1159.9677734</ele>
        <time>2012-03-03T11:59:07Z</time>
      </trkpt>
      <trkpt lat="43.72376" lon="6.94496">
        <ele>1157.0839844</ele>
        <time>2012-03-03T11:59:09Z</time>
      </trkpt>
      <trkpt lat="43.7238" lon="6.94498">
        <ele>1155.161377</ele>
        <time>2012-03-03T11:59:10Z</time>
      </trkpt>
      <trkpt lat="43.72388" lon="6.94504">
        <ele>1154.2001953</ele>
        <time>2012-03-03T11:59:12Z</time>
      </trkpt>
      <trkpt lat="43.72393" lon="6.94514">
        <ele>1151.3161621</ele>
        <time>2012-03-03T11:59:14Z</time>
      </trkpt>
      <trkpt lat="43.72402" lon="6.94521">
        <ele>1149.3935547</ele>
        <time>2012-03-03T11:59:16Z</time>
      </trkpt>
      <trkpt lat="43.72408" lon="6.94529">
        <ele>1146.0288086</ele>
        <time>2012-03-03T11:59:18Z</time>
      </trkpt>
      <trkpt lat="43.7241" lon="6.94531">
        <ele>1146.0288086</ele>
        <time>2012-03-03T11:59:19Z</time>
      </trkpt>
      <trkpt lat="43.72417" lon="6.94536">
        <ele>1144.5866699</ele>
        <time>2012-03-03T11:59:21Z</time>
      </trkpt>
      <trkpt lat="43.72425" lon="6.94545">
        <ele>1143.1447754</ele>
        <time>2012-03-03T11:59:23Z</time>
      </trkpt>
      <trkpt lat="43.7244" lon="6.94561">
        <ele>1139.7802734</ele>
        <time>2012-03-03T11:59:26Z</time>
      </trkpt>
      <trkpt lat="43.7245" lon="6.94578">
        <ele>1138.8190918</ele>
        <time>2012-03-03T11:59:32Z</time>
      </trkpt>
      <trkpt lat="43.72451" lon="6.94583">
        <ele>1136.8962402</ele>
        <time>2012-03-03T11:59:36Z</time>
      </trkpt>
      <trkpt lat="43.72451" lon="6.94583">
        <ele>1135.4543457</ele>
        <time>2012-03-03T11:59:48Z</time>
      </trkpt>
      <trkpt lat="43.72459" lon="6.94602">
        <ele>1133.0510254</ele>
        <time>2012-03-03T11:59:53Z</time>
      </trkpt>
      <trkpt lat="43.72461" lon="6.94607">
        <ele>1132.5705566</ele>
        <time>2012-03-03T11:59:55Z</time>
      </trkpt>
      <trkpt lat="43.72467" lon="6.94612">
        <ele>1131.6088867</ele>
        <time>2012-03-03T11:59:58Z</time>
      </trkpt>
      <trkpt lat="43.72475" lon="6.94622">
        <ele>1129.6862793</ele>
        <time>2012-03-03T12:00:02Z</time>
      </trkpt>
      <trkpt lat="43.72491" lon="6.94635">
        <ele>1126.3217773</ele>
        <time>2012-03-03T12:00:09Z</time>
      </trkpt>
      <trkpt lat="43.72495" lon="6.94637">
        <ele>1126.3217773</ele>
        <time>2012-03-03T12:00:10Z</time>
      </trkpt>
      <trkpt lat="43.72496" lon="6.94641">
        <ele>1126.3217773</ele>
        <time>2012-03-03T12:00:12Z</time>
      </trkpt>
      <trkpt lat="43.72507" lon="6.94651">
        <ele>1123.4379883</ele>
        <time>2012-03-03T12:00:16Z</time>
      </trkpt>
      <trkpt lat="43.72515" lon="6.94651">
        <ele>1121.9958496</ele>
        <time>2012-03-03T12:00:19Z</time>
      </trkpt>
      <trkpt lat="43.72522" lon="6.94662">
        <ele>1120.0732422</ele>
        <time>2012-03-03T12:00:23Z</time>
      </trkpt>
      <trkpt lat="43.72528" lon="6.94672">
        <ele>1117.6699219</ele>
        <time>2012-03-03T12:00:26Z</time>
      </trkpt>
      <trkpt lat="43.72532" lon="6.94679">
        <ele>1115.7473145</ele>
        <time>2012-03-03T12:00:28Z</time>
      </trkpt>
      <trkpt lat="43.72538" lon="6.94684">
        <ele>1114.3051758</ele>
        <time>2012-03-03T12:00:30Z</time>
      </trkpt>
      <trkpt lat="43.72543" lon="6.94692">
        <ele>1111.4213867</ele>
        <time>2012-03-03T12:00:32Z</time>
      </trkpt>
      <trkpt lat="43.72547" lon="6.94695">
        <ele>1111.4213867</ele>
        <time>2012-03-03T12:00:33Z</time>
      </trkpt>
      <trkpt lat="43.72558" lon="6.94704">
        <ele>1109.0180664</ele>
        <time>2012-03-03T12:00:42Z</time>
      </trkpt>
      <trkpt lat="43.72557" lon="6.94718">
        <ele>1107.5761719</ele>
        <time>2012-03-03T12:00:47Z</time>
      </trkpt>
      <trkpt lat="43.72557" lon="6.94734">
        <ele>1105.1728516</ele>
        <time>2012-03-03T12:01:01Z</time>
      </trkpt>
      <trkpt lat="43.72557" lon="6.94735">
        <ele>1104.6921387</ele>
        <time>2012-03-03T12:01:04Z</time>
      </trkpt>
      <trkpt lat="43.72569" lon="6.94714">
        <ele>1104.2116699</ele>
        <time>2012-03-03T12:01:08Z</time>
      </trkpt>
      <trkpt lat="43.72582" lon="6.94722">
        <ele>1102.2888184</ele>
        <time>2012-03-03T12:01:10Z</time>
      </trkpt>
      <trkpt lat="43.72584" lon="6.94776">
        <ele>1101.8083496</ele>
        <time>2012-03-03T12:01:12Z</time>
      </trkpt>
      <trkpt lat="43.72584" lon="6.94782">
        <ele>1101.3276367</ele>
        <time>2012-03-03T12:01:14Z</time>
      </trkpt>
      <trkpt lat="43.72583" lon="6.94788">
        <ele>1099.885498</ele>
        <time>2012-03-03T12:01:16Z</time>
      </trkpt>
      <trkpt lat="43.7258" lon="6.94842">
        <ele>1098.9240723</ele>
        <time>2012-03-03T12:01:30Z</time>
      </trkpt>
      <trkpt lat="43.72576" lon="6.94899">
        <ele>1097.4821777</ele>
        <time>2012-03-03T12:01:41Z</time>
      </trkpt>
      <trkpt lat="43.72555" lon="6.94899">
        <ele>1094.5981445</ele>
        <time>2012-03-03T12:01:48Z</time>
      </trkpt>
      <trkpt lat="43.72552" lon="6.94892">
        <ele>1094.5981445</ele>
        <time>2012-03-03T12:01:49Z</time>
      </trkpt>
      <trkpt lat="43.72549" lon="6.94885">
        <ele>1092.1950684</ele>
        <time>2012-03-03T12:01:50Z</time>
      </trkpt>
      <trkpt lat="43.7254" lon="6.94852">
        <ele>1089.3110352</ele>
        <time>2012-03-03T12:01:54Z</time>
      </trkpt>
      <trkpt lat="43.72537" lon="6.94832">
        <ele>1086.9077148</ele>
        <time>2012-03-03T12:01:56Z</time>
      </trkpt>
      <trkpt lat="43.72535" lon="6.94822">
        <ele>1084.9853516</ele>
        <time>2012-03-03T12:01:57Z</time>
      </trkpt>
      <trkpt lat="43.72523" lon="6.94793">
        <ele>1082.1010742</ele>
        <time>2012-03-03T12:02:01Z</time>
      </trkpt>
      <trkpt lat="43.72518" lon="6.9478">
        <ele>1081.1398926</ele>
        <time>2012-03-03T12:02:03Z</time>
      </trkpt>
      <trkpt lat="43.72498" lon="6.94761">
        <ele>1076.8139648</ele>
        <time>2012-03-03T12:02:07Z</time>
      </trkpt>
      <trkpt lat="43.72472" lon="6.94751">
        <ele>1074.4106445</ele>
        <time>2012-03-03T12:02:12Z</time>
      </trkpt>
      <trkpt lat="43.72463" lon="6.94748">
        <ele>1071.5266113</ele>
        <time>2012-03-03T12:02:14Z</time>
      </trkpt>
      <trkpt lat="43.72449" lon="6.94746">
        <ele>1069.1235352</ele>
        <time>2012-03-03T12:02:17Z</time>
      </trkpt>
      <trkpt lat="43.72438" lon="6.94744">
        <ele>1067.6811523</ele>
        <time>2012-03-03T12:02:19Z</time>
      </trkpt>
      <trkpt lat="43.7243" lon="6.94745">
        <ele>1064.7973633</ele>
        <time>2012-03-03T12:02:20Z</time>
      </trkpt>
      <trkpt lat="43.72414" lon="6.94749">
        <ele>1062.8747559</ele>
        <time>2012-03-03T12:02:22Z</time>
      </trkpt>
      <trkpt lat="43.72406" lon="6.94751">
        <ele>1059.5102539</ele>
        <time>2012-03-03T12:02:23Z</time>
      </trkpt>
      <trkpt lat="43.72397" lon="6.94753">
        <ele>1059.5102539</ele>
        <time>2012-03-03T12:02:24Z</time>
      </trkpt>
      <trkpt lat="43.72382" lon="6.94758">
        <ele>1057.1069336</ele>
        <time>2012-03-03T12:02:26Z</time>
      </trkpt>
      <trkpt lat="43.7237" lon="6.94762">
        <ele>1052.7810059</ele>
        <time>2012-03-03T12:02:28Z</time>
      </trkpt>
      <trkpt lat="43.72353" lon="6.94767">
        <ele>1051.3388672</ele>
        <time>2012-03-03T12:02:31Z</time>
      </trkpt>
      <trkpt lat="43.72335" lon="6.9477">
        <ele>1047.9743652</ele>
        <time>2012-03-03T12:02:34Z</time>
      </trkpt>
      <trkpt lat="43.72329" lon="6.94771">
        <ele>1047.9743652</ele>
        <time>2012-03-03T12:02:35Z</time>
      </trkpt>
      <trkpt lat="43.72323" lon="6.94771">
        <ele>1046.0517578</ele>
        <time>2012-03-03T12:02:36Z</time>
      </trkpt>
      <trkpt lat="43.72314" lon="6.94769">
        <ele>1045.090332</ele>
        <time>2012-03-03T12:02:38Z</time>
      </trkpt>
      <trkpt lat="43.72308" lon="6.94766">
        <ele>1043.6484375</ele>
        <time>2012-03-03T12:02:40Z</time>
      </trkpt>
      <trkpt lat="43.72301" lon="6.94763">
        <ele>1042.206543</ele>
        <time>2012-03-03T12:02:42Z</time>
      </trkpt>
      <trkpt lat="43.72296" lon="6.94759">
        <ele>1041.7258301</ele>
        <time>2012-03-03T12:02:43Z</time>
      </trkpt>
      <trkpt lat="43.72285" lon="6.94747">
        <ele>1039.3225098</ele>
        <time>2012-03-03T12:02:45Z</time>
      </trkpt>
      <trkpt lat="43.72268" lon="6.94728">
        <ele>1037.8806152</ele>
        <time>2012-03-03T12:02:48Z</time>
      </trkpt>
      <trkpt lat="43.7222" lon="6.94685">
        <ele>1035.9577637</ele>
        <time>2012-03-03T12:02:57Z</time>
      </trkpt>
      <trkpt lat="43.72163" lon="6.94617">
        <ele>1033.5544434</ele>
        <time>2012-03-03T12:03:08Z</time>
      </trkpt>
      <trkpt lat="43.72129" lon="6.94584">
        <ele>1036.4387207</ele>
        <time>2012-03-03T12:03:18Z</time>
      </trkpt>
      <trkpt lat="43.72129" lon="6.94584">
        <ele>1035.9577637</ele>
        <time>2012-03-03T12:03:21Z</time>
      </trkpt>
      <trkpt lat="43.7215" lon="6.94603">
        <ele>1034.5158691</ele>
        <time>2012-03-03T12:03:34Z</time>
      </trkpt>
      <trkpt lat="43.72146" lon="6.94599">
        <ele>1032.5932617</ele>
        <time>2012-03-03T12:03:42Z</time>
      </trkpt>
      <trkpt lat="43.7214" lon="6.94593">
        <ele>1032.1125488</ele>
        <time>2012-03-03T12:03:46Z</time>
      </trkpt>
      <trkpt lat="43.72128" lon="6.94583">
        <ele>1030.6706543</ele>
        <time>2012-03-03T12:03:50Z</time>
      </trkpt>
      <trkpt lat="43.72119" lon="6.94576">
        <ele>1030.6706543</ele>
        <time>2012-03-03T12:03:53Z</time>
      </trkpt>
      <trkpt lat="43.72103" lon="6.94564">
        <ele>1031.1513672</ele>
        <time>2012-03-03T12:03:58Z</time>
      </trkpt>
      <trkpt lat="43.72095" lon="6.94557">
        <ele>1031.1513672</ele>
        <time>2012-03-03T12:04:02Z</time>
      </trkpt>
      <trkpt lat="43.72071" lon="6.94543">
        <ele>1031.1513672</ele>
        <time>2012-03-03T12:04:10Z</time>
      </trkpt>
      <trkpt lat="43.72066" lon="6.94539">
        <ele>1031.1513672</ele>
        <time>2012-03-03T12:04:13Z</time>
      </trkpt>
      <trkpt lat="43.72059" lon="6.94533">
        <ele>1032.5932617</ele>
        <time>2012-03-03T12:04:21Z</time>
      </trkpt>
      <trkpt lat="43.72016" lon="6.94578">
        <ele>1029.7092285</ele>
        <time>2012-03-03T12:04:35Z</time>
      </trkpt>
      <trkpt lat="43.72012" lon="6.94579">
        <ele>1028.7480469</ele>
        <time>2012-03-03T12:04:37Z</time>
      </trkpt>
      <trkpt lat="43.72005" lon="6.94581">
        <ele>1027.3061523</ele>
        <time>2012-03-03T12:04:41Z</time>
      </trkpt>
      <trkpt lat="43.72003" lon="6.94581">
        <ele>1025.8640137</ele>
        <time>2012-03-03T12:04:42Z</time>
      </trkpt>
      <trkpt lat="43.71997" lon="6.94599">
        <ele>1024.902832</ele>
        <time>2012-03-03T12:04:47Z</time>
      </trkpt>
      <trkpt lat="43.71987" lon="6.94596">
        <ele>1024.902832</ele>
        <time>2012-03-03T12:04:52Z</time>
      </trkpt>
      <trkpt lat="43.71972" lon="6.94582">
        <ele>1021.5380859</ele>
        <time>2012-03-03T12:05:02Z</time>
      </trkpt>
      <trkpt lat="43.71943" lon="6.9456">
        <ele>1018.1733398</ele>
        <time>2012-03-03T12:05:14Z</time>
      </trkpt>
      <trkpt lat="43.71941" lon="6.94558">
        <ele>1018.1733398</ele>
        <time>2012-03-03T12:05:15Z</time>
      </trkpt>
      <trkpt lat="43.71933" lon="6.94554">
        <ele>1017.2121582</ele>
        <time>2012-03-03T12:05:19Z</time>
      </trkpt>
      <trkpt lat="43.71929" lon="6.9455">
        <ele>1017.2121582</ele>
        <time>2012-03-03T12:05:21Z</time>
      </trkpt>
      <trkpt lat="43.71926" lon="6.9455">
        <ele>1017.692627</ele>
        <time>2012-03-03T12:05:27Z</time>
      </trkpt>
      <trkpt lat="43.71913" lon="6.94557">
        <ele>1014.8088379</ele>
        <time>2012-03-03T12:05:31Z</time>
      </trkpt>
      <trkpt lat="43.71899" lon="6.94573">
        <ele>1013.3669434</ele>
        <time>2012-03-03T12:05:36Z</time>
      </trkpt>
      <trkpt lat="43.71887" lon="6.9459">
        <ele>1011.9250488</ele>
        <time>2012-03-03T12:05:40Z</time>
      </trkpt>
      <trkpt lat="43.71895" lon="6.94639">
        <ele>1010.4829102</ele>
        <time>2012-03-03T12:05:46Z</time>
      </trkpt>
      <trkpt lat="43.7186" lon="6.94607">
        <ele>1009.0410156</ele>
        <time>2012-03-03T12:05:52Z</time>
      </trkpt>
      <trkpt lat="43.71874" lon="6.94656">
        <ele>1009.5217285</ele>
        <time>2012-03-03T12:05:56Z</time>
      </trkpt>
      <trkpt lat="43.71869" lon="6.94648">
        <ele>1010.0021973</ele>
        <time>2012-03-03T12:05:59Z</time>
      </trkpt>
      <trkpt lat="43.71853" lon="6.9463">
        <ele>1008.079834</ele>
        <time>2012-03-03T12:06:06Z</time>
      </trkpt>
      <trkpt lat="43.7185" lon="6.94625">
        <ele>1008.5603027</ele>
        <time>2012-03-03T12:06:15Z</time>
      </trkpt>
      <trkpt lat="43.71854" lon="6.94621">
        <ele>1008.5603027</ele>
        <time>2012-03-03T12:06:18Z</time>
      </trkpt>
      <trkpt lat="43.7185" lon="6.94612">
        <ele>1009.0410156</ele>
        <time>2012-03-03T12:06:22Z</time>
      </trkpt>
      <trkpt lat="43.71844" lon="6.94609">
        <ele>1007.5991211</ele>
        <time>2012-03-03T12:06:24Z</time>
      </trkpt>
      <trkpt lat="43.71818" lon="6.9456">
        <ele>1005.6765137</ele>
        <time>2012-03-03T12:06:35Z</time>
      </trkpt>
      <trkpt lat="43.71824" lon="6.94573">
        <ele>1005.6765137</ele>
        <time>2012-03-03T12:06:40Z</time>
      </trkpt>
      <trkpt lat="43.71826" lon="6.94581">
        <ele>1006.1569824</ele>
        <time>2012-03-03T12:06:42Z</time>
      </trkpt>
      <trkpt lat="43.71838" lon="6.94628">
        <ele>1002.7922363</ele>
        <time>2012-03-03T12:06:49Z</time>
      </trkpt>
      <trkpt lat="43.71838" lon="6.94628">
        <ele>1002.7922363</ele>
        <time>2012-03-03T12:06:50Z</time>
      </trkpt>
      <trkpt lat="43.71822" lon="6.94657">
        <ele>1001.3503418</ele>
        <time>2012-03-03T12:06:53Z</time>
      </trkpt>
      <trkpt lat="43.71812" lon="6.94665">
        <ele>999.4277344</ele>
        <time>2012-03-03T12:06:55Z</time>
      </trkpt>
      <trkpt lat="43.71803" lon="6.94673">
        <ele>997.505127</ele>
        <time>2012-03-03T12:06:57Z</time>
      </trkpt>
      <trkpt lat="43.71805" lon="6.94671">
        <ele>996.5439453</ele>
        <time>2012-03-03T12:06:59Z</time>
      </trkpt>
      <trkpt lat="43.71816" lon="6.94683">
        <ele>995.1018066</ele>
        <time>2012-03-03T12:07:02Z</time>
      </trkpt>
      <trkpt lat="43.71782" lon="6.94689">
        <ele>993.6599121</ele>
        <time>2012-03-03T12:07:04Z</time>
      </trkpt>
      <trkpt lat="43.71773" lon="6.94696">
        <ele>992.6987305</ele>
        <time>2012-03-03T12:07:06Z</time>
      </trkpt>
      <trkpt lat="43.71761" lon="6.94705">
        <ele>991.2565918</ele>
        <time>2012-03-03T12:07:10Z</time>
      </trkpt>
      <trkpt lat="43.71772" lon="6.94767">
        <ele>988.8535156</ele>
        <time>2012-03-03T12:07:18Z</time>
      </trkpt>
      <trkpt lat="43.71779" lon="6.94791">
        <ele>987.8918457</ele>
        <time>2012-03-03T12:07:29Z</time>
      </trkpt>
      <trkpt lat="43.71779" lon="6.9479">
        <ele>987.8918457</ele>
        <time>2012-03-03T12:07:49Z</time>
      </trkpt>
      <trkpt lat="43.71775" lon="6.94771">
        <ele>989.3339844</ele>
        <time>2012-03-03T12:07:57Z</time>
      </trkpt>
      <trkpt lat="43.71767" lon="6.94742">
        <ele>991.2565918</ele>
        <time>2012-03-03T12:08:07Z</time>
      </trkpt>
      <trkpt lat="43.71765" lon="6.94728">
        <ele>991.7373047</ele>
        <time>2012-03-03T12:08:12Z</time>
      </trkpt>
      <trkpt lat="43.71762" lon="6.94723">
        <ele>992.2180176</ele>
        <time>2012-03-03T12:08:15Z</time>
      </trkpt>
      <trkpt lat="43.71761" lon="6.94719">
        <ele>992.2180176</ele>
        <time>2012-03-03T12:08:17Z</time>
      </trkpt>
      <trkpt lat="43.71758" lon="6.94715">
        <ele>992.2180176</ele>
        <time>2012-03-03T12:08:20Z</time>
      </trkpt>
      <trkpt lat="43.71741" lon="6.9472">
        <ele>989.3339844</ele>
        <time>2012-03-03T12:08:27Z</time>
      </trkpt>
      <trkpt lat="43.71735" lon="6.94727">
        <ele>988.3728027</ele>
        <time>2012-03-03T12:08:30Z</time>
      </trkpt>
      <trkpt lat="43.7173" lon="6.94741">
        <ele>988.3728027</ele>
        <time>2012-03-03T12:08:35Z</time>
      </trkpt>
      <trkpt lat="43.71729" lon="6.9478">
        <ele>987.8918457</ele>
        <time>2012-03-03T12:08:49Z</time>
      </trkpt>
      <trkpt lat="43.7173" lon="6.94783">
        <ele>987.4111328</ele>
        <time>2012-03-03T12:08:50Z</time>
      </trkpt>
      <trkpt lat="43.7173" lon="6.94791">
        <ele>987.8918457</ele>
        <time>2012-03-03T12:08:53Z</time>
      </trkpt>
      <trkpt lat="43.7173" lon="6.94802">
        <ele>987.4111328</ele>
        <time>2012-03-03T12:08:56Z</time>
      </trkpt>
      <trkpt lat="43.71719" lon="6.94846">
        <ele>986.9304199</ele>
        <time>2012-03-03T12:09:09Z</time>
      </trkpt>
      <trkpt lat="43.71717" lon="6.94849">
        <ele>986.4499512</ele>
        <time>2012-03-03T12:09:10Z</time>
      </trkpt>
      <trkpt lat="43.71714" lon="6.94854">
        <ele>986.4499512</ele>
        <time>2012-03-03T12:09:12Z</time>
      </trkpt>
      <trkpt lat="43.71691" lon="6.94907">
        <ele>985.0080566</ele>
        <time>2012-03-03T12:09:27Z</time>
      </trkpt>
      <trkpt lat="43.71687" lon="6.94931">
        <ele>983.0852051</ele>
        <time>2012-03-03T12:09:34Z</time>
      </trkpt>
      <trkpt lat="43.7167" lon="6.94955">
        <ele>980.6821289</ele>
        <time>2012-03-03T12:09:42Z</time>
      </trkpt>
      <trkpt lat="43.71652" lon="6.94982">
        <ele>980.201416</ele>
        <time>2012-03-03T12:09:54Z</time>
      </trkpt>
      <trkpt lat="43.71652" lon="6.94986">
        <ele>979.7207031</ele>
        <time>2012-03-03T12:09:56Z</time>
      </trkpt>
      <trkpt lat="43.71647" lon="6.94999">
        <ele>981.1628418</ele>
        <time>2012-03-03T12:10:02Z</time>
      </trkpt>
      <trkpt lat="43.71653" lon="6.95016">
        <ele>981.1628418</ele>
        <time>2012-03-03T12:10:18Z</time>
      </trkpt>
      <trkpt lat="43.71655" lon="6.95023">
        <ele>981.6433105</ele>
        <time>2012-03-03T12:10:24Z</time>
      </trkpt>
      <trkpt lat="43.71654" lon="6.95044">
        <ele>982.1240234</ele>
        <time>2012-03-03T12:10:41Z</time>
      </trkpt>
      <trkpt lat="43.7165" lon="6.95056">
        <ele>982.6047363</ele>
        <time>2012-03-03T12:10:45Z</time>
      </trkpt>
      <trkpt lat="43.71634" lon="6.95091">
        <ele>982.6047363</ele>
        <time>2012-03-03T12:10:58Z</time>
      </trkpt>
      <trkpt lat="43.71631" lon="6.951">
        <ele>982.1240234</ele>
        <time>2012-03-03T12:11:02Z</time>
      </trkpt>
      <trkpt lat="43.71627" lon="6.95113">
        <ele>981.1628418</ele>
        <time>2012-03-03T12:11:08Z</time>
      </trkpt>
      <trkpt lat="43.71596" lon="6.95147">
        <ele>979.7207031</ele>
        <time>2012-03-03T12:11:25Z</time>
      </trkpt>
      <trkpt lat="43.71575" lon="6.95171">
        <ele>980.6821289</ele>
        <time>2012-03-03T12:11:37Z</time>
      </trkpt>
      <trkpt lat="43.71571" lon="6.95173">
        <ele>980.201416</ele>
        <time>2012-03-03T12:11:40Z</time>
      </trkpt>
      <trkpt lat="43.7155" lon="6.95189">
        <ele>976.3562012</ele>
        <time>2012-03-03T12:11:50Z</time>
      </trkpt>
      <trkpt lat="43.71547" lon="6.9519">
        <ele>976.3562012</ele>
        <time>2012-03-03T12:11:51Z</time>
      </trkpt>
      <trkpt lat="43.71517" lon="6.9519">
        <ele>972.9916992</ele>
        <time>2012-03-03T12:12:01Z</time>
      </trkpt>
      <trkpt lat="43.71485" lon="6.95182">
        <ele>969.1462402</ele>
        <time>2012-03-03T12:12:13Z</time>
      </trkpt>
      <trkpt lat="43.71471" lon="6.95178">
        <ele>965.7817383</ele>
        <time>2012-03-03T12:12:18Z</time>
      </trkpt>
      <trkpt lat="43.71468" lon="6.95177">
        <ele>965.7817383</ele>
        <time>2012-03-03T12:12:19Z</time>
      </trkpt>
      <trkpt lat="43.71454" lon="6.95175">
        <ele>964.3395996</ele>
        <time>2012-03-03T12:12:24Z</time>
      </trkpt>
      <trkpt lat="43.71428" lon="6.95178">
        <ele>961.4558105</ele>
        <time>2012-03-03T12:12:35Z</time>
      </trkpt>
      <trkpt lat="43.71422" lon="6.95177">
        <ele>960.0136719</ele>
        <time>2012-03-03T12:12:38Z</time>
      </trkpt>
      <trkpt lat="43.71404" lon="6.95188">
        <ele>956.168457</ele>
        <time>2012-03-03T12:12:46Z</time>
      </trkpt>
      <trkpt lat="43.71401" lon="6.95189">
        <ele>956.168457</ele>
        <time>2012-03-03T12:12:47Z</time>
      </trkpt>
      <trkpt lat="43.71376" lon="6.95202">
        <ele>952.8037109</ele>
        <time>2012-03-03T12:12:57Z</time>
      </trkpt>
      <trkpt lat="43.71367" lon="6.9521">
        <ele>950.4006348</ele>
        <time>2012-03-03T12:13:02Z</time>
      </trkpt>
      <trkpt lat="43.71344" lon="6.95228">
        <ele>946.074707</ele>
        <time>2012-03-03T12:13:13Z</time>
      </trkpt>
      <trkpt lat="43.71341" lon="6.95234">
        <ele>944.6325684</ele>
        <time>2012-03-03T12:13:15Z</time>
      </trkpt>
      <trkpt lat="43.71321" lon="6.95245">
        <ele>941.7487793</ele>
        <time>2012-03-03T12:13:22Z</time>
      </trkpt>
      <trkpt lat="43.71316" lon="6.95248">
        <ele>940.3068848</ele>
        <time>2012-03-03T12:13:24Z</time>
      </trkpt>
      <trkpt lat="43.71301" lon="6.95258">
        <ele>937.9033203</ele>
        <time>2012-03-03T12:13:30Z</time>
      </trkpt>
      <trkpt lat="43.71287" lon="6.95271">
        <ele>935.5</ele>
        <time>2012-03-03T12:13:36Z</time>
      </trkpt>
      <trkpt lat="43.71282" lon="6.95274">
        <ele>935.0195313</ele>
        <time>2012-03-03T12:13:38Z</time>
      </trkpt>
      <trkpt lat="43.71265" lon="6.95289">
        <ele>932.135498</ele>
        <time>2012-03-03T12:13:45Z</time>
      </trkpt>
      <trkpt lat="43.71261" lon="6.95292">
        <ele>931.6547852</ele>
        <time>2012-03-03T12:13:47Z</time>
      </trkpt>
      <trkpt lat="43.71254" lon="6.95294">
        <ele>930.2128906</ele>
        <time>2012-03-03T12:13:50Z</time>
      </trkpt>
      <trkpt lat="43.71246" lon="6.95304">
        <ele>928.7709961</ele>
        <time>2012-03-03T12:13:55Z</time>
      </trkpt>
      <trkpt lat="43.71225" lon="6.95303">
        <ele>926.8483887</ele>
        <time>2012-03-03T12:14:02Z</time>
      </trkpt>
      <trkpt lat="43.71217" lon="6.9531">
        <ele>925.40625</ele>
        <time>2012-03-03T12:14:06Z</time>
      </trkpt>
      <trkpt lat="43.71185" lon="6.95324">
        <ele>922.5222168</ele>
        <time>2012-03-03T12:14:22Z</time>
      </trkpt>
      <trkpt lat="43.71173" lon="6.95334">
        <ele>922.0415039</ele>
        <time>2012-03-03T12:14:58Z</time>
      </trkpt>
      <trkpt lat="43.71169" lon="6.95335">
        <ele>921.0803223</ele>
        <time>2012-03-03T12:15:00Z</time>
      </trkpt>
      <trkpt lat="43.71155" lon="6.95346">
        <ele>919.1577148</ele>
        <time>2012-03-03T12:15:06Z</time>
      </trkpt>
      <trkpt lat="43.71148" lon="6.95349">
        <ele>917.2351074</ele>
        <time>2012-03-03T12:15:08Z</time>
      </trkpt>
      <trkpt lat="43.71135" lon="6.95356">
        <ele>914.8317871</ele>
        <time>2012-03-03T12:15:13Z</time>
      </trkpt>
      <trkpt lat="43.71128" lon="6.95365">
        <ele>912.4284668</ele>
        <time>2012-03-03T12:15:17Z</time>
      </trkpt>
      <trkpt lat="43.71125" lon="6.95372">
        <ele>910.5058594</ele>
        <time>2012-03-03T12:15:20Z</time>
      </trkpt>
      <trkpt lat="43.71115" lon="6.95383">
        <ele>907.1411133</ele>
        <time>2012-03-03T12:15:25Z</time>
      </trkpt>
      <trkpt lat="43.71111" lon="6.95386">
        <ele>906.1796875</ele>
        <time>2012-03-03T12:15:27Z</time>
      </trkpt>
      <trkpt lat="43.71106" lon="6.95388">
        <ele>904.737793</ele>
        <time>2012-03-03T12:15:29Z</time>
      </trkpt>
      <trkpt lat="43.71102" lon="6.95388">
        <ele>903.2958984</ele>
        <time>2012-03-03T12:15:31Z</time>
      </trkpt>
      <trkpt lat="43.71092" lon="6.95392">
        <ele>900.8925781</ele>
        <time>2012-03-03T12:15:36Z</time>
      </trkpt>
      <trkpt lat="43.7109" lon="6.95395">
        <ele>899.4506836</ele>
        <time>2012-03-03T12:15:38Z</time>
      </trkpt>
      <trkpt lat="43.71081" lon="6.954">
        <ele>896.0861816</ele>
        <time>2012-03-03T12:15:42Z</time>
      </trkpt>
      <trkpt lat="43.71079" lon="6.95399">
        <ele>896.0861816</ele>
        <time>2012-03-03T12:15:43Z</time>
      </trkpt>
      <trkpt lat="43.7106" lon="6.95391">
        <ele>893.2021484</ele>
        <time>2012-03-03T12:15:50Z</time>
      </trkpt>
      <trkpt lat="43.71044" lon="6.95394">
        <ele>890.798584</ele>
        <time>2012-03-03T12:15:58Z</time>
      </trkpt>
      <trkpt lat="43.71038" lon="6.95398">
        <ele>889.8374023</ele>
        <time>2012-03-03T12:16:02Z</time>
      </trkpt>
      <trkpt lat="43.71019" lon="6.95409">
        <ele>885.5114746</ele>
        <time>2012-03-03T12:16:10Z</time>
      </trkpt>
      <trkpt lat="43.71017" lon="6.95409">
        <ele>885.5114746</ele>
        <time>2012-03-03T12:16:11Z</time>
      </trkpt>
      <trkpt lat="43.71004" lon="6.95416">
        <ele>884.0695801</ele>
        <time>2012-03-03T12:16:17Z</time>
      </trkpt>
      <trkpt lat="43.70984" lon="6.95425">
        <ele>880.7050781</ele>
        <time>2012-03-03T12:16:26Z</time>
      </trkpt>
      <trkpt lat="43.70982" lon="6.95427">
        <ele>880.7050781</ele>
        <time>2012-03-03T12:16:27Z</time>
      </trkpt>
      <trkpt lat="43.70976" lon="6.95431">
        <ele>878.7824707</ele>
        <time>2012-03-03T12:16:39Z</time>
      </trkpt>
      <trkpt lat="43.70972" lon="6.95433">
        <ele>878.3017578</ele>
        <time>2012-03-03T12:17:35Z</time>
      </trkpt>
      <trkpt lat="43.70965" lon="6.95438">
        <ele>876.3791504</ele>
        <time>2012-03-03T12:17:40Z</time>
      </trkpt>
      <trkpt lat="43.7096" lon="6.95446">
        <ele>874.4562988</ele>
        <time>2012-03-03T12:17:44Z</time>
      </trkpt>
      <trkpt lat="43.70954" lon="6.95448">
        <ele>873.0144043</ele>
        <time>2012-03-03T12:17:47Z</time>
      </trkpt>
      <trkpt lat="43.70932" lon="6.95462">
        <ele>869.1691895</ele>
        <time>2012-03-03T12:17:58Z</time>
      </trkpt>
      <trkpt lat="43.70928" lon="6.95468">
        <ele>867.7270508</ele>
        <time>2012-03-03T12:18:01Z</time>
      </trkpt>
      <trkpt lat="43.70919" lon="6.95475">
        <ele>866.7658691</ele>
        <time>2012-03-03T12:18:05Z</time>
      </trkpt>
      <trkpt lat="43.70909" lon="6.95475">
        <ele>865.8046875</ele>
        <time>2012-03-03T12:18:09Z</time>
      </trkpt>
      <trkpt lat="43.70903" lon="6.9548">
        <ele>864.3625488</ele>
        <time>2012-03-03T12:18:13Z</time>
      </trkpt>
      <trkpt lat="43.70891" lon="6.95507">
        <ele>860.517334</ele>
        <time>2012-03-03T12:18:27Z</time>
      </trkpt>
      <trkpt lat="43.70888" lon="6.95512">
        <ele>860.517334</ele>
        <time>2012-03-03T12:18:29Z</time>
      </trkpt>
      <trkpt lat="43.70881" lon="6.95518">
        <ele>858.1140137</ele>
        <time>2012-03-03T12:18:32Z</time>
      </trkpt>
      <trkpt lat="43.7087" lon="6.95513">
        <ele>855.2299805</ele>
        <time>2012-03-03T12:18:37Z</time>
      </trkpt>
      <trkpt lat="43.70866" lon="6.95512">
        <ele>854.7492676</ele>
        <time>2012-03-03T12:18:39Z</time>
      </trkpt>
      <trkpt lat="43.70859" lon="6.95515">
        <ele>851.8654785</ele>
        <time>2012-03-03T12:18:45Z</time>
      </trkpt>
      <trkpt lat="43.7086" lon="6.95521">
        <ele>850.9040527</ele>
        <time>2012-03-03T12:18:47Z</time>
      </trkpt>
      <trkpt lat="43.70853" lon="6.95535">
        <ele>848.9814453</ele>
        <time>2012-03-03T12:18:51Z</time>
      </trkpt>
      <trkpt lat="43.70845" lon="6.95538">
        <ele>848.9814453</ele>
        <time>2012-03-03T12:18:53Z</time>
      </trkpt>
      <trkpt lat="43.70836" lon="6.95566">
        <ele>846.0976563</ele>
        <time>2012-03-03T12:18:57Z</time>
      </trkpt>
      <trkpt lat="43.70832" lon="6.95582">
        <ele>842.7329102</ele>
        <time>2012-03-03T12:18:59Z</time>
      </trkpt>
      <trkpt lat="43.70829" lon="6.95629">
        <ele>840.3295898</ele>
        <time>2012-03-03T12:19:04Z</time>
      </trkpt>
      <trkpt lat="43.70829" lon="6.9565">
        <ele>838.8876953</ele>
        <time>2012-03-03T12:19:06Z</time>
      </trkpt>
      <trkpt lat="43.70829" lon="6.95661">
        <ele>837.9262695</ele>
        <time>2012-03-03T12:19:07Z</time>
      </trkpt>
      <trkpt lat="43.70827" lon="6.9568">
        <ele>836.484375</ele>
        <time>2012-03-03T12:19:09Z</time>
      </trkpt>
      <trkpt lat="43.70834" lon="6.95718">
        <ele>833.1196289</ele>
        <time>2012-03-03T12:19:16Z</time>
      </trkpt>
      <trkpt lat="43.70841" lon="6.95727">
        <ele>831.6777344</ele>
        <time>2012-03-03T12:19:18Z</time>
      </trkpt>
      <trkpt lat="43.70845" lon="6.95735">
        <ele>829.755127</ele>
        <time>2012-03-03T12:19:20Z</time>
      </trkpt>
      <trkpt lat="43.70847" lon="6.95745">
        <ele>826.8710938</ele>
        <time>2012-03-03T12:19:23Z</time>
      </trkpt>
      <trkpt lat="43.70838" lon="6.95757">
        <ele>823.9870605</ele>
        <time>2012-03-03T12:19:27Z</time>
      </trkpt>
      <trkpt lat="43.70827" lon="6.95767">
        <ele>819.661377</ele>
        <time>2012-03-03T12:19:30Z</time>
      </trkpt>
      <trkpt lat="43.70812" lon="6.95797">
        <ele>817.7385254</ele>
        <time>2012-03-03T12:19:34Z</time>
      </trkpt>
      <trkpt lat="43.7081" lon="6.95805">
        <ele>817.2580566</ele>
        <time>2012-03-03T12:19:35Z</time>
      </trkpt>
      <trkpt lat="43.70802" lon="6.95817">
        <ele>816.2966309</ele>
        <time>2012-03-03T12:19:37Z</time>
      </trkpt>
      <trkpt lat="43.70796" lon="6.95825">
        <ele>815.8161621</ele>
        <time>2012-03-03T12:19:45Z</time>
      </trkpt>
      <trkpt lat="43.70793" lon="6.95834">
        <ele>814.8547363</ele>
        <time>2012-03-03T12:19:51Z</time>
      </trkpt>
      <trkpt lat="43.70793" lon="6.95836">
        <ele>814.8547363</ele>
        <time>2012-03-03T12:19:55Z</time>
      </trkpt>
      <trkpt lat="43.70777" lon="6.95823">
        <ele>812.451416</ele>
        <time>2012-03-03T12:20:02Z</time>
      </trkpt>
      <trkpt lat="43.70765" lon="6.95816">
        <ele>809.0866699</ele>
        <time>2012-03-03T12:20:06Z</time>
      </trkpt>
      <trkpt lat="43.70722" lon="6.95814">
        <ele>808.605957</ele>
        <time>2012-03-03T12:20:08Z</time>
      </trkpt>
      <trkpt lat="43.70683" lon="6.95873">
        <ele>807.1640625</ele>
        <time>2012-03-03T12:20:12Z</time>
      </trkpt>
      <trkpt lat="43.70695" lon="6.95905">
        <ele>804.7607422</ele>
        <time>2012-03-03T12:20:22Z</time>
      </trkpt>
      <trkpt lat="43.70691" lon="6.9591">
        <ele>803.7995605</ele>
        <time>2012-03-03T12:20:24Z</time>
      </trkpt>
      <trkpt lat="43.70685" lon="6.95916">
        <ele>801.8769531</ele>
        <time>2012-03-03T12:20:28Z</time>
      </trkpt>
      <trkpt lat="43.70679" lon="6.95921">
        <ele>800.9155273</ele>
        <time>2012-03-03T12:20:30Z</time>
      </trkpt>
      <trkpt lat="43.70677" lon="6.95924">
        <ele>799.9543457</ele>
        <time>2012-03-03T12:20:31Z</time>
      </trkpt>
      <trkpt lat="43.70654" lon="6.95911">
        <ele>798.512207</ele>
        <time>2012-03-03T12:20:34Z</time>
      </trkpt>
      <trkpt lat="43.70637" lon="6.95926">
        <ele>797.0703125</ele>
        <time>2012-03-03T12:20:39Z</time>
      </trkpt>
      <trkpt lat="43.70621" lon="6.9594">
        <ele>795.6281738</ele>
        <time>2012-03-03T12:20:44Z</time>
      </trkpt>
      <trkpt lat="43.70619" lon="6.95942">
        <ele>795.6281738</ele>
        <time>2012-03-03T12:20:57Z</time>
      </trkpt>
      <trkpt lat="43.70619" lon="6.95942">
        <ele>795.6281738</ele>
        <time>2012-03-03T12:21:25Z</time>
      </trkpt>
      <trkpt lat="43.70628" lon="6.95956">
        <ele>795.6281738</ele>
        <time>2012-03-03T12:21:38Z</time>
      </trkpt>
      <trkpt lat="43.70628" lon="6.95956">
        <ele>795.6281738</ele>
        <time>2012-03-03T12:21:41Z</time>
      </trkpt>
      <trkpt lat="43.70642" lon="6.95997">
        <ele>795.1474609</ele>
        <time>2012-03-03T12:21:53Z</time>
      </trkpt>
      <trkpt lat="43.70651" lon="6.96044">
        <ele>794.666748</ele>
        <time>2012-03-03T12:22:02Z</time>
      </trkpt>
      <trkpt lat="43.70664" lon="6.96091">
        <ele>794.666748</ele>
        <time>2012-03-03T12:22:10Z</time>
      </trkpt>
      <trkpt lat="43.70676" lon="6.96105">
        <ele>793.7055664</ele>
        <time>2012-03-03T12:22:14Z</time>
      </trkpt>
      <trkpt lat="43.70687" lon="6.96134">
        <ele>794.666748</ele>
        <time>2012-03-03T12:22:21Z</time>
      </trkpt>
      <trkpt lat="43.70698" lon="6.96156">
        <ele>794.1862793</ele>
        <time>2012-03-03T12:22:26Z</time>
      </trkpt>
      <trkpt lat="43.70702" lon="6.96172">
        <ele>793.7055664</ele>
        <time>2012-03-03T12:22:29Z</time>
      </trkpt>
      <trkpt lat="43.70709" lon="6.96182">
        <ele>793.2248535</ele>
        <time>2012-03-03T12:22:32Z</time>
      </trkpt>
      <trkpt lat="43.70706" lon="6.96215">
        <ele>791.3022461</ele>
        <time>2012-03-03T12:22:38Z</time>
      </trkpt>
      <trkpt lat="43.70717" lon="6.96255">
        <ele>790.3410645</ele>
        <time>2012-03-03T12:22:45Z</time>
      </trkpt>
      <trkpt lat="43.70726" lon="6.96274">
        <ele>789.3796387</ele>
        <time>2012-03-03T12:22:49Z</time>
      </trkpt>
      <trkpt lat="43.70733" lon="6.96313">
        <ele>788.418457</ele>
        <time>2012-03-03T12:22:57Z</time>
      </trkpt>
      <trkpt lat="43.70731" lon="6.96332">
        <ele>786.9763184</ele>
        <time>2012-03-03T12:23:00Z</time>
      </trkpt>
      <trkpt lat="43.70725" lon="6.96345">
        <ele>785.5344238</ele>
        <time>2012-03-03T12:23:02Z</time>
      </trkpt>
      <trkpt lat="43.70718" lon="6.96356">
        <ele>784.5732422</ele>
        <time>2012-03-03T12:23:04Z</time>
      </trkpt>
      <trkpt lat="43.70709" lon="6.96395">
        <ele>783.6118164</ele>
        <time>2012-03-03T12:23:09Z</time>
      </trkpt>
      <trkpt lat="43.70706" lon="6.96414">
        <ele>783.1311035</ele>
        <time>2012-03-03T12:23:12Z</time>
      </trkpt>
      <trkpt lat="43.70712" lon="6.96423">
        <ele>783.1311035</ele>
        <time>2012-03-03T12:23:14Z</time>
      </trkpt>
      <trkpt lat="43.70714" lon="6.96443">
        <ele>781.2087402</ele>
        <time>2012-03-03T12:23:17Z</time>
      </trkpt>
      <trkpt lat="43.70711" lon="6.96458">
        <ele>780.2473145</ele>
        <time>2012-03-03T12:23:19Z</time>
      </trkpt>
      <trkpt lat="43.7073" lon="6.96493">
        <ele>777.84375</ele>
        <time>2012-03-03T12:23:26Z</time>
      </trkpt>
      <trkpt lat="43.70732" lon="6.96499">
        <ele>777.3632813</ele>
        <time>2012-03-03T12:23:27Z</time>
      </trkpt>
      <trkpt lat="43.70749" lon="6.9653">
        <ele>776.4018555</ele>
        <time>2012-03-03T12:23:33Z</time>
      </trkpt>
      <trkpt lat="43.70746" lon="6.96542">
        <ele>776.4018555</ele>
        <time>2012-03-03T12:23:35Z</time>
      </trkpt>
      <trkpt lat="43.70749" lon="6.96569">
        <ele>776.8825684</ele>
        <time>2012-03-03T12:23:39Z</time>
      </trkpt>
      <trkpt lat="43.70752" lon="6.96582">
        <ele>776.8825684</ele>
        <time>2012-03-03T12:23:41Z</time>
      </trkpt>
      <trkpt lat="43.70754" lon="6.96604">
        <ele>776.8825684</ele>
        <time>2012-03-03T12:23:45Z</time>
      </trkpt>
      <trkpt lat="43.70768" lon="6.96631">
        <ele>775.4404297</ele>
        <time>2012-03-03T12:23:51Z</time>
      </trkpt>
      <trkpt lat="43.70777" lon="6.96654">
        <ele>773.0373535</ele>
        <time>2012-03-03T12:23:55Z</time>
      </trkpt>
      <trkpt lat="43.70789" lon="6.96663">
        <ele>772.0759277</ele>
        <time>2012-03-03T12:23:58Z</time>
      </trkpt>
      <trkpt lat="43.70798" lon="6.96676">
        <ele>768.7114258</ele>
        <time>2012-03-03T12:24:01Z</time>
      </trkpt>
      <trkpt lat="43.70801" lon="6.9668">
        <ele>767.2695313</ele>
        <time>2012-03-03T12:24:02Z</time>
      </trkpt>
      <trkpt lat="43.70804" lon="6.96699">
        <ele>765.8276367</ele>
        <time>2012-03-03T12:24:05Z</time>
      </trkpt>
      <trkpt lat="43.70805" lon="6.96708">
        <ele>765.3469238</ele>
        <time>2012-03-03T12:24:07Z</time>
      </trkpt>
      <trkpt lat="43.70811" lon="6.96721">
        <ele>762.9433594</ele>
        <time>2012-03-03T12:24:10Z</time>
      </trkpt>
      <trkpt lat="43.70814" lon="6.9673">
        <ele>761.020752</ele>
        <time>2012-03-03T12:24:12Z</time>
      </trkpt>
      <trkpt lat="43.70823" lon="6.96742">
        <ele>757.1755371</ele>
        <time>2012-03-03T12:24:16Z</time>
      </trkpt>
      <trkpt lat="43.70825" lon="6.96745">
        <ele>757.1755371</ele>
        <time>2012-03-03T12:24:17Z</time>
      </trkpt>
      <trkpt lat="43.70829" lon="6.96751">
        <ele>755.7336426</ele>
        <time>2012-03-03T12:24:19Z</time>
      </trkpt>
      <trkpt lat="43.7084" lon="6.96762">
        <ele>751.4077148</ele>
        <time>2012-03-03T12:24:23Z</time>
      </trkpt>
      <trkpt lat="43.70842" lon="6.96765">
        <ele>751.4077148</ele>
        <time>2012-03-03T12:24:24Z</time>
      </trkpt>
      <trkpt lat="43.70856" lon="6.96775">
        <ele>747.081543</ele>
        <time>2012-03-03T12:24:29Z</time>
      </trkpt>
      <trkpt lat="43.70863" lon="6.96779">
        <ele>745.6396484</ele>
        <time>2012-03-03T12:24:31Z</time>
      </trkpt>
      <trkpt lat="43.7087" lon="6.96783">
        <ele>744.1977539</ele>
        <time>2012-03-03T12:24:33Z</time>
      </trkpt>
      <trkpt lat="43.70876" lon="6.96782">
        <ele>742.7558594</ele>
        <time>2012-03-03T12:24:35Z</time>
      </trkpt>
      <trkpt lat="43.70888" lon="6.96779">
        <ele>739.8718262</ele>
        <time>2012-03-03T12:24:38Z</time>
      </trkpt>
      <trkpt lat="43.70891" lon="6.96778">
        <ele>738.9106445</ele>
        <time>2012-03-03T12:24:39Z</time>
      </trkpt>
      <trkpt lat="43.709" lon="6.96791">
        <ele>736.5073242</ele>
        <time>2012-03-03T12:24:43Z</time>
      </trkpt>
      <trkpt lat="43.70904" lon="6.968">
        <ele>735.0654297</ele>
        <time>2012-03-03T12:24:45Z</time>
      </trkpt>
      <trkpt lat="43.70911" lon="6.96826">
        <ele>730.7392578</ele>
        <time>2012-03-03T12:24:52Z</time>
      </trkpt>
      <trkpt lat="43.70915" lon="6.96833">
        <ele>729.2971191</ele>
        <time>2012-03-03T12:24:54Z</time>
      </trkpt>
      <trkpt lat="43.70919" lon="6.96839">
        <ele>728.8166504</ele>
        <time>2012-03-03T12:24:56Z</time>
      </trkpt>
      <trkpt lat="43.7094" lon="6.96851">
        <ele>727.3747559</ele>
        <time>2012-03-03T12:24:58Z</time>
      </trkpt>
      <trkpt lat="43.70938" lon="6.96864">
        <ele>725.4519043</ele>
        <time>2012-03-03T12:25:00Z</time>
      </trkpt>
      <trkpt lat="43.70935" lon="6.96885">
        <ele>724.0100098</ele>
        <time>2012-03-03T12:25:03Z</time>
      </trkpt>
      <trkpt lat="43.70931" lon="6.96906">
        <ele>721.6066895</ele>
        <time>2012-03-03T12:25:07Z</time>
      </trkpt>
      <trkpt lat="43.7093" lon="6.96909">
        <ele>720.6455078</ele>
        <time>2012-03-03T12:25:20Z</time>
      </trkpt>
      <trkpt lat="43.70929" lon="6.96916">
        <ele>719.6843262</ele>
        <time>2012-03-03T12:25:29Z</time>
      </trkpt>
      <trkpt lat="43.7093" lon="6.96947">
        <ele>715.8388672</ele>
        <time>2012-03-03T12:25:37Z</time>
      </trkpt>
      <trkpt lat="43.70929" lon="6.96951">
        <ele>715.8388672</ele>
        <time>2012-03-03T12:25:38Z</time>
      </trkpt>
      <trkpt lat="43.70929" lon="6.96955">
        <ele>715.8388672</ele>
        <time>2012-03-03T12:25:39Z</time>
      </trkpt>
      <trkpt lat="43.70926" lon="6.96972">
        <ele>713.9160156</ele>
        <time>2012-03-03T12:25:44Z</time>
      </trkpt>
      <trkpt lat="43.70921" lon="6.96999">
        <ele>711.5129395</ele>
        <time>2012-03-03T12:25:51Z</time>
      </trkpt>
      <trkpt lat="43.70903" lon="6.97039">
        <ele>708.6289063</ele>
        <time>2012-03-03T12:26:04Z</time>
      </trkpt>
      <trkpt lat="43.70889" lon="6.97069">
        <ele>705.2644043</ele>
        <time>2012-03-03T12:26:13Z</time>
      </trkpt>
      <trkpt lat="43.70889" lon="6.97069">
        <ele>705.2644043</ele>
        <time>2012-03-03T12:26:27Z</time>
      </trkpt>
      <trkpt lat="43.70896" lon="6.97085">
        <ele>703.8225098</ele>
        <time>2012-03-03T12:26:32Z</time>
      </trkpt>
      <trkpt lat="43.70893" lon="6.97098">
        <ele>701.8999023</ele>
        <time>2012-03-03T12:26:38Z</time>
      </trkpt>
      <trkpt lat="43.70888" lon="6.97112">
        <ele>699.9770508</ele>
        <time>2012-03-03T12:26:42Z</time>
      </trkpt>
      <trkpt lat="43.70902" lon="6.97129">
        <ele>699.015625</ele>
        <time>2012-03-03T12:26:47Z</time>
      </trkpt>
      <trkpt lat="43.70897" lon="6.97145">
        <ele>696.6125488</ele>
        <time>2012-03-03T12:26:51Z</time>
      </trkpt>
      <trkpt lat="43.7089" lon="6.97166">
        <ele>695.1704102</ele>
        <time>2012-03-03T12:26:54Z</time>
      </trkpt>
      <trkpt lat="43.70885" lon="6.97181">
        <ele>693.7285156</ele>
        <time>2012-03-03T12:26:56Z</time>
      </trkpt>
      <trkpt lat="43.70882" lon="6.97189">
        <ele>692.767334</ele>
        <time>2012-03-03T12:26:57Z</time>
      </trkpt>
      <trkpt lat="43.70875" lon="6.97203">
        <ele>691.8059082</ele>
        <time>2012-03-03T12:26:59Z</time>
      </trkpt>
      <trkpt lat="43.70849" lon="6.97234">
        <ele>688.9221191</ele>
        <time>2012-03-03T12:27:04Z</time>
      </trkpt>
      <trkpt lat="43.70839" lon="6.97244">
        <ele>687.4799805</ele>
        <time>2012-03-03T12:27:06Z</time>
      </trkpt>
      <trkpt lat="43.70829" lon="6.97256">
        <ele>686.0380859</ele>
        <time>2012-03-03T12:27:08Z</time>
      </trkpt>
      <trkpt lat="43.70825" lon="6.97263">
        <ele>684.5961914</ele>
        <time>2012-03-03T12:27:09Z</time>
      </trkpt>
      <trkpt lat="43.70811" lon="6.97289">
        <ele>681.7119141</ele>
        <time>2012-03-03T12:27:12Z</time>
      </trkpt>
      <trkpt lat="43.70808" lon="6.97299">
        <ele>681.7119141</ele>
        <time>2012-03-03T12:27:13Z</time>
      </trkpt>
      <trkpt lat="43.70802" lon="6.97315">
        <ele>679.7893066</ele>
        <time>2012-03-03T12:27:15Z</time>
      </trkpt>
      <trkpt lat="43.70798" lon="6.97331">
        <ele>678.3474121</ele>
        <time>2012-03-03T12:27:17Z</time>
      </trkpt>
      <trkpt lat="43.70794" lon="6.97357">
        <ele>676.4248047</ele>
        <time>2012-03-03T12:27:20Z</time>
      </trkpt>
      <trkpt lat="43.70791" lon="6.9737">
        <ele>675.4633789</ele>
        <time>2012-03-03T12:27:22Z</time>
      </trkpt>
      <trkpt lat="43.70779" lon="6.97367">
        <ele>673.5410156</ele>
        <time>2012-03-03T12:27:27Z</time>
      </trkpt>
      <trkpt lat="43.70778" lon="6.97362">
        <ele>672.5795898</ele>
        <time>2012-03-03T12:27:28Z</time>
      </trkpt>
      <trkpt lat="43.70775" lon="6.97349">
        <ele>672.098877</ele>
        <time>2012-03-03T12:27:31Z</time>
      </trkpt>
      <trkpt lat="43.70763" lon="6.97359">
        <ele>670.6569824</ele>
        <time>2012-03-03T12:27:36Z</time>
      </trkpt>
      <trkpt lat="43.70765" lon="6.97379">
        <ele>671.1376953</ele>
        <time>2012-03-03T12:27:39Z</time>
      </trkpt>
      <trkpt lat="43.70769" lon="6.97433">
        <ele>672.098877</ele>
        <time>2012-03-03T12:27:47Z</time>
      </trkpt>
      <trkpt lat="43.70762" lon="6.97448">
        <ele>671.1376953</ele>
        <time>2012-03-03T12:27:50Z</time>
      </trkpt>
      <trkpt lat="43.70746" lon="6.97474">
        <ele>669.6958008</ele>
        <time>2012-03-03T12:27:54Z</time>
      </trkpt>
      <trkpt lat="43.7073" lon="6.97497">
        <ele>667.2922363</ele>
        <time>2012-03-03T12:27:57Z</time>
      </trkpt>
      <trkpt lat="43.70702" lon="6.97516">
        <ele>664.4082031</ele>
        <time>2012-03-03T12:28:01Z</time>
      </trkpt>
      <trkpt lat="43.70686" lon="6.97524">
        <ele>662.4855957</ele>
        <time>2012-03-03T12:28:03Z</time>
      </trkpt>
      <trkpt lat="43.70679" lon="6.97528">
        <ele>661.5244141</ele>
        <time>2012-03-03T12:28:04Z</time>
      </trkpt>
      <trkpt lat="43.70653" lon="6.97539">
        <ele>660.0822754</ele>
        <time>2012-03-03T12:28:08Z</time>
      </trkpt>
      <trkpt lat="43.70636" lon="6.97556">
        <ele>660.0822754</ele>
        <time>2012-03-03T12:28:12Z</time>
      </trkpt>
      <trkpt lat="43.70619" lon="6.97563">
        <ele>659.6018066</ele>
        <time>2012-03-03T12:28:17Z</time>
      </trkpt>
      <trkpt lat="43.70609" lon="6.97563">
        <ele>659.1210938</ele>
        <time>2012-03-03T12:28:20Z</time>
      </trkpt>
      <trkpt lat="43.70603" lon="6.97563">
        <ele>659.1210938</ele>
        <time>2012-03-03T12:28:23Z</time>
      </trkpt>
      <trkpt lat="43.70592" lon="6.9755">
        <ele>656.7177734</ele>
        <time>2012-03-03T12:28:29Z</time>
      </trkpt>
      <trkpt lat="43.70587" lon="6.9754">
        <ele>655.2758789</ele>
        <time>2012-03-03T12:28:31Z</time>
      </trkpt>
      <trkpt lat="43.70591" lon="6.9752">
        <ele>651.9111328</ele>
        <time>2012-03-03T12:28:39Z</time>
      </trkpt>
      <trkpt lat="43.70589" lon="6.97518">
        <ele>649.9885254</ele>
        <time>2012-03-03T12:28:53Z</time>
      </trkpt>
      <trkpt lat="43.70589" lon="6.97518">
        <ele>649.9885254</ele>
        <time>2012-03-03T12:28:54Z</time>
      </trkpt>
      <trkpt lat="43.7058" lon="6.97499">
        <ele>648.065918</ele>
        <time>2012-03-03T12:28:59Z</time>
      </trkpt>
      <trkpt lat="43.7058" lon="6.97493">
        <ele>646.1433105</ele>
        <time>2012-03-03T12:29:01Z</time>
      </trkpt>
      <trkpt lat="43.70576" lon="6.97484">
        <ele>645.1818848</ele>
        <time>2012-03-03T12:29:03Z</time>
      </trkpt>
      <trkpt lat="43.7057" lon="6.97473">
        <ele>642.2980957</ele>
        <time>2012-03-03T12:29:08Z</time>
      </trkpt>
      <trkpt lat="43.70569" lon="6.97471">
        <ele>640.855957</ele>
        <time>2012-03-03T12:29:09Z</time>
      </trkpt>
      <trkpt lat="43.7056" lon="6.97472">
        <ele>640.3754883</ele>
        <time>2012-03-03T12:29:14Z</time>
      </trkpt>
      <trkpt lat="43.70552" lon="6.97473">
        <ele>639.8947754</ele>
        <time>2012-03-03T12:29:17Z</time>
      </trkpt>
      <trkpt lat="43.70533" lon="6.97472">
        <ele>636.0495605</ele>
        <time>2012-03-03T12:29:26Z</time>
      </trkpt>
      <trkpt lat="43.70526" lon="6.97466">
        <ele>634.126709</ele>
        <time>2012-03-03T12:29:31Z</time>
      </trkpt>
      <trkpt lat="43.70506" lon="6.97454">
        <ele>630.2814941</ele>
        <time>2012-03-03T12:29:39Z</time>
      </trkpt>
      <trkpt lat="43.70501" lon="6.97447">
        <ele>629.3200684</ele>
        <time>2012-03-03T12:29:43Z</time>
      </trkpt>
      <trkpt lat="43.70498" lon="6.97444">
        <ele>627.3977051</ele>
        <time>2012-03-03T12:29:45Z</time>
      </trkpt>
      <trkpt lat="43.70482" lon="6.97463">
        <ele>626.9169922</ele>
        <time>2012-03-03T12:29:47Z</time>
      </trkpt>
      <trkpt lat="43.70475" lon="6.97468">
        <ele>625.9555664</ele>
        <time>2012-03-03T12:29:50Z</time>
      </trkpt>
      <trkpt lat="43.70452" lon="6.97454">
        <ele>623.0717773</ele>
        <time>2012-03-03T12:30:01Z</time>
      </trkpt>
      <trkpt lat="43.70452" lon="6.97452">
        <ele>623.0717773</ele>
        <time>2012-03-03T12:30:16Z</time>
      </trkpt>
      <trkpt lat="43.70457" lon="6.97447">
        <ele>622.1103516</ele>
        <time>2012-03-03T12:30:20Z</time>
      </trkpt>
      <trkpt lat="43.70461" lon="6.9744">
        <ele>621.6296387</ele>
        <time>2012-03-03T12:30:23Z</time>
      </trkpt>
      <trkpt lat="43.70455" lon="6.97437">
        <ele>620.668457</ele>
        <time>2012-03-03T12:30:27Z</time>
      </trkpt>
      <trkpt lat="43.70451" lon="6.97436">
        <ele>619.7070313</ele>
        <time>2012-03-03T12:30:29Z</time>
      </trkpt>
      <trkpt lat="43.70447" lon="6.97419">
        <ele>617.3037109</ele>
        <time>2012-03-03T12:30:36Z</time>
      </trkpt>
      <trkpt lat="43.70444" lon="6.97416">
        <ele>617.3037109</ele>
        <time>2012-03-03T12:30:38Z</time>
      </trkpt>
      <trkpt lat="43.7044" lon="6.97414">
        <ele>615.8618164</ele>
        <time>2012-03-03T12:30:47Z</time>
      </trkpt>
      <trkpt lat="43.70428" lon="6.97417">
        <ele>613.4584961</ele>
        <time>2012-03-03T12:31:00Z</time>
      </trkpt>
      <trkpt lat="43.70422" lon="6.97417">
        <ele>612.4970703</ele>
        <time>2012-03-03T12:31:11Z</time>
      </trkpt>
      <trkpt lat="43.70419" lon="6.97411">
        <ele>610.5744629</ele>
        <time>2012-03-03T12:31:25Z</time>
      </trkpt>
      <trkpt lat="43.70396" lon="6.97399">
        <ele>609.1325684</ele>
        <time>2012-03-03T12:31:34Z</time>
      </trkpt>
      <trkpt lat="43.70379" lon="6.97398">
        <ele>607.6906738</ele>
        <time>2012-03-03T12:31:44Z</time>
      </trkpt>
      <trkpt lat="43.70377" lon="6.97401">
        <ele>606.2485352</ele>
        <time>2012-03-03T12:31:55Z</time>
      </trkpt>
      <trkpt lat="43.7036" lon="6.97413">
        <ele>601.9226074</ele>
        <time>2012-03-03T12:32:03Z</time>
      </trkpt>
      <trkpt lat="43.70349" lon="6.97429">
        <ele>600.4807129</ele>
        <time>2012-03-03T12:32:17Z</time>
      </trkpt>
      <trkpt lat="43.7034" lon="6.97432">
        <ele>598.5578613</ele>
        <time>2012-03-03T12:32:30Z</time>
      </trkpt>
      <trkpt lat="43.70339" lon="6.97433">
        <ele>597.5966797</ele>
        <time>2012-03-03T12:32:31Z</time>
      </trkpt>
      <trkpt lat="43.70333" lon="6.97435">
        <ele>597.1159668</ele>
        <time>2012-03-03T12:32:39Z</time>
      </trkpt>
      <trkpt lat="43.70299" lon="6.97416">
        <ele>596.1547852</ele>
        <time>2012-03-03T12:32:50Z</time>
      </trkpt>
      <trkpt lat="43.70295" lon="6.97414">
        <ele>595.6740723</ele>
        <time>2012-03-03T12:32:51Z</time>
      </trkpt>
      <trkpt lat="43.70274" lon="6.97399">
        <ele>592.7902832</ele>
        <time>2012-03-03T12:32:57Z</time>
      </trkpt>
      <trkpt lat="43.7027" lon="6.97388">
        <ele>591.3481445</ele>
        <time>2012-03-03T12:32:59Z</time>
      </trkpt>
      <trkpt lat="43.70267" lon="6.97367">
        <ele>589.90625</ele>
        <time>2012-03-03T12:33:02Z</time>
      </trkpt>
      <trkpt lat="43.70268" lon="6.9735">
        <ele>587.9833984</ele>
        <time>2012-03-03T12:33:04Z</time>
      </trkpt>
      <trkpt lat="43.70269" lon="6.97336">
        <ele>586.5415039</ele>
        <time>2012-03-03T12:33:06Z</time>
      </trkpt>
      <trkpt lat="43.70269" lon="6.97328">
        <ele>586.060791</ele>
        <time>2012-03-03T12:33:07Z</time>
      </trkpt>
      <trkpt lat="43.7027" lon="6.97315">
        <ele>585.0996094</ele>
        <time>2012-03-03T12:33:09Z</time>
      </trkpt>
      <trkpt lat="43.70271" lon="6.97302">
        <ele>583.6574707</ele>
        <time>2012-03-03T12:33:11Z</time>
      </trkpt>
      <trkpt lat="43.70271" lon="6.97289">
        <ele>582.2155762</ele>
        <time>2012-03-03T12:33:13Z</time>
      </trkpt>
      <trkpt lat="43.7027" lon="6.97274">
        <ele>580.2929688</ele>
        <time>2012-03-03T12:33:16Z</time>
      </trkpt>
      <trkpt lat="43.7027" lon="6.97268">
        <ele>578.8510742</ele>
        <time>2012-03-03T12:33:18Z</time>
      </trkpt>
      <trkpt lat="43.70269" lon="6.97259">
        <ele>577.4091797</ele>
        <time>2012-03-03T12:33:22Z</time>
      </trkpt>
      <trkpt lat="43.70258" lon="6.97186">
        <ele>570.1989746</ele>
        <time>2012-03-03T12:33:35Z</time>
      </trkpt>
      <trkpt lat="43.70253" lon="6.97163">
        <ele>566.8344727</ele>
        <time>2012-03-03T12:33:39Z</time>
      </trkpt>
      <trkpt lat="43.70249" lon="6.97164">
        <ele>566.3537598</ele>
        <time>2012-03-03T12:33:43Z</time>
      </trkpt>
      <trkpt lat="43.70248" lon="6.97186">
        <ele>563.9504395</ele>
        <time>2012-03-03T12:33:48Z</time>
      </trkpt>
      <trkpt lat="43.70247" lon="6.97191">
        <ele>562.0280762</ele>
        <time>2012-03-03T12:33:49Z</time>
      </trkpt>
      <trkpt lat="43.70243" lon="6.97214">
        <ele>557.7021484</ele>
        <time>2012-03-03T12:33:52Z</time>
      </trkpt>
      <trkpt lat="43.70239" lon="6.97242">
        <ele>556.2600098</ele>
        <time>2012-03-03T12:33:55Z</time>
      </trkpt>
      <trkpt lat="43.70237" lon="6.97257">
        <ele>555.7792969</ele>
        <time>2012-03-03T12:33:57Z</time>
      </trkpt>
      <trkpt lat="43.70234" lon="6.97275">
        <ele>553.8566895</ele>
        <time>2012-03-03T12:34:00Z</time>
      </trkpt>
      <trkpt lat="43.70233" lon="6.97284">
        <ele>552.4145508</ele>
        <time>2012-03-03T12:34:02Z</time>
      </trkpt>
      <trkpt lat="43.70235" lon="6.9727">
        <ele>550.0114746</ele>
        <time>2012-03-03T12:34:09Z</time>
      </trkpt>
      <trkpt lat="43.70238" lon="6.9725">
        <ele>545.6855469</ele>
        <time>2012-03-03T12:34:15Z</time>
      </trkpt>
      <trkpt lat="43.70236" lon="6.97264">
        <ele>544.2436523</ele>
        <time>2012-03-03T12:34:18Z</time>
      </trkpt>
      <trkpt lat="43.70234" lon="6.97273">
        <ele>542.8015137</ele>
        <time>2012-03-03T12:34:20Z</time>
      </trkpt>
      <trkpt lat="43.70232" lon="6.97285">
        <ele>538.475708</ele>
        <time>2012-03-03T12:34:23Z</time>
      </trkpt>
      <trkpt lat="43.70213" lon="6.97188">
        <ele>535.5915527</ele>
        <time>2012-03-03T12:34:29Z</time>
      </trkpt>
      <trkpt lat="43.70213" lon="6.97244">
        <ele>533.6689453</ele>
        <time>2012-03-03T12:34:41Z</time>
      </trkpt>
      <trkpt lat="43.70209" lon="6.97262">
        <ele>532.2270508</ele>
        <time>2012-03-03T12:34:44Z</time>
      </trkpt>
      <trkpt lat="43.70205" lon="6.97274">
        <ele>530.7851563</ele>
        <time>2012-03-03T12:34:46Z</time>
      </trkpt>
      <trkpt lat="43.70204" lon="6.97278">
        <ele>528.8625488</ele>
        <time>2012-03-03T12:34:47Z</time>
      </trkpt>
      <trkpt lat="43.70199" lon="6.97293">
        <ele>527.4204102</ele>
        <time>2012-03-03T12:34:50Z</time>
      </trkpt>
      <trkpt lat="43.70196" lon="6.97302">
        <ele>524.0557861</ele>
        <time>2012-03-03T12:34:52Z</time>
      </trkpt>
      <trkpt lat="43.70194" lon="6.97306">
        <ele>524.0557861</ele>
        <time>2012-03-03T12:34:53Z</time>
      </trkpt>
      <trkpt lat="43.70189" lon="6.97314">
        <ele>522.6138916</ele>
        <time>2012-03-03T12:34:55Z</time>
      </trkpt>
      <trkpt lat="43.70185" lon="6.9732">
        <ele>521.1719971</ele>
        <time>2012-03-03T12:34:57Z</time>
      </trkpt>
      <trkpt lat="43.70178" lon="6.9733">
        <ele>518.7685547</ele>
        <time>2012-03-03T12:35:00Z</time>
      </trkpt>
      <trkpt lat="43.70173" lon="6.97336">
        <ele>516.8459473</ele>
        <time>2012-03-03T12:35:02Z</time>
      </trkpt>
      <trkpt lat="43.70171" lon="6.9734">
        <ele>515.4040527</ele>
        <time>2012-03-03T12:35:03Z</time>
      </trkpt>
      <trkpt lat="43.70165" lon="6.97349">
        <ele>513.4814453</ele>
        <time>2012-03-03T12:35:07Z</time>
      </trkpt>
      <trkpt lat="43.70158" lon="6.97369">
        <ele>510.59729</ele>
        <time>2012-03-03T12:35:12Z</time>
      </trkpt>
      <trkpt lat="43.70156" lon="6.97378">
        <ele>509.6361084</ele>
        <time>2012-03-03T12:35:14Z</time>
      </trkpt>
      <trkpt lat="43.70153" lon="6.9739">
        <ele>508.1940918</ele>
        <time>2012-03-03T12:35:16Z</time>
      </trkpt>
      <trkpt lat="43.70148" lon="6.974">
        <ele>506.7520752</ele>
        <time>2012-03-03T12:35:18Z</time>
      </trkpt>
      <trkpt lat="43.70147" lon="6.97405">
        <ele>505.3101807</ele>
        <time>2012-03-03T12:35:19Z</time>
      </trkpt>
      <trkpt lat="43.70143" lon="6.97412">
        <ele>503.3874512</ele>
        <time>2012-03-03T12:35:21Z</time>
      </trkpt>
      <trkpt lat="43.70142" lon="6.97416">
        <ele>501.9455566</ele>
        <time>2012-03-03T12:35:22Z</time>
      </trkpt>
      <trkpt lat="43.70137" lon="6.97432">
        <ele>500.50354</ele>
        <time>2012-03-03T12:35:25Z</time>
      </trkpt>
      <trkpt lat="43.70135" lon="6.97436">
        <ele>498.5809326</ele>
        <time>2012-03-03T12:35:26Z</time>
      </trkpt>
      <trkpt lat="43.70125" lon="6.97451">
        <ele>496.6583252</ele>
        <time>2012-03-03T12:35:30Z</time>
      </trkpt>
      <trkpt lat="43.7012" lon="6.97458">
        <ele>494.7355957</ele>
        <time>2012-03-03T12:35:32Z</time>
      </trkpt>
      <trkpt lat="43.70114" lon="6.97467">
        <ele>493.2935791</ele>
        <time>2012-03-03T12:35:34Z</time>
      </trkpt>
      <trkpt lat="43.70109" lon="6.97475">
        <ele>490.40979</ele>
        <time>2012-03-03T12:35:36Z</time>
      </trkpt>
      <trkpt lat="43.70107" lon="6.97478">
        <ele>490.40979</ele>
        <time>2012-03-03T12:35:37Z</time>
      </trkpt>
      <trkpt lat="43.70102" lon="6.97491">
        <ele>487.5256348</ele>
        <time>2012-03-03T12:35:41Z</time>
      </trkpt>
      <trkpt lat="43.70097" lon="6.97477">
        <ele>485.6030273</ele>
        <time>2012-03-03T12:35:44Z</time>
      </trkpt>
      <trkpt lat="43.70092" lon="6.97474">
        <ele>483.1998291</ele>
        <time>2012-03-03T12:35:48Z</time>
      </trkpt>
      <trkpt lat="43.70087" lon="6.97471">
        <ele>480.7966309</ele>
        <time>2012-03-03T12:35:50Z</time>
      </trkpt>
      <trkpt lat="43.70082" lon="6.97469">
        <ele>478.8739014</ele>
        <time>2012-03-03T12:35:54Z</time>
      </trkpt>
      <trkpt lat="43.70074" lon="6.97473">
        <ele>476.9512939</ele>
        <time>2012-03-03T12:35:58Z</time>
      </trkpt>
      <trkpt lat="43.70072" lon="6.97474">
        <ele>475.9898682</ele>
        <time>2012-03-03T12:35:59Z</time>
      </trkpt>
      <trkpt lat="43.70067" lon="6.9748">
        <ele>475.0286865</ele>
        <time>2012-03-03T12:36:02Z</time>
      </trkpt>
      <trkpt lat="43.70061" lon="6.97514">
        <ele>470.2219238</ele>
        <time>2012-03-03T12:36:12Z</time>
      </trkpt>
      <trkpt lat="43.70058" lon="6.97524">
        <ele>469.2607422</ele>
        <time>2012-03-03T12:36:14Z</time>
      </trkpt>
      <trkpt lat="43.70053" lon="6.9754">
        <ele>466.376709</ele>
        <time>2012-03-03T12:36:17Z</time>
      </trkpt>
      <trkpt lat="43.7005" lon="6.9755">
        <ele>465.4155273</ele>
        <time>2012-03-03T12:36:19Z</time>
      </trkpt>
      <trkpt lat="43.70048" lon="6.97558">
        <ele>464.4541016</ele>
        <time>2012-03-03T12:36:21Z</time>
      </trkpt>
      <trkpt lat="43.70046" lon="6.97564">
        <ele>463.012085</ele>
        <time>2012-03-03T12:36:23Z</time>
      </trkpt>
      <trkpt lat="43.70042" lon="6.97586">
        <ele>460.1281738</ele>
        <time>2012-03-03T12:36:28Z</time>
      </trkpt>
      <trkpt lat="43.7004" lon="6.97597">
        <ele>458.2055664</ele>
        <time>2012-03-03T12:36:32Z</time>
      </trkpt>
      <trkpt lat="43.70038" lon="6.97609">
        <ele>455.8022461</ele>
        <time>2012-03-03T12:36:35Z</time>
      </trkpt>
      <trkpt lat="43.70035" lon="6.97623">
        <ele>453.8796387</ele>
        <time>2012-03-03T12:36:39Z</time>
      </trkpt>
      <trkpt lat="43.70032" lon="6.97632">
        <ele>450.9956055</ele>
        <time>2012-03-03T12:36:42Z</time>
      </trkpt>
      <trkpt lat="43.70031" lon="6.97638">
        <ele>450.0344238</ele>
        <time>2012-03-03T12:36:44Z</time>
      </trkpt>
      <trkpt lat="43.70029" lon="6.97647">
        <ele>447.1502686</ele>
        <time>2012-03-03T12:36:48Z</time>
      </trkpt>
      <trkpt lat="43.7003" lon="6.97672">
        <ele>443.7857666</ele>
        <time>2012-03-03T12:36:54Z</time>
      </trkpt>
      <trkpt lat="43.70033" lon="6.97703">
        <ele>441.8631592</ele>
        <time>2012-03-03T12:36:58Z</time>
      </trkpt>
      <trkpt lat="43.70042" lon="6.97745">
        <ele>438.979126</ele>
        <time>2012-03-03T12:37:04Z</time>
      </trkpt>
      <trkpt lat="43.70041" lon="6.9777">
        <ele>435.1339111</ele>
        <time>2012-03-03T12:37:11Z</time>
      </trkpt>
      <trkpt lat="43.70041" lon="6.97773">
        <ele>435.1339111</ele>
        <time>2012-03-03T12:37:12Z</time>
      </trkpt>
      <trkpt lat="43.70039" lon="6.97782">
        <ele>432.25</ele>
        <time>2012-03-03T12:37:16Z</time>
      </trkpt>
      <trkpt lat="43.70039" lon="6.97782">
        <ele>429.3659668</ele>
        <time>2012-03-03T12:37:18Z</time>
      </trkpt>
      <trkpt lat="43.70039" lon="6.97782">
        <ele>429.3659668</ele>
        <time>2012-03-03T12:37:19Z</time>
      </trkpt>
      <trkpt lat="43.70027" lon="6.97818">
        <ele>427.4433594</ele>
        <time>2012-03-03T12:37:21Z</time>
      </trkpt>
      <trkpt lat="43.70027" lon="6.97828">
        <ele>425.0401611</ele>
        <time>2012-03-03T12:37:22Z</time>
      </trkpt>
      <trkpt lat="43.70022" lon="6.97856">
        <ele>420.2333984</ele>
        <time>2012-03-03T12:37:25Z</time>
      </trkpt>
      <trkpt lat="43.70022" lon="6.97865">
        <ele>420.2333984</ele>
        <time>2012-03-03T12:37:26Z</time>
      </trkpt>
      <trkpt lat="43.70022" lon="6.97882">
        <ele>418.310791</ele>
        <time>2012-03-03T12:37:28Z</time>
      </trkpt>
      <trkpt lat="43.70022" lon="6.979">
        <ele>415.9074707</ele>
        <time>2012-03-03T12:37:30Z</time>
      </trkpt>
      <trkpt lat="43.70023" lon="6.97919">
        <ele>412.5428467</ele>
        <time>2012-03-03T12:37:32Z</time>
      </trkpt>
      <trkpt lat="43.70023" lon="6.97929">
        <ele>412.5428467</ele>
        <time>2012-03-03T12:37:33Z</time>
      </trkpt>
      <trkpt lat="43.70024" lon="6.97956">
        <ele>410.1396484</ele>
        <time>2012-03-03T12:37:35Z</time>
      </trkpt>
      <trkpt lat="43.70025" lon="6.97986">
        <ele>407.2556152</ele>
        <time>2012-03-03T12:37:37Z</time>
      </trkpt>
      <trkpt lat="43.70026" lon="6.98001">
        <ele>403.4104004</ele>
        <time>2012-03-03T12:37:38Z</time>
      </trkpt>
      <trkpt lat="43.70026" lon="6.98013">
        <ele>403.4104004</ele>
        <time>2012-03-03T12:37:39Z</time>
      </trkpt>
      <trkpt lat="43.70028" lon="6.98051">
        <ele>401.0070801</ele>
        <time>2012-03-03T12:37:42Z</time>
      </trkpt>
      <trkpt lat="43.70028" lon="6.98074">
        <ele>399.0843506</ele>
        <time>2012-03-03T12:37:44Z</time>
      </trkpt>
      <trkpt lat="43.70024" lon="6.98093">
        <ele>398.6037598</ele>
        <time>2012-03-03T12:37:46Z</time>
      </trkpt>
      <trkpt lat="43.70014" lon="6.98121">
        <ele>396.2005615</ele>
        <time>2012-03-03T12:37:49Z</time>
      </trkpt>
      <trkpt lat="43.70001" lon="6.98134">
        <ele>395.2391357</ele>
        <time>2012-03-03T12:37:51Z</time>
      </trkpt>
      <trkpt lat="43.69986" lon="6.98155">
        <ele>393.3165283</ele>
        <time>2012-03-03T12:37:55Z</time>
      </trkpt>
      <trkpt lat="43.69977" lon="6.98176">
        <ele>390.913208</ele>
        <time>2012-03-03T12:37:58Z</time>
      </trkpt>
      <trkpt lat="43.69971" lon="6.98188">
        <ele>388.9906006</ele>
        <time>2012-03-03T12:38:00Z</time>
      </trkpt>
      <trkpt lat="43.69966" lon="6.98198">
        <ele>384.6647949</ele>
        <time>2012-03-03T12:38:02Z</time>
      </trkpt>
      <trkpt lat="43.69964" lon="6.98202">
        <ele>384.6647949</ele>
        <time>2012-03-03T12:38:03Z</time>
      </trkpt>
      <trkpt lat="43.69956" lon="6.98208">
        <ele>382.7420654</ele>
        <time>2012-03-03T12:38:05Z</time>
      </trkpt>
      <trkpt lat="43.69945" lon="6.98213">
        <ele>380.3387451</ele>
        <time>2012-03-03T12:38:07Z</time>
      </trkpt>
      <trkpt lat="43.6994" lon="6.98215">
        <ele>378.4161377</ele>
        <time>2012-03-03T12:38:08Z</time>
      </trkpt>
      <trkpt lat="43.69939" lon="6.98215">
        <ele>376.0128174</ele>
        <time>2012-03-03T12:38:10Z</time>
      </trkpt>
      <trkpt lat="43.69922" lon="6.98242">
        <ele>374.5708008</ele>
        <time>2012-03-03T12:38:12Z</time>
      </trkpt>
      <trkpt lat="43.6992" lon="6.9825">
        <ele>373.6094971</ele>
        <time>2012-03-03T12:38:13Z</time>
      </trkpt>
      <trkpt lat="43.6991" lon="6.9827">
        <ele>369.2836914</ele>
        <time>2012-03-03T12:38:16Z</time>
      </trkpt>
      <trkpt lat="43.69906" lon="6.98295">
        <ele>367.8415527</ele>
        <time>2012-03-03T12:38:19Z</time>
      </trkpt>
      <trkpt lat="43.69905" lon="6.98305">
        <ele>364.4769287</ele>
        <time>2012-03-03T12:38:20Z</time>
      </trkpt>
      <trkpt lat="43.69904" lon="6.98315">
        <ele>364.4769287</ele>
        <time>2012-03-03T12:38:21Z</time>
      </trkpt>
      <trkpt lat="43.69905" lon="6.98336">
        <ele>362.5543213</ele>
        <time>2012-03-03T12:38:23Z</time>
      </trkpt>
      <trkpt lat="43.69906" lon="6.98353">
        <ele>360.151123</ele>
        <time>2012-03-03T12:38:25Z</time>
      </trkpt>
      <trkpt lat="43.69895" lon="6.98378">
        <ele>358.7089844</ele>
        <time>2012-03-03T12:38:28Z</time>
      </trkpt>
      <trkpt lat="43.69888" lon="6.98397">
        <ele>356.786377</ele>
        <time>2012-03-03T12:38:30Z</time>
      </trkpt>
      <trkpt lat="43.69882" lon="6.98413">
        <ele>355.3444824</ele>
        <time>2012-03-03T12:38:32Z</time>
      </trkpt>
      <trkpt lat="43.69889" lon="6.98446">
        <ele>353.421875</ele>
        <time>2012-03-03T12:38:38Z</time>
      </trkpt>
      <trkpt lat="43.69928" lon="6.98505">
        <ele>352.4605713</ele>
        <time>2012-03-03T12:38:48Z</time>
      </trkpt>
      <trkpt lat="43.69961" lon="6.98559">
        <ele>349.5765381</ele>
        <time>2012-03-03T12:38:56Z</time>
      </trkpt>
      <trkpt lat="43.69969" lon="6.98581">
        <ele>347.1732178</ele>
        <time>2012-03-03T12:38:59Z</time>
      </trkpt>
      <trkpt lat="43.69972" lon="6.98594">
        <ele>346.2120361</ele>
        <time>2012-03-03T12:39:01Z</time>
      </trkpt>
      <trkpt lat="43.6998" lon="6.98602">
        <ele>344.7700195</ele>
        <time>2012-03-03T12:39:03Z</time>
      </trkpt>
      <trkpt lat="43.70002" lon="6.98603">
        <ele>346.2120361</ele>
        <time>2012-03-03T12:39:10Z</time>
      </trkpt>
      <trkpt lat="43.70002" lon="6.98603">
        <ele>347.1732178</ele>
        <time>2012-03-03T12:39:26Z</time>
      </trkpt>
      <trkpt lat="43.70002" lon="6.98603">
        <ele>347.1732178</ele>
        <time>2012-03-03T12:39:51Z</time>
      </trkpt>
    </trkseg>
  </trk>
</gpx>